<?xml version="1.0" encoding="UTF-8" standalone="no" ?>
<gpx xmlns="http://www.topografix.com/GPX/1/1" xmlns:xsi="http://www.w3.org/2001/XMLSchema-instance" xsi:schemaLocation="http://www.topografix.com/GPX/1/1 http://www.topografix.com/GPX/1/1/gpx.xsd" version="1.1" creator="VisuGPX - https://www.visugpx.com">
  <metadata>
    <name>Rando de Ballancourt à La Ferté Alais (91)</name>
    <desc><![CDATA[Très belle randonnée au départ de la gare de Ballancourt   jusqu'à La Ferté Alais (91) 
A lire aussi sur [url]http://trekkingzone.fr[/url]

]]></desc>
  </metadata>
  <trk>
    <name><![CDATA[24 mai 2020 à 09:43:36]]></name>
    <cmt><![CDATA[24 mai 2020 à 09:43:36]]></cmt>
    <trkseg>
      <trkpt lat="48.53167" lon="2.37081">
        <ele>39</ele>
        <time>2020-05-24T07:43:37Z</time>
      </trkpt>
      <trkpt lat="48.53167" lon="2.37081">
        <ele>39</ele>
        <time>2020-05-24T07:43:38Z</time>
      </trkpt>
      <trkpt lat="48.53167" lon="2.37081">
        <ele>40</ele>
        <time>2020-05-24T07:43:44Z</time>
      </trkpt>
      <trkpt lat="48.53167" lon="2.37081">
        <ele>40</ele>
        <time>2020-05-24T07:43:45Z</time>
      </trkpt>
      <trkpt lat="48.53177" lon="2.37082">
        <ele>40</ele>
        <time>2020-05-24T07:44:34Z</time>
      </trkpt>
      <trkpt lat="48.53186" lon="2.37088">
        <ele>40</ele>
        <time>2020-05-24T07:44:43Z</time>
      </trkpt>
      <trkpt lat="48.53193" lon="2.37097">
        <ele>40</ele>
        <time>2020-05-24T07:44:51Z</time>
      </trkpt>
      <trkpt lat="48.53196" lon="2.37104">
        <ele>41</ele>
        <time>2020-05-24T07:44:55Z</time>
      </trkpt>
      <trkpt lat="48.53202" lon="2.37133">
        <ele>40</ele>
        <time>2020-05-24T07:45:09Z</time>
      </trkpt>
      <trkpt lat="48.53206" lon="2.37137">
        <ele>40</ele>
        <time>2020-05-24T07:45:13Z</time>
      </trkpt>
      <trkpt lat="48.53217" lon="2.37163">
        <ele>40</ele>
        <time>2020-05-24T07:45:29Z</time>
      </trkpt>
      <trkpt lat="48.53221" lon="2.37167">
        <ele>40</ele>
        <time>2020-05-24T07:45:33Z</time>
      </trkpt>
      <trkpt lat="48.53226" lon="2.37169">
        <ele>40</ele>
        <time>2020-05-24T07:45:37Z</time>
      </trkpt>
      <trkpt lat="48.53235" lon="2.37171">
        <ele>41</ele>
        <time>2020-05-24T07:45:43Z</time>
      </trkpt>
      <trkpt lat="48.53248" lon="2.37181">
        <ele>41</ele>
        <time>2020-05-24T07:45:55Z</time>
      </trkpt>
      <trkpt lat="48.53257" lon="2.37172">
        <ele>41</ele>
        <time>2020-05-24T07:46:01Z</time>
      </trkpt>
      <trkpt lat="48.53265" lon="2.37152">
        <ele>40</ele>
        <time>2020-05-24T07:46:10Z</time>
      </trkpt>
      <trkpt lat="48.5327" lon="2.37138">
        <ele>40</ele>
        <time>2020-05-24T07:46:17Z</time>
      </trkpt>
      <trkpt lat="48.53271" lon="2.37125">
        <ele>40</ele>
        <time>2020-05-24T07:47:05Z</time>
      </trkpt>
      <trkpt lat="48.5327" lon="2.37119">
        <ele>40</ele>
        <time>2020-05-24T07:47:09Z</time>
      </trkpt>
      <trkpt lat="48.53245" lon="2.37084">
        <ele>39</ele>
        <time>2020-05-24T07:47:40Z</time>
      </trkpt>
      <trkpt lat="48.53216" lon="2.37031">
        <ele>38</ele>
        <time>2020-05-24T07:48:14Z</time>
      </trkpt>
      <trkpt lat="48.53209" lon="2.37021">
        <ele>38</ele>
        <time>2020-05-24T07:48:22Z</time>
      </trkpt>
      <trkpt lat="48.53201" lon="2.37012">
        <ele>38</ele>
        <time>2020-05-24T07:48:30Z</time>
      </trkpt>
      <trkpt lat="48.53197" lon="2.37006">
        <ele>38</ele>
        <time>2020-05-24T07:48:34Z</time>
      </trkpt>
      <trkpt lat="48.53195" lon="2.37">
        <ele>38</ele>
        <time>2020-05-24T07:48:37Z</time>
      </trkpt>
      <trkpt lat="48.53188" lon="2.36987">
        <ele>37</ele>
        <time>2020-05-24T07:48:45Z</time>
      </trkpt>
      <trkpt lat="48.53186" lon="2.3698">
        <ele>37</ele>
        <time>2020-05-24T07:48:49Z</time>
      </trkpt>
      <trkpt lat="48.53158" lon="2.36934">
        <ele>37</ele>
        <time>2020-05-24T07:49:17Z</time>
      </trkpt>
      <trkpt lat="48.53153" lon="2.36929">
        <ele>37</ele>
        <time>2020-05-24T07:49:22Z</time>
      </trkpt>
      <trkpt lat="48.53126" lon="2.36859">
        <ele>37</ele>
        <time>2020-05-24T07:49:55Z</time>
      </trkpt>
      <trkpt lat="48.53118" lon="2.36848">
        <ele>37</ele>
        <time>2020-05-24T07:50:03Z</time>
      </trkpt>
      <trkpt lat="48.53103" lon="2.36835">
        <ele>38</ele>
        <time>2020-05-24T07:50:16Z</time>
      </trkpt>
      <trkpt lat="48.531" lon="2.3683">
        <ele>38</ele>
        <time>2020-05-24T07:50:21Z</time>
      </trkpt>
      <trkpt lat="48.5309" lon="2.36822">
        <ele>39</ele>
        <time>2020-05-24T07:50:30Z</time>
      </trkpt>
      <trkpt lat="48.53082" lon="2.36812">
        <ele>38</ele>
        <time>2020-05-24T07:50:37Z</time>
      </trkpt>
      <trkpt lat="48.53074" lon="2.36808">
        <ele>39</ele>
        <time>2020-05-24T07:50:43Z</time>
      </trkpt>
      <trkpt lat="48.53067" lon="2.36803">
        <ele>38</ele>
        <time>2020-05-24T07:50:48Z</time>
      </trkpt>
      <trkpt lat="48.53062" lon="2.36802">
        <ele>38</ele>
        <time>2020-05-24T07:50:52Z</time>
      </trkpt>
      <trkpt lat="48.53057" lon="2.36798">
        <ele>38</ele>
        <time>2020-05-24T07:50:56Z</time>
      </trkpt>
      <trkpt lat="48.53052" lon="2.36796">
        <ele>38</ele>
        <time>2020-05-24T07:51:01Z</time>
      </trkpt>
      <trkpt lat="48.53047" lon="2.36795">
        <ele>38</ele>
        <time>2020-05-24T07:51:05Z</time>
      </trkpt>
      <trkpt lat="48.53038" lon="2.36788">
        <ele>38</ele>
        <time>2020-05-24T07:51:12Z</time>
      </trkpt>
      <trkpt lat="48.53027" lon="2.36786">
        <ele>38</ele>
        <time>2020-05-24T07:51:20Z</time>
      </trkpt>
      <trkpt lat="48.53013" lon="2.36771">
        <ele>38</ele>
        <time>2020-05-24T07:51:29Z</time>
      </trkpt>
      <trkpt lat="48.53002" lon="2.36755">
        <ele>39</ele>
        <time>2020-05-24T07:51:41Z</time>
      </trkpt>
      <trkpt lat="48.52994" lon="2.36747">
        <ele>39</ele>
        <time>2020-05-24T07:51:49Z</time>
      </trkpt>
      <trkpt lat="48.52979" lon="2.36741">
        <ele>39</ele>
        <time>2020-05-24T07:52:02Z</time>
      </trkpt>
      <trkpt lat="48.5297" lon="2.36733">
        <ele>39</ele>
        <time>2020-05-24T07:52:10Z</time>
      </trkpt>
      <trkpt lat="48.52965" lon="2.36733">
        <ele>39</ele>
        <time>2020-05-24T07:52:15Z</time>
      </trkpt>
      <trkpt lat="48.52957" lon="2.36725">
        <ele>39</ele>
        <time>2020-05-24T07:52:21Z</time>
      </trkpt>
      <trkpt lat="48.52953" lon="2.3672">
        <ele>40</ele>
        <time>2020-05-24T07:52:24Z</time>
      </trkpt>
      <trkpt lat="48.52943" lon="2.36711">
        <ele>39</ele>
        <time>2020-05-24T07:52:31Z</time>
      </trkpt>
      <trkpt lat="48.52935" lon="2.36704">
        <ele>40</ele>
        <time>2020-05-24T07:52:38Z</time>
      </trkpt>
      <trkpt lat="48.5293" lon="2.36697">
        <ele>39</ele>
        <time>2020-05-24T07:52:42Z</time>
      </trkpt>
      <trkpt lat="48.52922" lon="2.36688">
        <ele>40</ele>
        <time>2020-05-24T07:52:49Z</time>
      </trkpt>
      <trkpt lat="48.52913" lon="2.36683">
        <ele>39</ele>
        <time>2020-05-24T07:52:57Z</time>
      </trkpt>
      <trkpt lat="48.52877" lon="2.36651">
        <ele>40</ele>
        <time>2020-05-24T07:53:29Z</time>
      </trkpt>
      <trkpt lat="48.52868" lon="2.36642">
        <ele>40</ele>
        <time>2020-05-24T07:53:36Z</time>
      </trkpt>
      <trkpt lat="48.52859" lon="2.36636">
        <ele>41</ele>
        <time>2020-05-24T07:53:44Z</time>
      </trkpt>
      <trkpt lat="48.52855" lon="2.36632">
        <ele>41</ele>
        <time>2020-05-24T07:53:48Z</time>
      </trkpt>
      <trkpt lat="48.52849" lon="2.36632">
        <ele>41</ele>
        <time>2020-05-24T07:53:52Z</time>
      </trkpt>
      <trkpt lat="48.52845" lon="2.36628">
        <ele>41</ele>
        <time>2020-05-24T07:53:55Z</time>
      </trkpt>
      <trkpt lat="48.52837" lon="2.36618">
        <ele>41</ele>
        <time>2020-05-24T07:54:03Z</time>
      </trkpt>
      <trkpt lat="48.52828" lon="2.36611">
        <ele>41</ele>
        <time>2020-05-24T07:54:11Z</time>
      </trkpt>
      <trkpt lat="48.52799" lon="2.36582">
        <ele>42</ele>
        <time>2020-05-24T07:54:37Z</time>
      </trkpt>
      <trkpt lat="48.52793" lon="2.36569">
        <ele>42</ele>
        <time>2020-05-24T07:54:43Z</time>
      </trkpt>
      <trkpt lat="48.5279" lon="2.36564">
        <ele>42</ele>
        <time>2020-05-24T07:54:46Z</time>
      </trkpt>
      <trkpt lat="48.52786" lon="2.36561">
        <ele>42</ele>
        <time>2020-05-24T07:54:50Z</time>
      </trkpt>
      <trkpt lat="48.52772" lon="2.36549">
        <ele>43</ele>
        <time>2020-05-24T07:55:02Z</time>
      </trkpt>
      <trkpt lat="48.5276" lon="2.36534">
        <ele>43</ele>
        <time>2020-05-24T07:55:13Z</time>
      </trkpt>
      <trkpt lat="48.52751" lon="2.36525">
        <ele>43</ele>
        <time>2020-05-24T07:55:21Z</time>
      </trkpt>
      <trkpt lat="48.52748" lon="2.36519">
        <ele>43</ele>
        <time>2020-05-24T07:55:26Z</time>
      </trkpt>
      <trkpt lat="48.52746" lon="2.36513">
        <ele>43</ele>
        <time>2020-05-24T07:55:29Z</time>
      </trkpt>
      <trkpt lat="48.52726" lon="2.36488">
        <ele>44</ele>
        <time>2020-05-24T07:55:46Z</time>
      </trkpt>
      <trkpt lat="48.52716" lon="2.36482">
        <ele>44</ele>
        <time>2020-05-24T07:55:54Z</time>
      </trkpt>
      <trkpt lat="48.5268" lon="2.36452">
        <ele>45</ele>
        <time>2020-05-24T07:56:26Z</time>
      </trkpt>
      <trkpt lat="48.52648" lon="2.36431">
        <ele>45</ele>
        <time>2020-05-24T07:56:53Z</time>
      </trkpt>
      <trkpt lat="48.52638" lon="2.36428">
        <ele>45</ele>
        <time>2020-05-24T07:57:02Z</time>
      </trkpt>
      <trkpt lat="48.52627" lon="2.3642">
        <ele>46</ele>
        <time>2020-05-24T07:57:12Z</time>
      </trkpt>
      <trkpt lat="48.52617" lon="2.36416">
        <ele>46</ele>
        <time>2020-05-24T07:57:19Z</time>
      </trkpt>
      <trkpt lat="48.52608" lon="2.36408">
        <ele>46</ele>
        <time>2020-05-24T07:57:26Z</time>
      </trkpt>
      <trkpt lat="48.52598" lon="2.36404">
        <ele>46</ele>
        <time>2020-05-24T07:57:34Z</time>
      </trkpt>
      <trkpt lat="48.52593" lon="2.36401">
        <ele>46</ele>
        <time>2020-05-24T07:57:38Z</time>
      </trkpt>
      <trkpt lat="48.52589" lon="2.36397">
        <ele>46</ele>
        <time>2020-05-24T07:57:41Z</time>
      </trkpt>
      <trkpt lat="48.52578" lon="2.36394">
        <ele>46</ele>
        <time>2020-05-24T07:57:49Z</time>
      </trkpt>
      <trkpt lat="48.52574" lon="2.36391">
        <ele>46</ele>
        <time>2020-05-24T07:57:53Z</time>
      </trkpt>
      <trkpt lat="48.5256" lon="2.36379">
        <ele>46</ele>
        <time>2020-05-24T07:58:05Z</time>
      </trkpt>
      <trkpt lat="48.52544" lon="2.36379">
        <ele>46</ele>
        <time>2020-05-24T07:58:15Z</time>
      </trkpt>
      <trkpt lat="48.52539" lon="2.3638">
        <ele>46</ele>
        <time>2020-05-24T07:58:19Z</time>
      </trkpt>
      <trkpt lat="48.52496" lon="2.36368">
        <ele>46</ele>
        <time>2020-05-24T07:58:51Z</time>
      </trkpt>
      <trkpt lat="48.5249" lon="2.36365">
        <ele>47</ele>
        <time>2020-05-24T07:58:55Z</time>
      </trkpt>
      <trkpt lat="48.52485" lon="2.36366">
        <ele>47</ele>
        <time>2020-05-24T07:58:59Z</time>
      </trkpt>
      <trkpt lat="48.52475" lon="2.3636">
        <ele>47</ele>
        <time>2020-05-24T07:59:07Z</time>
      </trkpt>
      <trkpt lat="48.52435" lon="2.36366">
        <ele>48</ele>
        <time>2020-05-24T07:59:38Z</time>
      </trkpt>
      <trkpt lat="48.52394" lon="2.36386">
        <ele>49</ele>
        <time>2020-05-24T08:00:10Z</time>
      </trkpt>
      <trkpt lat="48.52368" lon="2.36392">
        <ele>50</ele>
        <time>2020-05-24T08:00:29Z</time>
      </trkpt>
      <trkpt lat="48.52363" lon="2.36396">
        <ele>49</ele>
        <time>2020-05-24T08:00:33Z</time>
      </trkpt>
      <trkpt lat="48.52358" lon="2.36402">
        <ele>50</ele>
        <time>2020-05-24T08:00:39Z</time>
      </trkpt>
      <trkpt lat="48.52349" lon="2.36409">
        <ele>50</ele>
        <time>2020-05-24T08:00:46Z</time>
      </trkpt>
      <trkpt lat="48.52308" lon="2.36422">
        <ele>50</ele>
        <time>2020-05-24T08:01:18Z</time>
      </trkpt>
      <trkpt lat="48.52294" lon="2.36421">
        <ele>50</ele>
        <time>2020-05-24T08:01:28Z</time>
      </trkpt>
      <trkpt lat="48.52288" lon="2.36425">
        <ele>50</ele>
        <time>2020-05-24T08:01:32Z</time>
      </trkpt>
      <trkpt lat="48.52285" lon="2.36432">
        <ele>50</ele>
        <time>2020-05-24T08:01:36Z</time>
      </trkpt>
      <trkpt lat="48.52284" lon="2.36438">
        <ele>50</ele>
        <time>2020-05-24T08:01:40Z</time>
      </trkpt>
      <trkpt lat="48.52279" lon="2.36452">
        <ele>51</ele>
        <time>2020-05-24T08:01:48Z</time>
      </trkpt>
      <trkpt lat="48.5227" lon="2.36496">
        <ele>52</ele>
        <time>2020-05-24T08:02:12Z</time>
      </trkpt>
      <trkpt lat="48.52271" lon="2.36503">
        <ele>53</ele>
        <time>2020-05-24T08:02:16Z</time>
      </trkpt>
      <trkpt lat="48.52272" lon="2.36517">
        <ele>53</ele>
        <time>2020-05-24T08:02:24Z</time>
      </trkpt>
      <trkpt lat="48.52271" lon="2.36526">
        <ele>53</ele>
        <time>2020-05-24T08:02:33Z</time>
      </trkpt>
      <trkpt lat="48.52272" lon="2.36535">
        <ele>53</ele>
        <time>2020-05-24T08:02:38Z</time>
      </trkpt>
      <trkpt lat="48.52259" lon="2.36576">
        <ele>55</ele>
        <time>2020-05-24T08:03:04Z</time>
      </trkpt>
      <trkpt lat="48.52258" lon="2.36585">
        <ele>56</ele>
        <time>2020-05-24T08:03:08Z</time>
      </trkpt>
      <trkpt lat="48.52254" lon="2.36599">
        <ele>56</ele>
        <time>2020-05-24T08:03:16Z</time>
      </trkpt>
      <trkpt lat="48.5225" lon="2.36621">
        <ele>57</ele>
        <time>2020-05-24T08:03:28Z</time>
      </trkpt>
      <trkpt lat="48.52227" lon="2.36686">
        <ele>58</ele>
        <time>2020-05-24T08:04:05Z</time>
      </trkpt>
      <trkpt lat="48.52205" lon="2.36734">
        <ele>59</ele>
        <time>2020-05-24T08:04:34Z</time>
      </trkpt>
      <trkpt lat="48.52198" lon="2.36745">
        <ele>59</ele>
        <time>2020-05-24T08:04:42Z</time>
      </trkpt>
      <trkpt lat="48.52193" lon="2.36758">
        <ele>59</ele>
        <time>2020-05-24T08:04:49Z</time>
      </trkpt>
      <trkpt lat="48.52186" lon="2.3677">
        <ele>59</ele>
        <time>2020-05-24T08:04:56Z</time>
      </trkpt>
      <trkpt lat="48.5218" lon="2.36782">
        <ele>59</ele>
        <time>2020-05-24T08:05:02Z</time>
      </trkpt>
      <trkpt lat="48.52178" lon="2.36788">
        <ele>59</ele>
        <time>2020-05-24T08:05:06Z</time>
      </trkpt>
      <trkpt lat="48.52173" lon="2.36792">
        <ele>59</ele>
        <time>2020-05-24T08:05:12Z</time>
      </trkpt>
      <trkpt lat="48.52169" lon="2.36797">
        <ele>59</ele>
        <time>2020-05-24T08:05:16Z</time>
      </trkpt>
      <trkpt lat="48.52166" lon="2.36804">
        <ele>59</ele>
        <time>2020-05-24T08:05:20Z</time>
      </trkpt>
      <trkpt lat="48.52159" lon="2.36816">
        <ele>59</ele>
        <time>2020-05-24T08:05:27Z</time>
      </trkpt>
      <trkpt lat="48.52155" lon="2.3682">
        <ele>59</ele>
        <time>2020-05-24T08:05:31Z</time>
      </trkpt>
      <trkpt lat="48.52146" lon="2.36828">
        <ele>59</ele>
        <time>2020-05-24T08:05:39Z</time>
      </trkpt>
      <trkpt lat="48.52117" lon="2.36838">
        <ele>59</ele>
        <time>2020-05-24T08:06:01Z</time>
      </trkpt>
      <trkpt lat="48.52115" lon="2.36844">
        <ele>59</ele>
        <time>2020-05-24T08:06:06Z</time>
      </trkpt>
      <trkpt lat="48.52109" lon="2.36835">
        <ele>60</ele>
        <time>2020-05-24T08:07:04Z</time>
      </trkpt>
      <trkpt lat="48.52104" lon="2.36836">
        <ele>60</ele>
        <time>2020-05-24T08:07:07Z</time>
      </trkpt>
      <trkpt lat="48.52094" lon="2.36842">
        <ele>60</ele>
        <time>2020-05-24T08:07:15Z</time>
      </trkpt>
      <trkpt lat="48.52088" lon="2.36844">
        <ele>59</ele>
        <time>2020-05-24T08:07:19Z</time>
      </trkpt>
      <trkpt lat="48.52083" lon="2.36847">
        <ele>60</ele>
        <time>2020-05-24T08:07:23Z</time>
      </trkpt>
      <trkpt lat="48.52054" lon="2.36859">
        <ele>60</ele>
        <time>2020-05-24T08:07:47Z</time>
      </trkpt>
      <trkpt lat="48.5205" lon="2.36862">
        <ele>60</ele>
        <time>2020-05-24T08:07:52Z</time>
      </trkpt>
      <trkpt lat="48.52045" lon="2.36862">
        <ele>61</ele>
        <time>2020-05-24T08:07:56Z</time>
      </trkpt>
      <trkpt lat="48.52041" lon="2.3686">
        <ele>61</ele>
        <time>2020-05-24T08:07:59Z</time>
      </trkpt>
      <trkpt lat="48.52023" lon="2.36864">
        <ele>61</ele>
        <time>2020-05-24T08:08:11Z</time>
      </trkpt>
      <trkpt lat="48.52017" lon="2.36864">
        <ele>61</ele>
        <time>2020-05-24T08:08:15Z</time>
      </trkpt>
      <trkpt lat="48.52007" lon="2.36871">
        <ele>61</ele>
        <time>2020-05-24T08:08:23Z</time>
      </trkpt>
      <trkpt lat="48.51973" lon="2.36876">
        <ele>60</ele>
        <time>2020-05-24T08:08:47Z</time>
      </trkpt>
      <trkpt lat="48.51969" lon="2.36876">
        <ele>60</ele>
        <time>2020-05-24T08:08:50Z</time>
      </trkpt>
      <trkpt lat="48.51963" lon="2.36877">
        <ele>60</ele>
        <time>2020-05-24T08:08:54Z</time>
      </trkpt>
      <trkpt lat="48.51942" lon="2.36886">
        <ele>61</ele>
        <time>2020-05-24T08:09:10Z</time>
      </trkpt>
      <trkpt lat="48.51936" lon="2.36884">
        <ele>60</ele>
        <time>2020-05-24T08:09:16Z</time>
      </trkpt>
      <trkpt lat="48.51931" lon="2.36886">
        <ele>61</ele>
        <time>2020-05-24T08:09:20Z</time>
      </trkpt>
      <trkpt lat="48.51911" lon="2.36895">
        <ele>61</ele>
        <time>2020-05-24T08:09:36Z</time>
      </trkpt>
      <trkpt lat="48.519" lon="2.36895">
        <ele>60</ele>
        <time>2020-05-24T08:09:44Z</time>
      </trkpt>
      <trkpt lat="48.51881" lon="2.36904">
        <ele>60</ele>
        <time>2020-05-24T08:10:01Z</time>
      </trkpt>
      <trkpt lat="48.51853" lon="2.36904">
        <ele>60</ele>
        <time>2020-05-24T08:10:20Z</time>
      </trkpt>
      <trkpt lat="48.51843" lon="2.3691">
        <ele>59</ele>
        <time>2020-05-24T08:10:28Z</time>
      </trkpt>
      <trkpt lat="48.51845" lon="2.36905">
        <ele>60</ele>
        <time>2020-05-24T08:14:37Z</time>
      </trkpt>
      <trkpt lat="48.51845" lon="2.3691">
        <ele>60</ele>
        <time>2020-05-24T08:16:38Z</time>
      </trkpt>
      <trkpt lat="48.5183" lon="2.36914">
        <ele>59</ele>
        <time>2020-05-24T08:17:00Z</time>
      </trkpt>
      <trkpt lat="48.51818" lon="2.36932">
        <ele>58</ele>
        <time>2020-05-24T08:17:42Z</time>
      </trkpt>
      <trkpt lat="48.51819" lon="2.36946">
        <ele>58</ele>
        <time>2020-05-24T08:17:51Z</time>
      </trkpt>
      <trkpt lat="48.51823" lon="2.36975">
        <ele>59</ele>
        <time>2020-05-24T08:18:09Z</time>
      </trkpt>
      <trkpt lat="48.51833" lon="2.37001">
        <ele>59</ele>
        <time>2020-05-24T08:18:23Z</time>
      </trkpt>
      <trkpt lat="48.51843" lon="2.37054">
        <ele>60</ele>
        <time>2020-05-24T08:18:55Z</time>
      </trkpt>
      <trkpt lat="48.5185" lon="2.37066">
        <ele>60</ele>
        <time>2020-05-24T08:19:04Z</time>
      </trkpt>
      <trkpt lat="48.51855" lon="2.37078">
        <ele>60</ele>
        <time>2020-05-24T08:19:12Z</time>
      </trkpt>
      <trkpt lat="48.51861" lon="2.37106">
        <ele>60</ele>
        <time>2020-05-24T08:19:29Z</time>
      </trkpt>
      <trkpt lat="48.51865" lon="2.37119">
        <ele>60</ele>
        <time>2020-05-24T08:19:37Z</time>
      </trkpt>
      <trkpt lat="48.5187" lon="2.37147">
        <ele>61</ele>
        <time>2020-05-24T08:19:51Z</time>
      </trkpt>
      <trkpt lat="48.51896" lon="2.37208">
        <ele>61</ele>
        <time>2020-05-24T08:20:26Z</time>
      </trkpt>
      <trkpt lat="48.51902" lon="2.37234">
        <ele>61</ele>
        <time>2020-05-24T08:20:40Z</time>
      </trkpt>
      <trkpt lat="48.519" lon="2.37251">
        <ele>61</ele>
        <time>2020-05-24T08:20:49Z</time>
      </trkpt>
      <trkpt lat="48.5191" lon="2.37274">
        <ele>61</ele>
        <time>2020-05-24T08:21:02Z</time>
      </trkpt>
      <trkpt lat="48.51928" lon="2.37341">
        <ele>62</ele>
        <time>2020-05-24T08:21:39Z</time>
      </trkpt>
      <trkpt lat="48.5195" lon="2.37412">
        <ele>63</ele>
        <time>2020-05-24T08:22:18Z</time>
      </trkpt>
      <trkpt lat="48.51954" lon="2.37426">
        <ele>63</ele>
        <time>2020-05-24T08:22:25Z</time>
      </trkpt>
      <trkpt lat="48.51953" lon="2.37441">
        <ele>63</ele>
        <time>2020-05-24T08:22:33Z</time>
      </trkpt>
      <trkpt lat="48.51955" lon="2.37455">
        <ele>63</ele>
        <time>2020-05-24T08:22:41Z</time>
      </trkpt>
      <trkpt lat="48.51951" lon="2.37469">
        <ele>63</ele>
        <time>2020-05-24T08:22:49Z</time>
      </trkpt>
      <trkpt lat="48.51946" lon="2.37482">
        <ele>63</ele>
        <time>2020-05-24T08:22:57Z</time>
      </trkpt>
      <trkpt lat="48.51937" lon="2.37487">
        <ele>63</ele>
        <time>2020-05-24T08:23:05Z</time>
      </trkpt>
      <trkpt lat="48.51926" lon="2.37492">
        <ele>62</ele>
        <time>2020-05-24T08:24:04Z</time>
      </trkpt>
      <trkpt lat="48.51923" lon="2.37478">
        <ele>62</ele>
        <time>2020-05-24T08:24:12Z</time>
      </trkpt>
      <trkpt lat="48.51905" lon="2.37449">
        <ele>61</ele>
        <time>2020-05-24T08:24:44Z</time>
      </trkpt>
      <trkpt lat="48.51899" lon="2.37438">
        <ele>61</ele>
        <time>2020-05-24T08:24:52Z</time>
      </trkpt>
      <trkpt lat="48.51893" lon="2.37424">
        <ele>61</ele>
        <time>2020-05-24T08:25:01Z</time>
      </trkpt>
      <trkpt lat="48.51891" lon="2.37416">
        <ele>61</ele>
        <time>2020-05-24T08:25:09Z</time>
      </trkpt>
      <trkpt lat="48.51893" lon="2.37418">
        <ele>60</ele>
        <time>2020-05-24T08:26:34Z</time>
      </trkpt>
      <trkpt lat="48.51903" lon="2.37447">
        <ele>61</ele>
        <time>2020-05-24T08:26:56Z</time>
      </trkpt>
      <trkpt lat="48.51906" lon="2.37461">
        <ele>61</ele>
        <time>2020-05-24T08:27:05Z</time>
      </trkpt>
      <trkpt lat="48.51917" lon="2.37478">
        <ele>62</ele>
        <time>2020-05-24T08:27:20Z</time>
      </trkpt>
      <trkpt lat="48.51919" lon="2.37485">
        <ele>62</ele>
        <time>2020-05-24T08:27:25Z</time>
      </trkpt>
      <trkpt lat="48.51921" lon="2.37501">
        <ele>63</ele>
        <time>2020-05-24T08:27:35Z</time>
      </trkpt>
      <trkpt lat="48.51924" lon="2.37508">
        <ele>63</ele>
        <time>2020-05-24T08:27:40Z</time>
      </trkpt>
      <trkpt lat="48.51921" lon="2.37541">
        <ele>64</ele>
        <time>2020-05-24T08:28:04Z</time>
      </trkpt>
      <trkpt lat="48.51922" lon="2.3755">
        <ele>64</ele>
        <time>2020-05-24T08:28:08Z</time>
      </trkpt>
      <trkpt lat="48.51922" lon="2.37558">
        <ele>64</ele>
        <time>2020-05-24T08:28:12Z</time>
      </trkpt>
      <trkpt lat="48.51921" lon="2.37623">
        <ele>64</ele>
        <time>2020-05-24T08:28:45Z</time>
      </trkpt>
      <trkpt lat="48.51917" lon="2.37637">
        <ele>65</ele>
        <time>2020-05-24T08:28:53Z</time>
      </trkpt>
      <trkpt lat="48.51914" lon="2.37643">
        <ele>65</ele>
        <time>2020-05-24T08:28:57Z</time>
      </trkpt>
      <trkpt lat="48.51911" lon="2.37658">
        <ele>65</ele>
        <time>2020-05-24T08:29:05Z</time>
      </trkpt>
      <trkpt lat="48.51911" lon="2.37673">
        <ele>65</ele>
        <time>2020-05-24T08:29:12Z</time>
      </trkpt>
      <trkpt lat="48.5191" lon="2.3768">
        <ele>65</ele>
        <time>2020-05-24T08:29:16Z</time>
      </trkpt>
      <trkpt lat="48.51909" lon="2.3769">
        <ele>65</ele>
        <time>2020-05-24T08:29:20Z</time>
      </trkpt>
      <trkpt lat="48.51906" lon="2.37701">
        <ele>65</ele>
        <time>2020-05-24T08:29:28Z</time>
      </trkpt>
      <trkpt lat="48.51904" lon="2.37708">
        <ele>65</ele>
        <time>2020-05-24T08:29:31Z</time>
      </trkpt>
      <trkpt lat="48.51898" lon="2.37721">
        <ele>65</ele>
        <time>2020-05-24T08:29:40Z</time>
      </trkpt>
      <trkpt lat="48.51888" lon="2.37738">
        <ele>66</ele>
        <time>2020-05-24T08:29:53Z</time>
      </trkpt>
      <trkpt lat="48.51885" lon="2.37753">
        <ele>66</ele>
        <time>2020-05-24T08:30:01Z</time>
      </trkpt>
      <trkpt lat="48.51884" lon="2.37761">
        <ele>66</ele>
        <time>2020-05-24T08:30:05Z</time>
      </trkpt>
      <trkpt lat="48.51885" lon="2.37768">
        <ele>66</ele>
        <time>2020-05-24T08:30:08Z</time>
      </trkpt>
      <trkpt lat="48.51888" lon="2.37775">
        <ele>66</ele>
        <time>2020-05-24T08:30:12Z</time>
      </trkpt>
      <trkpt lat="48.51904" lon="2.37825">
        <ele>69</ele>
        <time>2020-05-24T08:30:43Z</time>
      </trkpt>
      <trkpt lat="48.51919" lon="2.37881">
        <ele>73</ele>
        <time>2020-05-24T08:31:16Z</time>
      </trkpt>
      <trkpt lat="48.51932" lon="2.37927">
        <ele>76</ele>
        <time>2020-05-24T08:31:43Z</time>
      </trkpt>
      <trkpt lat="48.51933" lon="2.37934">
        <ele>76</ele>
        <time>2020-05-24T08:31:47Z</time>
      </trkpt>
      <trkpt lat="48.51936" lon="2.37941">
        <ele>77</ele>
        <time>2020-05-24T08:31:52Z</time>
      </trkpt>
      <trkpt lat="48.51938" lon="2.37956">
        <ele>77</ele>
        <time>2020-05-24T08:31:59Z</time>
      </trkpt>
      <trkpt lat="48.51956" lon="2.38006">
        <ele>80</ele>
        <time>2020-05-24T08:32:30Z</time>
      </trkpt>
      <trkpt lat="48.51958" lon="2.38012">
        <ele>80</ele>
        <time>2020-05-24T08:32:34Z</time>
      </trkpt>
      <trkpt lat="48.5196" lon="2.3802">
        <ele>80</ele>
        <time>2020-05-24T08:32:39Z</time>
      </trkpt>
      <trkpt lat="48.5198" lon="2.38074">
        <ele>83</ele>
        <time>2020-05-24T08:33:13Z</time>
      </trkpt>
      <trkpt lat="48.52006" lon="2.38128">
        <ele>83</ele>
        <time>2020-05-24T08:33:45Z</time>
      </trkpt>
      <trkpt lat="48.52011" lon="2.38141">
        <ele>83</ele>
        <time>2020-05-24T08:33:52Z</time>
      </trkpt>
      <trkpt lat="48.5204" lon="2.38188">
        <ele>82</ele>
        <time>2020-05-24T08:34:24Z</time>
      </trkpt>
      <trkpt lat="48.52044" lon="2.38193">
        <ele>82</ele>
        <time>2020-05-24T08:34:28Z</time>
      </trkpt>
      <trkpt lat="48.52069" lon="2.38241">
        <ele>80</ele>
        <time>2020-05-24T08:34:59Z</time>
      </trkpt>
      <trkpt lat="48.52072" lon="2.38247">
        <ele>79</ele>
        <time>2020-05-24T08:35:04Z</time>
      </trkpt>
      <trkpt lat="48.52078" lon="2.38244">
        <ele>79</ele>
        <time>2020-05-24T08:35:12Z</time>
      </trkpt>
      <trkpt lat="48.52084" lon="2.38259">
        <ele>79</ele>
        <time>2020-05-24T08:35:20Z</time>
      </trkpt>
      <trkpt lat="48.52094" lon="2.38283">
        <ele>79</ele>
        <time>2020-05-24T08:35:35Z</time>
      </trkpt>
      <trkpt lat="48.52103" lon="2.38289">
        <ele>78</ele>
        <time>2020-05-24T08:35:43Z</time>
      </trkpt>
      <trkpt lat="48.52107" lon="2.38295">
        <ele>78</ele>
        <time>2020-05-24T08:35:48Z</time>
      </trkpt>
      <trkpt lat="48.52112" lon="2.38301">
        <ele>78</ele>
        <time>2020-05-24T08:35:54Z</time>
      </trkpt>
      <trkpt lat="48.52117" lon="2.38303">
        <ele>78</ele>
        <time>2020-05-24T08:35:57Z</time>
      </trkpt>
      <trkpt lat="48.52121" lon="2.38308">
        <ele>78</ele>
        <time>2020-05-24T08:36:01Z</time>
      </trkpt>
      <trkpt lat="48.52126" lon="2.38311">
        <ele>78</ele>
        <time>2020-05-24T08:36:05Z</time>
      </trkpt>
      <trkpt lat="48.52154" lon="2.38329">
        <ele>77</ele>
        <time>2020-05-24T08:36:29Z</time>
      </trkpt>
      <trkpt lat="48.52162" lon="2.38332">
        <ele>77</ele>
        <time>2020-05-24T08:36:45Z</time>
      </trkpt>
      <trkpt lat="48.52167" lon="2.38335">
        <ele>77</ele>
        <time>2020-05-24T08:36:49Z</time>
      </trkpt>
      <trkpt lat="48.52171" lon="2.3834">
        <ele>76</ele>
        <time>2020-05-24T08:36:53Z</time>
      </trkpt>
      <trkpt lat="48.52176" lon="2.38341">
        <ele>76</ele>
        <time>2020-05-24T08:36:56Z</time>
      </trkpt>
      <trkpt lat="48.52184" lon="2.38345">
        <ele>76</ele>
        <time>2020-05-24T08:37:02Z</time>
      </trkpt>
      <trkpt lat="48.5219" lon="2.38346">
        <ele>76</ele>
        <time>2020-05-24T08:37:06Z</time>
      </trkpt>
      <trkpt lat="48.52236" lon="2.3837">
        <ele>74</ele>
        <time>2020-05-24T08:37:40Z</time>
      </trkpt>
      <trkpt lat="48.52246" lon="2.38375">
        <ele>74</ele>
        <time>2020-05-24T08:37:48Z</time>
      </trkpt>
      <trkpt lat="48.52251" lon="2.38379">
        <ele>74</ele>
        <time>2020-05-24T08:37:52Z</time>
      </trkpt>
      <trkpt lat="48.52261" lon="2.38382">
        <ele>74</ele>
        <time>2020-05-24T08:38:00Z</time>
      </trkpt>
      <trkpt lat="48.52264" lon="2.38387">
        <ele>74</ele>
        <time>2020-05-24T08:38:04Z</time>
      </trkpt>
      <trkpt lat="48.52266" lon="2.38397">
        <ele>74</ele>
        <time>2020-05-24T08:38:11Z</time>
      </trkpt>
      <trkpt lat="48.52267" lon="2.38405">
        <ele>73</ele>
        <time>2020-05-24T08:38:15Z</time>
      </trkpt>
      <trkpt lat="48.52255" lon="2.38465">
        <ele>75</ele>
        <time>2020-05-24T08:38:48Z</time>
      </trkpt>
      <trkpt lat="48.52245" lon="2.38521">
        <ele>75</ele>
        <time>2020-05-24T08:39:21Z</time>
      </trkpt>
      <trkpt lat="48.52243" lon="2.38537">
        <ele>74</ele>
        <time>2020-05-24T08:39:29Z</time>
      </trkpt>
      <trkpt lat="48.52235" lon="2.38557">
        <ele>74</ele>
        <time>2020-05-24T08:39:41Z</time>
      </trkpt>
      <trkpt lat="48.52234" lon="2.38573">
        <ele>74</ele>
        <time>2020-05-24T08:39:48Z</time>
      </trkpt>
      <trkpt lat="48.52232" lon="2.38581">
        <ele>74</ele>
        <time>2020-05-24T08:39:52Z</time>
      </trkpt>
      <trkpt lat="48.52227" lon="2.3861">
        <ele>74</ele>
        <time>2020-05-24T08:40:08Z</time>
      </trkpt>
      <trkpt lat="48.52223" lon="2.38624">
        <ele>73</ele>
        <time>2020-05-24T08:40:16Z</time>
      </trkpt>
      <trkpt lat="48.52223" lon="2.38632">
        <ele>73</ele>
        <time>2020-05-24T08:40:20Z</time>
      </trkpt>
      <trkpt lat="48.52215" lon="2.38661">
        <ele>73</ele>
        <time>2020-05-24T08:40:36Z</time>
      </trkpt>
      <trkpt lat="48.52193" lon="2.38703">
        <ele>73</ele>
        <time>2020-05-24T08:41:06Z</time>
      </trkpt>
      <trkpt lat="48.5219" lon="2.38709">
        <ele>73</ele>
        <time>2020-05-24T08:41:10Z</time>
      </trkpt>
      <trkpt lat="48.52178" lon="2.38725">
        <ele>73</ele>
        <time>2020-05-24T08:41:23Z</time>
      </trkpt>
      <trkpt lat="48.52154" lon="2.38743">
        <ele>73</ele>
        <time>2020-05-24T08:41:43Z</time>
      </trkpt>
      <trkpt lat="48.52149" lon="2.38745">
        <ele>73</ele>
        <time>2020-05-24T08:41:47Z</time>
      </trkpt>
      <trkpt lat="48.5214" lon="2.38751">
        <ele>73</ele>
        <time>2020-05-24T08:41:54Z</time>
      </trkpt>
      <trkpt lat="48.52114" lon="2.3876">
        <ele>73</ele>
        <time>2020-05-24T08:42:13Z</time>
      </trkpt>
      <trkpt lat="48.52075" lon="2.38785">
        <ele>73</ele>
        <time>2020-05-24T08:42:46Z</time>
      </trkpt>
      <trkpt lat="48.52031" lon="2.38806">
        <ele>74</ele>
        <time>2020-05-24T08:43:20Z</time>
      </trkpt>
      <trkpt lat="48.5199" lon="2.38821">
        <ele>74</ele>
        <time>2020-05-24T08:43:53Z</time>
      </trkpt>
      <trkpt lat="48.51949" lon="2.38836">
        <ele>74</ele>
        <time>2020-05-24T08:44:25Z</time>
      </trkpt>
      <trkpt lat="48.51911" lon="2.38845">
        <ele>75</ele>
        <time>2020-05-24T08:44:59Z</time>
      </trkpt>
      <trkpt lat="48.51871" lon="2.38846">
        <ele>76</ele>
        <time>2020-05-24T08:45:33Z</time>
      </trkpt>
      <trkpt lat="48.51861" lon="2.38847">
        <ele>76</ele>
        <time>2020-05-24T08:45:41Z</time>
      </trkpt>
      <trkpt lat="48.51853" lon="2.38849">
        <ele>76</ele>
        <time>2020-05-24T08:45:51Z</time>
      </trkpt>
      <trkpt lat="48.51846" lon="2.38848">
        <ele>77</ele>
        <time>2020-05-24T08:45:57Z</time>
      </trkpt>
      <trkpt lat="48.5181" lon="2.38853">
        <ele>79</ele>
        <time>2020-05-24T08:46:23Z</time>
      </trkpt>
      <trkpt lat="48.51805" lon="2.38855">
        <ele>80</ele>
        <time>2020-05-24T08:46:31Z</time>
      </trkpt>
      <trkpt lat="48.51815" lon="2.38872">
        <ele>80</ele>
        <time>2020-05-24T08:47:04Z</time>
      </trkpt>
      <trkpt lat="48.51829" lon="2.38898">
        <ele>78</ele>
        <time>2020-05-24T08:47:22Z</time>
      </trkpt>
      <trkpt lat="48.51833" lon="2.38903">
        <ele>78</ele>
        <time>2020-05-24T08:47:27Z</time>
      </trkpt>
      <trkpt lat="48.51855" lon="2.38944">
        <ele>77</ele>
        <time>2020-05-24T08:47:57Z</time>
      </trkpt>
      <trkpt lat="48.5187" lon="2.38968">
        <ele>77</ele>
        <time>2020-05-24T08:48:14Z</time>
      </trkpt>
      <trkpt lat="48.51873" lon="2.38973">
        <ele>77</ele>
        <time>2020-05-24T08:48:18Z</time>
      </trkpt>
      <trkpt lat="48.51898" lon="2.39023">
        <ele>76</ele>
        <time>2020-05-24T08:48:49Z</time>
      </trkpt>
      <trkpt lat="48.51925" lon="2.39072">
        <ele>76</ele>
        <time>2020-05-24T08:49:21Z</time>
      </trkpt>
      <trkpt lat="48.51951" lon="2.39114">
        <ele>76</ele>
        <time>2020-05-24T08:49:52Z</time>
      </trkpt>
      <trkpt lat="48.51984" lon="2.39153">
        <ele>76</ele>
        <time>2020-05-24T08:50:23Z</time>
      </trkpt>
      <trkpt lat="48.52017" lon="2.39192">
        <ele>76</ele>
        <time>2020-05-24T08:50:55Z</time>
      </trkpt>
      <trkpt lat="48.52048" lon="2.39232">
        <ele>76</ele>
        <time>2020-05-24T08:51:27Z</time>
      </trkpt>
      <trkpt lat="48.5208" lon="2.39272">
        <ele>76</ele>
        <time>2020-05-24T08:52:00Z</time>
      </trkpt>
      <trkpt lat="48.52113" lon="2.39308">
        <ele>76</ele>
        <time>2020-05-24T08:52:32Z</time>
      </trkpt>
      <trkpt lat="48.52116" lon="2.39312">
        <ele>76</ele>
        <time>2020-05-24T08:52:36Z</time>
      </trkpt>
      <trkpt lat="48.52118" lon="2.39319">
        <ele>76</ele>
        <time>2020-05-24T08:52:41Z</time>
      </trkpt>
      <trkpt lat="48.52103" lon="2.39372">
        <ele>77</ele>
        <time>2020-05-24T08:53:14Z</time>
      </trkpt>
      <trkpt lat="48.52084" lon="2.39425">
        <ele>78</ele>
        <time>2020-05-24T08:53:46Z</time>
      </trkpt>
      <trkpt lat="48.52081" lon="2.39432">
        <ele>78</ele>
        <time>2020-05-24T08:53:50Z</time>
      </trkpt>
      <trkpt lat="48.52066" lon="2.39488">
        <ele>79</ele>
        <time>2020-05-24T08:54:21Z</time>
      </trkpt>
      <trkpt lat="48.52055" lon="2.39547">
        <ele>79</ele>
        <time>2020-05-24T08:54:53Z</time>
      </trkpt>
      <trkpt lat="48.52043" lon="2.39608">
        <ele>79</ele>
        <time>2020-05-24T08:55:25Z</time>
      </trkpt>
      <trkpt lat="48.52036" lon="2.39638">
        <ele>79</ele>
        <time>2020-05-24T08:55:43Z</time>
      </trkpt>
      <trkpt lat="48.52031" lon="2.39651">
        <ele>80</ele>
        <time>2020-05-24T08:55:52Z</time>
      </trkpt>
      <trkpt lat="48.52023" lon="2.39686">
        <ele>80</ele>
        <time>2020-05-24T08:56:13Z</time>
      </trkpt>
      <trkpt lat="48.52005" lon="2.39741">
        <ele>81</ele>
        <time>2020-05-24T08:56:45Z</time>
      </trkpt>
      <trkpt lat="48.51986" lon="2.39796">
        <ele>82</ele>
        <time>2020-05-24T08:57:17Z</time>
      </trkpt>
      <trkpt lat="48.51969" lon="2.39852">
        <ele>83</ele>
        <time>2020-05-24T08:57:49Z</time>
      </trkpt>
      <trkpt lat="48.51955" lon="2.39901">
        <ele>84</ele>
        <time>2020-05-24T08:58:18Z</time>
      </trkpt>
      <trkpt lat="48.51951" lon="2.3993">
        <ele>85</ele>
        <time>2020-05-24T08:58:34Z</time>
      </trkpt>
      <trkpt lat="48.51935" lon="2.39985">
        <ele>87</ele>
        <time>2020-05-24T08:59:09Z</time>
      </trkpt>
      <trkpt lat="48.51931" lon="2.39991">
        <ele>88</ele>
        <time>2020-05-24T08:59:19Z</time>
      </trkpt>
      <trkpt lat="48.51927" lon="2.40006">
        <ele>89</ele>
        <time>2020-05-24T08:59:29Z</time>
      </trkpt>
      <trkpt lat="48.5193" lon="2.40014">
        <ele>89</ele>
        <time>2020-05-24T08:59:34Z</time>
      </trkpt>
      <trkpt lat="48.51928" lon="2.40021">
        <ele>89</ele>
        <time>2020-05-24T08:59:38Z</time>
      </trkpt>
      <trkpt lat="48.51926" lon="2.40026">
        <ele>90</ele>
        <time>2020-05-24T08:59:42Z</time>
      </trkpt>
      <trkpt lat="48.51921" lon="2.4003">
        <ele>90</ele>
        <time>2020-05-24T08:59:47Z</time>
      </trkpt>
      <trkpt lat="48.51908" lon="2.4006">
        <ele>91</ele>
        <time>2020-05-24T09:00:09Z</time>
      </trkpt>
      <trkpt lat="48.51904" lon="2.40065">
        <ele>91</ele>
        <time>2020-05-24T09:00:14Z</time>
      </trkpt>
      <trkpt lat="48.51892" lon="2.40117">
        <ele>94</ele>
        <time>2020-05-24T09:00:50Z</time>
      </trkpt>
      <trkpt lat="48.51891" lon="2.40126">
        <ele>94</ele>
        <time>2020-05-24T09:00:54Z</time>
      </trkpt>
      <trkpt lat="48.51889" lon="2.40132">
        <ele>95</ele>
        <time>2020-05-24T09:00:59Z</time>
      </trkpt>
      <trkpt lat="48.51885" lon="2.4014">
        <ele>96</ele>
        <time>2020-05-24T09:01:05Z</time>
      </trkpt>
      <trkpt lat="48.51884" lon="2.40147">
        <ele>96</ele>
        <time>2020-05-24T09:01:09Z</time>
      </trkpt>
      <trkpt lat="48.51881" lon="2.40153">
        <ele>96</ele>
        <time>2020-05-24T09:01:14Z</time>
      </trkpt>
      <trkpt lat="48.51872" lon="2.40163">
        <ele>98</ele>
        <time>2020-05-24T09:01:26Z</time>
      </trkpt>
      <trkpt lat="48.51867" lon="2.40172">
        <ele>98</ele>
        <time>2020-05-24T09:01:33Z</time>
      </trkpt>
      <trkpt lat="48.51858" lon="2.40183">
        <ele>100</ele>
        <time>2020-05-24T09:01:47Z</time>
      </trkpt>
      <trkpt lat="48.51849" lon="2.40202">
        <ele>102</ele>
        <time>2020-05-24T09:02:01Z</time>
      </trkpt>
      <trkpt lat="48.51848" lon="2.40208">
        <ele>103</ele>
        <time>2020-05-24T09:02:05Z</time>
      </trkpt>
      <trkpt lat="48.51844" lon="2.40213">
        <ele>103</ele>
        <time>2020-05-24T09:02:09Z</time>
      </trkpt>
      <trkpt lat="48.51831" lon="2.40224">
        <ele>105</ele>
        <time>2020-05-24T09:02:21Z</time>
      </trkpt>
      <trkpt lat="48.51825" lon="2.40236">
        <ele>106</ele>
        <time>2020-05-24T09:02:30Z</time>
      </trkpt>
      <trkpt lat="48.51818" lon="2.40255">
        <ele>108</ele>
        <time>2020-05-24T09:02:45Z</time>
      </trkpt>
      <trkpt lat="48.51818" lon="2.40263">
        <ele>109</ele>
        <time>2020-05-24T09:02:50Z</time>
      </trkpt>
      <trkpt lat="48.51821" lon="2.40278">
        <ele>110</ele>
        <time>2020-05-24T09:02:59Z</time>
      </trkpt>
      <trkpt lat="48.51826" lon="2.40291">
        <ele>112</ele>
        <time>2020-05-24T09:03:09Z</time>
      </trkpt>
      <trkpt lat="48.51837" lon="2.40307">
        <ele>114</ele>
        <time>2020-05-24T09:03:27Z</time>
      </trkpt>
      <trkpt lat="48.51841" lon="2.40312">
        <ele>115</ele>
        <time>2020-05-24T09:03:39Z</time>
      </trkpt>
      <trkpt lat="48.51845" lon="2.40324">
        <ele>116</ele>
        <time>2020-05-24T09:03:49Z</time>
      </trkpt>
      <trkpt lat="48.5185" lon="2.40331">
        <ele>118</ele>
        <time>2020-05-24T09:04:13Z</time>
      </trkpt>
      <trkpt lat="48.51849" lon="2.40336">
        <ele>116</ele>
        <time>2020-05-24T09:05:37Z</time>
      </trkpt>
      <trkpt lat="48.51844" lon="2.40335">
        <ele>117</ele>
        <time>2020-05-24T09:05:49Z</time>
      </trkpt>
      <trkpt lat="48.51839" lon="2.40347">
        <ele>118</ele>
        <time>2020-05-24T09:06:01Z</time>
      </trkpt>
      <trkpt lat="48.51831" lon="2.40349">
        <ele>119</ele>
        <time>2020-05-24T09:06:43Z</time>
      </trkpt>
      <trkpt lat="48.51829" lon="2.40356">
        <ele>122</ele>
        <time>2020-05-24T09:06:55Z</time>
      </trkpt>
      <trkpt lat="48.51824" lon="2.40365">
        <ele>126</ele>
        <time>2020-05-24T09:07:13Z</time>
      </trkpt>
      <trkpt lat="48.5182" lon="2.4037">
        <ele>128</ele>
        <time>2020-05-24T09:07:25Z</time>
      </trkpt>
      <trkpt lat="48.51818" lon="2.4038">
        <ele>130</ele>
        <time>2020-05-24T09:07:47Z</time>
      </trkpt>
      <trkpt lat="48.51818" lon="2.40386">
        <ele>130</ele>
        <time>2020-05-24T09:07:49Z</time>
      </trkpt>
      <trkpt lat="48.51814" lon="2.4039">
        <ele>128</ele>
        <time>2020-05-24T09:07:57Z</time>
      </trkpt>
      <trkpt lat="48.51809" lon="2.40394">
        <ele>128</ele>
        <time>2020-05-24T09:08:05Z</time>
      </trkpt>
      <trkpt lat="48.51806" lon="2.40387">
        <ele>126</ele>
        <time>2020-05-24T09:08:35Z</time>
      </trkpt>
      <trkpt lat="48.51799" lon="2.40392">
        <ele>126</ele>
        <time>2020-05-24T09:09:11Z</time>
      </trkpt>
      <trkpt lat="48.51795" lon="2.40389">
        <ele>126</ele>
        <time>2020-05-24T09:09:41Z</time>
      </trkpt>
      <trkpt lat="48.51795" lon="2.4039">
        <ele>127</ele>
        <time>2020-05-24T09:10:50Z</time>
      </trkpt>
      <trkpt lat="48.51795" lon="2.4038">
        <ele>127</ele>
        <time>2020-05-24T09:18:02Z</time>
      </trkpt>
      <trkpt lat="48.51787" lon="2.40381">
        <ele>127</ele>
        <time>2020-05-24T09:18:14Z</time>
      </trkpt>
      <trkpt lat="48.51781" lon="2.40377">
        <ele>128</ele>
        <time>2020-05-24T09:18:20Z</time>
      </trkpt>
      <trkpt lat="48.51775" lon="2.40371">
        <ele>129</ele>
        <time>2020-05-24T09:18:25Z</time>
      </trkpt>
      <trkpt lat="48.51765" lon="2.40369">
        <ele>130</ele>
        <time>2020-05-24T09:18:35Z</time>
      </trkpt>
      <trkpt lat="48.51754" lon="2.40364">
        <ele>132</ele>
        <time>2020-05-24T09:18:44Z</time>
      </trkpt>
      <trkpt lat="48.51738" lon="2.40363">
        <ele>133</ele>
        <time>2020-05-24T09:19:03Z</time>
      </trkpt>
      <trkpt lat="48.51735" lon="2.40371">
        <ele>133</ele>
        <time>2020-05-24T09:19:08Z</time>
      </trkpt>
      <trkpt lat="48.51728" lon="2.40382">
        <ele>134</ele>
        <time>2020-05-24T09:19:16Z</time>
      </trkpt>
      <trkpt lat="48.51732" lon="2.40396">
        <ele>136</ele>
        <time>2020-05-24T09:19:26Z</time>
      </trkpt>
      <trkpt lat="48.51738" lon="2.40422">
        <ele>137</ele>
        <time>2020-05-24T09:19:43Z</time>
      </trkpt>
      <trkpt lat="48.51738" lon="2.40437">
        <ele>137</ele>
        <time>2020-05-24T09:19:52Z</time>
      </trkpt>
      <trkpt lat="48.51736" lon="2.40451">
        <ele>137</ele>
        <time>2020-05-24T09:20:00Z</time>
      </trkpt>
      <trkpt lat="48.51737" lon="2.40467">
        <ele>138</ele>
        <time>2020-05-24T09:20:09Z</time>
      </trkpt>
      <trkpt lat="48.51734" lon="2.4048">
        <ele>138</ele>
        <time>2020-05-24T09:20:15Z</time>
      </trkpt>
      <trkpt lat="48.51739" lon="2.40492">
        <ele>138</ele>
        <time>2020-05-24T09:20:23Z</time>
      </trkpt>
      <trkpt lat="48.51737" lon="2.40552">
        <ele>140</ele>
        <time>2020-05-24T09:20:55Z</time>
      </trkpt>
      <trkpt lat="48.51737" lon="2.40582">
        <ele>140</ele>
        <time>2020-05-24T09:21:10Z</time>
      </trkpt>
      <trkpt lat="48.51739" lon="2.40595">
        <ele>139</ele>
        <time>2020-05-24T09:21:17Z</time>
      </trkpt>
      <trkpt lat="48.51737" lon="2.40625">
        <ele>140</ele>
        <time>2020-05-24T09:21:32Z</time>
      </trkpt>
      <trkpt lat="48.5174" lon="2.40639">
        <ele>140</ele>
        <time>2020-05-24T09:21:39Z</time>
      </trkpt>
      <trkpt lat="48.5174" lon="2.40655">
        <ele>139</ele>
        <time>2020-05-24T09:21:48Z</time>
      </trkpt>
      <trkpt lat="48.51738" lon="2.4067">
        <ele>139</ele>
        <time>2020-05-24T09:21:56Z</time>
      </trkpt>
      <trkpt lat="48.51734" lon="2.40682">
        <ele>140</ele>
        <time>2020-05-24T09:22:02Z</time>
      </trkpt>
      <trkpt lat="48.51734" lon="2.40696">
        <ele>140</ele>
        <time>2020-05-24T09:22:09Z</time>
      </trkpt>
      <trkpt lat="48.51729" lon="2.40738">
        <ele>140</ele>
        <time>2020-05-24T09:22:32Z</time>
      </trkpt>
      <trkpt lat="48.51735" lon="2.4078">
        <ele>140</ele>
        <time>2020-05-24T09:22:53Z</time>
      </trkpt>
      <trkpt lat="48.5174" lon="2.40793">
        <ele>140</ele>
        <time>2020-05-24T09:23:01Z</time>
      </trkpt>
      <trkpt lat="48.51732" lon="2.40851">
        <ele>140</ele>
        <time>2020-05-24T09:23:33Z</time>
      </trkpt>
      <trkpt lat="48.5173" lon="2.40864">
        <ele>140</ele>
        <time>2020-05-24T09:23:40Z</time>
      </trkpt>
      <trkpt lat="48.51729" lon="2.40924">
        <ele>140</ele>
        <time>2020-05-24T09:24:11Z</time>
      </trkpt>
      <trkpt lat="48.51727" lon="2.40939">
        <ele>140</ele>
        <time>2020-05-24T09:24:18Z</time>
      </trkpt>
      <trkpt lat="48.51725" lon="2.4101">
        <ele>139</ele>
        <time>2020-05-24T09:24:58Z</time>
      </trkpt>
      <trkpt lat="48.51722" lon="2.41023">
        <ele>138</ele>
        <time>2020-05-24T09:25:05Z</time>
      </trkpt>
      <trkpt lat="48.51713" lon="2.41047">
        <ele>138</ele>
        <time>2020-05-24T09:25:19Z</time>
      </trkpt>
      <trkpt lat="48.51711" lon="2.41061">
        <ele>137</ele>
        <time>2020-05-24T09:25:28Z</time>
      </trkpt>
      <trkpt lat="48.51697" lon="2.41086">
        <ele>137</ele>
        <time>2020-05-24T09:25:46Z</time>
      </trkpt>
      <trkpt lat="48.51685" lon="2.41124">
        <ele>137</ele>
        <time>2020-05-24T09:26:08Z</time>
      </trkpt>
      <trkpt lat="48.51678" lon="2.4118">
        <ele>135</ele>
        <time>2020-05-24T09:26:39Z</time>
      </trkpt>
      <trkpt lat="48.5167" lon="2.41208">
        <ele>135</ele>
        <time>2020-05-24T09:26:54Z</time>
      </trkpt>
      <trkpt lat="48.51663" lon="2.41237">
        <ele>136</ele>
        <time>2020-05-24T09:27:10Z</time>
      </trkpt>
      <trkpt lat="48.51641" lon="2.41304">
        <ele>137</ele>
        <time>2020-05-24T09:27:47Z</time>
      </trkpt>
      <trkpt lat="48.51636" lon="2.41332">
        <ele>138</ele>
        <time>2020-05-24T09:28:02Z</time>
      </trkpt>
      <trkpt lat="48.51622" lon="2.41386">
        <ele>138</ele>
        <time>2020-05-24T09:28:35Z</time>
      </trkpt>
      <trkpt lat="48.51614" lon="2.41414">
        <ele>138</ele>
        <time>2020-05-24T09:28:54Z</time>
      </trkpt>
      <trkpt lat="48.51613" lon="2.41428">
        <ele>138</ele>
        <time>2020-05-24T09:29:07Z</time>
      </trkpt>
      <trkpt lat="48.51607" lon="2.41441">
        <ele>138</ele>
        <time>2020-05-24T09:29:16Z</time>
      </trkpt>
      <trkpt lat="48.51591" lon="2.41457">
        <ele>137</ele>
        <time>2020-05-24T09:29:32Z</time>
      </trkpt>
      <trkpt lat="48.51572" lon="2.41486">
        <ele>138</ele>
        <time>2020-05-24T09:29:55Z</time>
      </trkpt>
      <trkpt lat="48.51584" lon="2.4148">
        <ele>137</ele>
        <time>2020-05-24T09:30:11Z</time>
      </trkpt>
      <trkpt lat="48.51598" lon="2.4146">
        <ele>138</ele>
        <time>2020-05-24T09:30:26Z</time>
      </trkpt>
      <trkpt lat="48.51596" lon="2.41447">
        <ele>138</ele>
        <time>2020-05-24T09:30:32Z</time>
      </trkpt>
      <trkpt lat="48.51569" lon="2.41435">
        <ele>136</ele>
        <time>2020-05-24T09:30:53Z</time>
      </trkpt>
      <trkpt lat="48.51562" lon="2.41424">
        <ele>136</ele>
        <time>2020-05-24T09:30:59Z</time>
      </trkpt>
      <trkpt lat="48.51554" lon="2.41418">
        <ele>136</ele>
        <time>2020-05-24T09:31:06Z</time>
      </trkpt>
      <trkpt lat="48.51524" lon="2.41407">
        <ele>136</ele>
        <time>2020-05-24T09:31:30Z</time>
      </trkpt>
      <trkpt lat="48.5152" lon="2.4141">
        <ele>137</ele>
        <time>2020-05-24T09:31:47Z</time>
      </trkpt>
      <trkpt lat="48.5151" lon="2.41405">
        <ele>137</ele>
        <time>2020-05-24T09:31:59Z</time>
      </trkpt>
      <trkpt lat="48.51502" lon="2.41402">
        <ele>137</ele>
        <time>2020-05-24T09:32:16Z</time>
      </trkpt>
      <trkpt lat="48.51464" lon="2.41384">
        <ele>138</ele>
        <time>2020-05-24T09:32:47Z</time>
      </trkpt>
      <trkpt lat="48.51435" lon="2.41373">
        <ele>138</ele>
        <time>2020-05-24T09:33:09Z</time>
      </trkpt>
      <trkpt lat="48.51431" lon="2.4137">
        <ele>138</ele>
        <time>2020-05-24T09:33:13Z</time>
      </trkpt>
      <trkpt lat="48.51405" lon="2.41359">
        <ele>139</ele>
        <time>2020-05-24T09:33:33Z</time>
      </trkpt>
      <trkpt lat="48.51401" lon="2.41356">
        <ele>139</ele>
        <time>2020-05-24T09:33:36Z</time>
      </trkpt>
      <trkpt lat="48.514" lon="2.41349">
        <ele>139</ele>
        <time>2020-05-24T09:33:40Z</time>
      </trkpt>
      <trkpt lat="48.51407" lon="2.41325">
        <ele>138</ele>
        <time>2020-05-24T09:33:57Z</time>
      </trkpt>
      <trkpt lat="48.51407" lon="2.41316">
        <ele>138</ele>
        <time>2020-05-24T09:34:15Z</time>
      </trkpt>
      <trkpt lat="48.5141" lon="2.413">
        <ele>137</ele>
        <time>2020-05-24T09:34:24Z</time>
      </trkpt>
      <trkpt lat="48.51412" lon="2.41294">
        <ele>136</ele>
        <time>2020-05-24T09:34:29Z</time>
      </trkpt>
      <trkpt lat="48.5142" lon="2.41281">
        <ele>136</ele>
        <time>2020-05-24T09:34:35Z</time>
      </trkpt>
      <trkpt lat="48.51423" lon="2.41267">
        <ele>135</ele>
        <time>2020-05-24T09:34:43Z</time>
      </trkpt>
      <trkpt lat="48.51429" lon="2.41255">
        <ele>134</ele>
        <time>2020-05-24T09:34:49Z</time>
      </trkpt>
      <trkpt lat="48.51434" lon="2.41233">
        <ele>133</ele>
        <time>2020-05-24T09:34:58Z</time>
      </trkpt>
      <trkpt lat="48.5143" lon="2.41227">
        <ele>133</ele>
        <time>2020-05-24T09:35:01Z</time>
      </trkpt>
      <trkpt lat="48.51419" lon="2.41223">
        <ele>132</ele>
        <time>2020-05-24T09:35:07Z</time>
      </trkpt>
      <trkpt lat="48.51402" lon="2.41218">
        <ele>133</ele>
        <time>2020-05-24T09:35:18Z</time>
      </trkpt>
      <trkpt lat="48.51398" lon="2.41215">
        <ele>133</ele>
        <time>2020-05-24T09:35:21Z</time>
      </trkpt>
      <trkpt lat="48.51393" lon="2.41214">
        <ele>134</ele>
        <time>2020-05-24T09:35:25Z</time>
      </trkpt>
      <trkpt lat="48.51388" lon="2.41215">
        <ele>134</ele>
        <time>2020-05-24T09:35:29Z</time>
      </trkpt>
      <trkpt lat="48.51347" lon="2.41206">
        <ele>137</ele>
        <time>2020-05-24T09:36:01Z</time>
      </trkpt>
      <trkpt lat="48.51308" lon="2.41191">
        <ele>138</ele>
        <time>2020-05-24T09:36:31Z</time>
      </trkpt>
      <trkpt lat="48.5127" lon="2.41179">
        <ele>136</ele>
        <time>2020-05-24T09:37:02Z</time>
      </trkpt>
      <trkpt lat="48.5123" lon="2.41159">
        <ele>132</ele>
        <time>2020-05-24T09:37:35Z</time>
      </trkpt>
      <trkpt lat="48.51224" lon="2.41157">
        <ele>131</ele>
        <time>2020-05-24T09:37:39Z</time>
      </trkpt>
      <trkpt lat="48.51219" lon="2.41155">
        <ele>131</ele>
        <time>2020-05-24T09:37:44Z</time>
      </trkpt>
      <trkpt lat="48.51214" lon="2.41155">
        <ele>131</ele>
        <time>2020-05-24T09:37:49Z</time>
      </trkpt>
      <trkpt lat="48.51205" lon="2.4115">
        <ele>130</ele>
        <time>2020-05-24T09:37:59Z</time>
      </trkpt>
      <trkpt lat="48.51201" lon="2.41146">
        <ele>130</ele>
        <time>2020-05-24T09:38:03Z</time>
      </trkpt>
      <trkpt lat="48.51196" lon="2.41145">
        <ele>131</ele>
        <time>2020-05-24T09:38:07Z</time>
      </trkpt>
      <trkpt lat="48.51186" lon="2.41146">
        <ele>132</ele>
        <time>2020-05-24T09:38:15Z</time>
      </trkpt>
      <trkpt lat="48.5118" lon="2.41144">
        <ele>133</ele>
        <time>2020-05-24T09:38:20Z</time>
      </trkpt>
      <trkpt lat="48.51175" lon="2.41142">
        <ele>133</ele>
        <time>2020-05-24T09:38:24Z</time>
      </trkpt>
      <trkpt lat="48.51162" lon="2.41138">
        <ele>135</ele>
        <time>2020-05-24T09:38:37Z</time>
      </trkpt>
      <trkpt lat="48.51158" lon="2.41135">
        <ele>136</ele>
        <time>2020-05-24T09:38:42Z</time>
      </trkpt>
      <trkpt lat="48.51143" lon="2.41136">
        <ele>138</ele>
        <time>2020-05-24T09:38:57Z</time>
      </trkpt>
      <trkpt lat="48.51123" lon="2.41126">
        <ele>140</ele>
        <time>2020-05-24T09:39:16Z</time>
      </trkpt>
      <trkpt lat="48.511" lon="2.41121">
        <ele>142</ele>
        <time>2020-05-24T09:39:38Z</time>
      </trkpt>
      <trkpt lat="48.51096" lon="2.41119">
        <ele>143</ele>
        <time>2020-05-24T09:39:42Z</time>
      </trkpt>
      <trkpt lat="48.51086" lon="2.41118">
        <ele>144</ele>
        <time>2020-05-24T09:39:52Z</time>
      </trkpt>
      <trkpt lat="48.51081" lon="2.41115">
        <ele>144</ele>
        <time>2020-05-24T09:39:57Z</time>
      </trkpt>
      <trkpt lat="48.51056" lon="2.4111">
        <ele>145</ele>
        <time>2020-05-24T09:40:16Z</time>
      </trkpt>
      <trkpt lat="48.51036" lon="2.41101">
        <ele>145</ele>
        <time>2020-05-24T09:40:32Z</time>
      </trkpt>
      <trkpt lat="48.51031" lon="2.41101">
        <ele>145</ele>
        <time>2020-05-24T09:40:35Z</time>
      </trkpt>
      <trkpt lat="48.50991" lon="2.41083">
        <ele>145</ele>
        <time>2020-05-24T09:41:06Z</time>
      </trkpt>
      <trkpt lat="48.50972" lon="2.41073">
        <ele>144</ele>
        <time>2020-05-24T09:41:22Z</time>
      </trkpt>
      <trkpt lat="48.50931" lon="2.41059">
        <ele>143</ele>
        <time>2020-05-24T09:41:58Z</time>
      </trkpt>
      <trkpt lat="48.50895" lon="2.41048">
        <ele>142</ele>
        <time>2020-05-24T09:42:29Z</time>
      </trkpt>
      <trkpt lat="48.5089" lon="2.4105">
        <ele>142</ele>
        <time>2020-05-24T09:42:34Z</time>
      </trkpt>
      <trkpt lat="48.50885" lon="2.41045">
        <ele>142</ele>
        <time>2020-05-24T09:42:41Z</time>
      </trkpt>
      <trkpt lat="48.50881" lon="2.41044">
        <ele>142</ele>
        <time>2020-05-24T09:42:45Z</time>
      </trkpt>
      <trkpt lat="48.50876" lon="2.41042">
        <ele>142</ele>
        <time>2020-05-24T09:42:49Z</time>
      </trkpt>
      <trkpt lat="48.50866" lon="2.41039">
        <ele>141</ele>
        <time>2020-05-24T09:42:58Z</time>
      </trkpt>
      <trkpt lat="48.5085" lon="2.41032">
        <ele>141</ele>
        <time>2020-05-24T09:43:13Z</time>
      </trkpt>
      <trkpt lat="48.50834" lon="2.41033">
        <ele>140</ele>
        <time>2020-05-24T09:43:26Z</time>
      </trkpt>
      <trkpt lat="48.50829" lon="2.4103">
        <ele>140</ele>
        <time>2020-05-24T09:43:31Z</time>
      </trkpt>
      <trkpt lat="48.50825" lon="2.41025">
        <ele>139</ele>
        <time>2020-05-24T09:43:35Z</time>
      </trkpt>
      <trkpt lat="48.50797" lon="2.41015">
        <ele>138</ele>
        <time>2020-05-24T09:44:03Z</time>
      </trkpt>
      <trkpt lat="48.50787" lon="2.41009">
        <ele>136</ele>
        <time>2020-05-24T09:44:12Z</time>
      </trkpt>
      <trkpt lat="48.50782" lon="2.41005">
        <ele>136</ele>
        <time>2020-05-24T09:44:17Z</time>
      </trkpt>
      <trkpt lat="48.50775" lon="2.41005">
        <ele>136</ele>
        <time>2020-05-24T09:44:24Z</time>
      </trkpt>
      <trkpt lat="48.50771" lon="2.41">
        <ele>136</ele>
        <time>2020-05-24T09:44:33Z</time>
      </trkpt>
      <trkpt lat="48.50765" lon="2.40998">
        <ele>136</ele>
        <time>2020-05-24T09:44:45Z</time>
      </trkpt>
      <trkpt lat="48.5076" lon="2.41">
        <ele>137</ele>
        <time>2020-05-24T09:44:50Z</time>
      </trkpt>
      <trkpt lat="48.50755" lon="2.40997">
        <ele>137</ele>
        <time>2020-05-24T09:44:55Z</time>
      </trkpt>
      <trkpt lat="48.5075" lon="2.40995">
        <ele>138</ele>
        <time>2020-05-24T09:45:03Z</time>
      </trkpt>
      <trkpt lat="48.5073" lon="2.40984">
        <ele>138</ele>
        <time>2020-05-24T09:45:39Z</time>
      </trkpt>
      <trkpt lat="48.50713" lon="2.4098">
        <ele>139</ele>
        <time>2020-05-24T09:45:57Z</time>
      </trkpt>
      <trkpt lat="48.50709" lon="2.40984">
        <ele>139</ele>
        <time>2020-05-24T09:46:02Z</time>
      </trkpt>
      <trkpt lat="48.50703" lon="2.40984">
        <ele>140</ele>
        <time>2020-05-24T09:46:07Z</time>
      </trkpt>
      <trkpt lat="48.50688" lon="2.40979">
        <ele>140</ele>
        <time>2020-05-24T09:46:24Z</time>
      </trkpt>
      <trkpt lat="48.50683" lon="2.40976">
        <ele>140</ele>
        <time>2020-05-24T09:46:29Z</time>
      </trkpt>
      <trkpt lat="48.50673" lon="2.40977">
        <ele>141</ele>
        <time>2020-05-24T09:46:47Z</time>
      </trkpt>
      <trkpt lat="48.50675" lon="2.40968">
        <ele>141</ele>
        <time>2020-05-24T09:46:55Z</time>
      </trkpt>
      <trkpt lat="48.50676" lon="2.40961">
        <ele>141</ele>
        <time>2020-05-24T09:46:59Z</time>
      </trkpt>
      <trkpt lat="48.50676" lon="2.4093">
        <ele>140</ele>
        <time>2020-05-24T09:47:20Z</time>
      </trkpt>
      <trkpt lat="48.50677" lon="2.40923">
        <ele>140</ele>
        <time>2020-05-24T09:47:24Z</time>
      </trkpt>
      <trkpt lat="48.50676" lon="2.40915">
        <ele>140</ele>
        <time>2020-05-24T09:47:28Z</time>
      </trkpt>
      <trkpt lat="48.50674" lon="2.40908">
        <ele>140</ele>
        <time>2020-05-24T09:47:32Z</time>
      </trkpt>
      <trkpt lat="48.50666" lon="2.40854">
        <ele>139</ele>
        <time>2020-05-24T09:48:04Z</time>
      </trkpt>
      <trkpt lat="48.50663" lon="2.40833">
        <ele>138</ele>
        <time>2020-05-24T09:48:16Z</time>
      </trkpt>
      <trkpt lat="48.50658" lon="2.40821">
        <ele>138</ele>
        <time>2020-05-24T09:48:24Z</time>
      </trkpt>
      <trkpt lat="48.50657" lon="2.40814">
        <ele>138</ele>
        <time>2020-05-24T09:48:28Z</time>
      </trkpt>
      <trkpt lat="48.50657" lon="2.40806">
        <ele>138</ele>
        <time>2020-05-24T09:48:33Z</time>
      </trkpt>
      <trkpt lat="48.50652" lon="2.40793">
        <ele>138</ele>
        <time>2020-05-24T09:48:42Z</time>
      </trkpt>
      <trkpt lat="48.50646" lon="2.40787">
        <ele>138</ele>
        <time>2020-05-24T09:48:53Z</time>
      </trkpt>
      <trkpt lat="48.50641" lon="2.40785">
        <ele>138</ele>
        <time>2020-05-24T09:48:58Z</time>
      </trkpt>
      <trkpt lat="48.50635" lon="2.40785">
        <ele>138</ele>
        <time>2020-05-24T09:49:02Z</time>
      </trkpt>
      <trkpt lat="48.5063" lon="2.40788">
        <ele>138</ele>
        <time>2020-05-24T09:49:06Z</time>
      </trkpt>
      <trkpt lat="48.50624" lon="2.40788">
        <ele>139</ele>
        <time>2020-05-24T09:49:11Z</time>
      </trkpt>
      <trkpt lat="48.5062" lon="2.40787">
        <ele>139</ele>
        <time>2020-05-24T09:49:15Z</time>
      </trkpt>
      <trkpt lat="48.5058" lon="2.40795">
        <ele>141</ele>
        <time>2020-05-24T09:49:48Z</time>
      </trkpt>
      <trkpt lat="48.50575" lon="2.40794">
        <ele>141</ele>
        <time>2020-05-24T09:49:52Z</time>
      </trkpt>
      <trkpt lat="48.50554" lon="2.40802">
        <ele>142</ele>
        <time>2020-05-24T09:50:10Z</time>
      </trkpt>
      <trkpt lat="48.50545" lon="2.40803">
        <ele>143</ele>
        <time>2020-05-24T09:50:18Z</time>
      </trkpt>
      <trkpt lat="48.50539" lon="2.40801">
        <ele>143</ele>
        <time>2020-05-24T09:50:23Z</time>
      </trkpt>
      <trkpt lat="48.50502" lon="2.40788">
        <ele>144</ele>
        <time>2020-05-24T09:50:57Z</time>
      </trkpt>
      <trkpt lat="48.50488" lon="2.40779">
        <ele>144</ele>
        <time>2020-05-24T09:51:10Z</time>
      </trkpt>
      <trkpt lat="48.50485" lon="2.40773">
        <ele>144</ele>
        <time>2020-05-24T09:51:15Z</time>
      </trkpt>
      <trkpt lat="48.50481" lon="2.40769">
        <ele>144</ele>
        <time>2020-05-24T09:51:19Z</time>
      </trkpt>
      <trkpt lat="48.50476" lon="2.40768">
        <ele>144</ele>
        <time>2020-05-24T09:51:24Z</time>
      </trkpt>
      <trkpt lat="48.50461" lon="2.4077">
        <ele>144</ele>
        <time>2020-05-24T09:51:38Z</time>
      </trkpt>
      <trkpt lat="48.50456" lon="2.40772">
        <ele>144</ele>
        <time>2020-05-24T09:51:42Z</time>
      </trkpt>
      <trkpt lat="48.50451" lon="2.40772">
        <ele>144</ele>
        <time>2020-05-24T09:51:45Z</time>
      </trkpt>
      <trkpt lat="48.50415" lon="2.40779">
        <ele>145</ele>
        <time>2020-05-24T09:52:13Z</time>
      </trkpt>
      <trkpt lat="48.50394" lon="2.40779">
        <ele>145</ele>
        <time>2020-05-24T09:52:29Z</time>
      </trkpt>
      <trkpt lat="48.50385" lon="2.40784">
        <ele>145</ele>
        <time>2020-05-24T09:52:36Z</time>
      </trkpt>
      <trkpt lat="48.50345" lon="2.40788">
        <ele>145</ele>
        <time>2020-05-24T09:53:06Z</time>
      </trkpt>
      <trkpt lat="48.50308" lon="2.40796">
        <ele>146</ele>
        <time>2020-05-24T09:53:38Z</time>
      </trkpt>
      <trkpt lat="48.50289" lon="2.40798">
        <ele>146</ele>
        <time>2020-05-24T09:53:51Z</time>
      </trkpt>
      <trkpt lat="48.50268" lon="2.40789">
        <ele>145</ele>
        <time>2020-05-24T09:54:08Z</time>
      </trkpt>
      <trkpt lat="48.50259" lon="2.40788">
        <ele>145</ele>
        <time>2020-05-24T09:54:15Z</time>
      </trkpt>
      <trkpt lat="48.50258" lon="2.4078">
        <ele>146</ele>
        <time>2020-05-24T09:55:06Z</time>
      </trkpt>
      <trkpt lat="48.50258" lon="2.40762">
        <ele>146</ele>
        <time>2020-05-24T09:55:19Z</time>
      </trkpt>
      <trkpt lat="48.50251" lon="2.40756">
        <ele>146</ele>
        <time>2020-05-24T09:55:23Z</time>
      </trkpt>
      <trkpt lat="48.50248" lon="2.40741">
        <ele>146</ele>
        <time>2020-05-24T09:55:29Z</time>
      </trkpt>
      <trkpt lat="48.50251" lon="2.40723">
        <ele>145</ele>
        <time>2020-05-24T09:55:39Z</time>
      </trkpt>
      <trkpt lat="48.50252" lon="2.40716">
        <ele>145</ele>
        <time>2020-05-24T09:55:43Z</time>
      </trkpt>
      <trkpt lat="48.50244" lon="2.40693">
        <ele>145</ele>
        <time>2020-05-24T09:55:54Z</time>
      </trkpt>
      <trkpt lat="48.50241" lon="2.40634">
        <ele>144</ele>
        <time>2020-05-24T09:56:25Z</time>
      </trkpt>
      <trkpt lat="48.50238" lon="2.4061">
        <ele>144</ele>
        <time>2020-05-24T09:56:37Z</time>
      </trkpt>
      <trkpt lat="48.50234" lon="2.40603">
        <ele>144</ele>
        <time>2020-05-24T09:56:41Z</time>
      </trkpt>
      <trkpt lat="48.50231" lon="2.40588">
        <ele>144</ele>
        <time>2020-05-24T09:56:50Z</time>
      </trkpt>
      <trkpt lat="48.50228" lon="2.40584">
        <ele>143</ele>
        <time>2020-05-24T09:56:54Z</time>
      </trkpt>
      <trkpt lat="48.50226" lon="2.40576">
        <ele>143</ele>
        <time>2020-05-24T09:56:58Z</time>
      </trkpt>
      <trkpt lat="48.5022" lon="2.40548">
        <ele>143</ele>
        <time>2020-05-24T09:57:12Z</time>
      </trkpt>
      <trkpt lat="48.50217" lon="2.40542">
        <ele>143</ele>
        <time>2020-05-24T09:57:16Z</time>
      </trkpt>
      <trkpt lat="48.50213" lon="2.40532">
        <ele>143</ele>
        <time>2020-05-24T09:57:19Z</time>
      </trkpt>
      <trkpt lat="48.50212" lon="2.40515">
        <ele>143</ele>
        <time>2020-05-24T09:57:29Z</time>
      </trkpt>
      <trkpt lat="48.50215" lon="2.40499">
        <ele>143</ele>
        <time>2020-05-24T09:57:37Z</time>
      </trkpt>
      <trkpt lat="48.50214" lon="2.40492">
        <ele>143</ele>
        <time>2020-05-24T09:57:41Z</time>
      </trkpt>
      <trkpt lat="48.50211" lon="2.40485">
        <ele>142</ele>
        <time>2020-05-24T09:57:45Z</time>
      </trkpt>
      <trkpt lat="48.50207" lon="2.4048">
        <ele>142</ele>
        <time>2020-05-24T09:57:48Z</time>
      </trkpt>
      <trkpt lat="48.50202" lon="2.40471">
        <ele>142</ele>
        <time>2020-05-24T09:57:56Z</time>
      </trkpt>
      <trkpt lat="48.50201" lon="2.40464">
        <ele>142</ele>
        <time>2020-05-24T09:58:00Z</time>
      </trkpt>
      <trkpt lat="48.502" lon="2.40438">
        <ele>141</ele>
        <time>2020-05-24T09:58:14Z</time>
      </trkpt>
      <trkpt lat="48.50203" lon="2.4043">
        <ele>141</ele>
        <time>2020-05-24T09:58:18Z</time>
      </trkpt>
      <trkpt lat="48.50203" lon="2.40416">
        <ele>141</ele>
        <time>2020-05-24T09:58:24Z</time>
      </trkpt>
      <trkpt lat="48.50197" lon="2.40395">
        <ele>140</ele>
        <time>2020-05-24T09:58:36Z</time>
      </trkpt>
      <trkpt lat="48.50196" lon="2.40347">
        <ele>140</ele>
        <time>2020-05-24T09:59:00Z</time>
      </trkpt>
      <trkpt lat="48.50197" lon="2.40339">
        <ele>140</ele>
        <time>2020-05-24T09:59:04Z</time>
      </trkpt>
      <trkpt lat="48.50201" lon="2.40316">
        <ele>140</ele>
        <time>2020-05-24T09:59:15Z</time>
      </trkpt>
      <trkpt lat="48.502" lon="2.403">
        <ele>139</ele>
        <time>2020-05-24T09:59:24Z</time>
      </trkpt>
      <trkpt lat="48.50195" lon="2.40262">
        <ele>139</ele>
        <time>2020-05-24T09:59:45Z</time>
      </trkpt>
      <trkpt lat="48.50197" lon="2.40246">
        <ele>139</ele>
        <time>2020-05-24T09:59:53Z</time>
      </trkpt>
      <trkpt lat="48.50195" lon="2.40235">
        <ele>138</ele>
        <time>2020-05-24T09:59:59Z</time>
      </trkpt>
      <trkpt lat="48.50191" lon="2.40228">
        <ele>138</ele>
        <time>2020-05-24T10:00:03Z</time>
      </trkpt>
      <trkpt lat="48.50188" lon="2.40219">
        <ele>138</ele>
        <time>2020-05-24T10:00:11Z</time>
      </trkpt>
      <trkpt lat="48.50188" lon="2.40212">
        <ele>138</ele>
        <time>2020-05-24T10:00:20Z</time>
      </trkpt>
      <trkpt lat="48.50188" lon="2.40204">
        <ele>138</ele>
        <time>2020-05-24T10:00:24Z</time>
      </trkpt>
      <trkpt lat="48.50189" lon="2.40197">
        <ele>138</ele>
        <time>2020-05-24T10:00:28Z</time>
      </trkpt>
      <trkpt lat="48.50188" lon="2.40188">
        <ele>138</ele>
        <time>2020-05-24T10:00:32Z</time>
      </trkpt>
      <trkpt lat="48.50188" lon="2.40174">
        <ele>137</ele>
        <time>2020-05-24T10:00:41Z</time>
      </trkpt>
      <trkpt lat="48.50184" lon="2.40159">
        <ele>137</ele>
        <time>2020-05-24T10:00:48Z</time>
      </trkpt>
      <trkpt lat="48.5018" lon="2.40146">
        <ele>137</ele>
        <time>2020-05-24T10:00:55Z</time>
      </trkpt>
      <trkpt lat="48.50179" lon="2.4013">
        <ele>137</ele>
        <time>2020-05-24T10:01:03Z</time>
      </trkpt>
      <trkpt lat="48.50179" lon="2.40123">
        <ele>137</ele>
        <time>2020-05-24T10:01:07Z</time>
      </trkpt>
      <trkpt lat="48.50177" lon="2.40092">
        <ele>137</ele>
        <time>2020-05-24T10:01:22Z</time>
      </trkpt>
      <trkpt lat="48.50173" lon="2.40078">
        <ele>137</ele>
        <time>2020-05-24T10:01:30Z</time>
      </trkpt>
      <trkpt lat="48.5017" lon="2.40055">
        <ele>137</ele>
        <time>2020-05-24T10:01:43Z</time>
      </trkpt>
      <trkpt lat="48.50167" lon="2.40047">
        <ele>137</ele>
        <time>2020-05-24T10:01:47Z</time>
      </trkpt>
      <trkpt lat="48.50166" lon="2.40039">
        <ele>137</ele>
        <time>2020-05-24T10:01:51Z</time>
      </trkpt>
      <trkpt lat="48.50158" lon="2.40012">
        <ele>137</ele>
        <time>2020-05-24T10:02:06Z</time>
      </trkpt>
      <trkpt lat="48.5016" lon="2.39997">
        <ele>137</ele>
        <time>2020-05-24T10:02:14Z</time>
      </trkpt>
      <trkpt lat="48.50159" lon="2.39974">
        <ele>137</ele>
        <time>2020-05-24T10:02:27Z</time>
      </trkpt>
      <trkpt lat="48.50157" lon="2.39967">
        <ele>137</ele>
        <time>2020-05-24T10:02:31Z</time>
      </trkpt>
      <trkpt lat="48.50158" lon="2.39959">
        <ele>137</ele>
        <time>2020-05-24T10:02:35Z</time>
      </trkpt>
      <trkpt lat="48.50157" lon="2.39952">
        <ele>137</ele>
        <time>2020-05-24T10:02:39Z</time>
      </trkpt>
      <trkpt lat="48.50155" lon="2.39946">
        <ele>137</ele>
        <time>2020-05-24T10:02:42Z</time>
      </trkpt>
      <trkpt lat="48.50151" lon="2.3994">
        <ele>137</ele>
        <time>2020-05-24T10:02:47Z</time>
      </trkpt>
      <trkpt lat="48.5015" lon="2.39932">
        <ele>137</ele>
        <time>2020-05-24T10:02:51Z</time>
      </trkpt>
      <trkpt lat="48.50151" lon="2.39925">
        <ele>137</ele>
        <time>2020-05-24T10:02:55Z</time>
      </trkpt>
      <trkpt lat="48.50148" lon="2.39918">
        <ele>137</ele>
        <time>2020-05-24T10:02:59Z</time>
      </trkpt>
      <trkpt lat="48.50146" lon="2.3991">
        <ele>137</ele>
        <time>2020-05-24T10:03:15Z</time>
      </trkpt>
      <trkpt lat="48.50142" lon="2.39903">
        <ele>137</ele>
        <time>2020-05-24T10:03:30Z</time>
      </trkpt>
      <trkpt lat="48.50144" lon="2.39904">
        <ele>138</ele>
        <time>2020-05-24T10:04:02Z</time>
      </trkpt>
      <trkpt lat="48.50132" lon="2.39912">
        <ele>137</ele>
        <time>2020-05-24T10:04:40Z</time>
      </trkpt>
      <trkpt lat="48.50128" lon="2.39926">
        <ele>137</ele>
        <time>2020-05-24T10:04:56Z</time>
      </trkpt>
      <trkpt lat="48.50121" lon="2.39938">
        <ele>138</ele>
        <time>2020-05-24T10:05:08Z</time>
      </trkpt>
      <trkpt lat="48.50117" lon="2.39951">
        <ele>138</ele>
        <time>2020-05-24T10:05:16Z</time>
      </trkpt>
      <trkpt lat="48.50101" lon="2.39985">
        <ele>138</ele>
        <time>2020-05-24T10:05:39Z</time>
      </trkpt>
      <trkpt lat="48.50094" lon="2.39993">
        <ele>139</ele>
        <time>2020-05-24T10:05:47Z</time>
      </trkpt>
      <trkpt lat="48.5009" lon="2.39997">
        <ele>139</ele>
        <time>2020-05-24T10:05:52Z</time>
      </trkpt>
      <trkpt lat="48.50086" lon="2.40006">
        <ele>139</ele>
        <time>2020-05-24T10:06:36Z</time>
      </trkpt>
      <trkpt lat="48.50078" lon="2.39999">
        <ele>138</ele>
        <time>2020-05-24T10:06:54Z</time>
      </trkpt>
      <trkpt lat="48.50052" lon="2.39975">
        <ele>138</ele>
        <time>2020-05-24T10:07:22Z</time>
      </trkpt>
      <trkpt lat="48.50044" lon="2.39973">
        <ele>139</ele>
        <time>2020-05-24T10:07:29Z</time>
      </trkpt>
      <trkpt lat="48.50041" lon="2.3997">
        <ele>138</ele>
        <time>2020-05-24T10:07:33Z</time>
      </trkpt>
      <trkpt lat="48.50027" lon="2.3996">
        <ele>139</ele>
        <time>2020-05-24T10:07:45Z</time>
      </trkpt>
      <trkpt lat="48.49996" lon="2.3994">
        <ele>139</ele>
        <time>2020-05-24T10:08:16Z</time>
      </trkpt>
      <trkpt lat="48.49992" lon="2.39937">
        <ele>139</ele>
        <time>2020-05-24T10:08:20Z</time>
      </trkpt>
      <trkpt lat="48.49982" lon="2.39936">
        <ele>139</ele>
        <time>2020-05-24T10:08:27Z</time>
      </trkpt>
      <trkpt lat="48.49943" lon="2.39915">
        <ele>138</ele>
        <time>2020-05-24T10:08:59Z</time>
      </trkpt>
      <trkpt lat="48.49931" lon="2.39906">
        <ele>138</ele>
        <time>2020-05-24T10:09:09Z</time>
      </trkpt>
      <trkpt lat="48.49894" lon="2.39881">
        <ele>137</ele>
        <time>2020-05-24T10:09:44Z</time>
      </trkpt>
      <trkpt lat="48.49866" lon="2.39868">
        <ele>134</ele>
        <time>2020-05-24T10:10:07Z</time>
      </trkpt>
      <trkpt lat="48.49853" lon="2.39857">
        <ele>133</ele>
        <time>2020-05-24T10:10:20Z</time>
      </trkpt>
      <trkpt lat="48.49844" lon="2.39844">
        <ele>129</ele>
        <time>2020-05-24T10:10:39Z</time>
      </trkpt>
      <trkpt lat="48.49839" lon="2.39838">
        <ele>127</ele>
        <time>2020-05-24T10:10:49Z</time>
      </trkpt>
      <trkpt lat="48.49833" lon="2.39826">
        <ele>123</ele>
        <time>2020-05-24T10:11:08Z</time>
      </trkpt>
      <trkpt lat="48.49827" lon="2.39821">
        <ele>120</ele>
        <time>2020-05-24T10:11:21Z</time>
      </trkpt>
      <trkpt lat="48.49818" lon="2.39815">
        <ele>115</ele>
        <time>2020-05-24T10:11:40Z</time>
      </trkpt>
      <trkpt lat="48.49814" lon="2.39813">
        <ele>115</ele>
        <time>2020-05-24T10:11:42Z</time>
      </trkpt>
      <trkpt lat="48.49803" lon="2.39814">
        <ele>112</ele>
        <time>2020-05-24T10:11:55Z</time>
      </trkpt>
      <trkpt lat="48.49785" lon="2.39822">
        <ele>107</ele>
        <time>2020-05-24T10:12:27Z</time>
      </trkpt>
      <trkpt lat="48.49779" lon="2.39816">
        <ele>105</ele>
        <time>2020-05-24T10:12:36Z</time>
      </trkpt>
      <trkpt lat="48.49772" lon="2.39813">
        <ele>104</ele>
        <time>2020-05-24T10:12:43Z</time>
      </trkpt>
      <trkpt lat="48.49729" lon="2.3981">
        <ele>97</ele>
        <time>2020-05-24T10:13:18Z</time>
      </trkpt>
      <trkpt lat="48.49714" lon="2.39806">
        <ele>96</ele>
        <time>2020-05-24T10:13:36Z</time>
      </trkpt>
      <trkpt lat="48.49709" lon="2.39803">
        <ele>94</ele>
        <time>2020-05-24T10:13:41Z</time>
      </trkpt>
      <trkpt lat="48.49702" lon="2.39802">
        <ele>93</ele>
        <time>2020-05-24T10:13:52Z</time>
      </trkpt>
      <trkpt lat="48.49699" lon="2.39796">
        <ele>92</ele>
        <time>2020-05-24T10:13:58Z</time>
      </trkpt>
      <trkpt lat="48.49684" lon="2.39786">
        <ele>91</ele>
        <time>2020-05-24T10:14:11Z</time>
      </trkpt>
      <trkpt lat="48.49674" lon="2.39785">
        <ele>89</ele>
        <time>2020-05-24T10:14:19Z</time>
      </trkpt>
      <trkpt lat="48.49668" lon="2.39782">
        <ele>88</ele>
        <time>2020-05-24T10:14:24Z</time>
      </trkpt>
      <trkpt lat="48.49656" lon="2.39782">
        <ele>88</ele>
        <time>2020-05-24T10:14:34Z</time>
      </trkpt>
      <trkpt lat="48.4965" lon="2.39783">
        <ele>88</ele>
        <time>2020-05-24T10:14:39Z</time>
      </trkpt>
      <trkpt lat="48.49645" lon="2.39783">
        <ele>88</ele>
        <time>2020-05-24T10:14:43Z</time>
      </trkpt>
      <trkpt lat="48.49639" lon="2.3978">
        <ele>87</ele>
        <time>2020-05-24T10:14:46Z</time>
      </trkpt>
      <trkpt lat="48.49635" lon="2.3978">
        <ele>87</ele>
        <time>2020-05-24T10:14:50Z</time>
      </trkpt>
      <trkpt lat="48.49632" lon="2.39785">
        <ele>87</ele>
        <time>2020-05-24T10:14:57Z</time>
      </trkpt>
      <trkpt lat="48.49626" lon="2.39787">
        <ele>87</ele>
        <time>2020-05-24T10:15:02Z</time>
      </trkpt>
      <trkpt lat="48.49619" lon="2.39781">
        <ele>87</ele>
        <time>2020-05-24T10:15:10Z</time>
      </trkpt>
      <trkpt lat="48.49608" lon="2.3978">
        <ele>87</ele>
        <time>2020-05-24T10:15:17Z</time>
      </trkpt>
      <trkpt lat="48.49603" lon="2.39778">
        <ele>86</ele>
        <time>2020-05-24T10:15:21Z</time>
      </trkpt>
      <trkpt lat="48.49594" lon="2.39773">
        <ele>86</ele>
        <time>2020-05-24T10:15:31Z</time>
      </trkpt>
      <trkpt lat="48.49581" lon="2.39763">
        <ele>86</ele>
        <time>2020-05-24T10:15:43Z</time>
      </trkpt>
      <trkpt lat="48.49578" lon="2.39756">
        <ele>86</ele>
        <time>2020-05-24T10:15:48Z</time>
      </trkpt>
      <trkpt lat="48.49571" lon="2.39747">
        <ele>87</ele>
        <time>2020-05-24T10:16:00Z</time>
      </trkpt>
      <trkpt lat="48.4956" lon="2.39745">
        <ele>87</ele>
        <time>2020-05-24T10:16:07Z</time>
      </trkpt>
      <trkpt lat="48.49548" lon="2.39744">
        <ele>87</ele>
        <time>2020-05-24T10:16:15Z</time>
      </trkpt>
      <trkpt lat="48.49543" lon="2.39747">
        <ele>88</ele>
        <time>2020-05-24T10:16:19Z</time>
      </trkpt>
      <trkpt lat="48.49537" lon="2.39745">
        <ele>88</ele>
        <time>2020-05-24T10:16:26Z</time>
      </trkpt>
      <trkpt lat="48.49531" lon="2.3975">
        <ele>88</ele>
        <time>2020-05-24T10:17:28Z</time>
      </trkpt>
      <trkpt lat="48.49533" lon="2.39758">
        <ele>87</ele>
        <time>2020-05-24T10:18:05Z</time>
      </trkpt>
      <trkpt lat="48.49535" lon="2.39766">
        <ele>87</ele>
        <time>2020-05-24T10:18:10Z</time>
      </trkpt>
      <trkpt lat="48.49534" lon="2.39778">
        <ele>87</ele>
        <time>2020-05-24T10:18:18Z</time>
      </trkpt>
      <trkpt lat="48.49526" lon="2.39799">
        <ele>86</ele>
        <time>2020-05-24T10:18:36Z</time>
      </trkpt>
      <trkpt lat="48.49524" lon="2.39805">
        <ele>87</ele>
        <time>2020-05-24T10:18:40Z</time>
      </trkpt>
      <trkpt lat="48.49522" lon="2.39821">
        <ele>87</ele>
        <time>2020-05-24T10:18:48Z</time>
      </trkpt>
      <trkpt lat="48.49522" lon="2.3983">
        <ele>87</ele>
        <time>2020-05-24T10:18:53Z</time>
      </trkpt>
      <trkpt lat="48.49521" lon="2.39838">
        <ele>88</ele>
        <time>2020-05-24T10:18:57Z</time>
      </trkpt>
      <trkpt lat="48.49519" lon="2.39845">
        <ele>87</ele>
        <time>2020-05-24T10:19:01Z</time>
      </trkpt>
      <trkpt lat="48.49517" lon="2.39851">
        <ele>88</ele>
        <time>2020-05-24T10:19:06Z</time>
      </trkpt>
      <trkpt lat="48.49513" lon="2.39856">
        <ele>88</ele>
        <time>2020-05-24T10:19:11Z</time>
      </trkpt>
      <trkpt lat="48.49512" lon="2.39879">
        <ele>89</ele>
        <time>2020-05-24T10:19:23Z</time>
      </trkpt>
      <trkpt lat="48.49513" lon="2.39903">
        <ele>90</ele>
        <time>2020-05-24T10:19:34Z</time>
      </trkpt>
      <trkpt lat="48.49509" lon="2.39933">
        <ele>91</ele>
        <time>2020-05-24T10:19:51Z</time>
      </trkpt>
      <trkpt lat="48.49507" lon="2.39939">
        <ele>92</ele>
        <time>2020-05-24T10:19:56Z</time>
      </trkpt>
      <trkpt lat="48.49508" lon="2.39946">
        <ele>92</ele>
        <time>2020-05-24T10:20:00Z</time>
      </trkpt>
      <trkpt lat="48.49508" lon="2.39954">
        <ele>92</ele>
        <time>2020-05-24T10:20:04Z</time>
      </trkpt>
      <trkpt lat="48.49507" lon="2.39976">
        <ele>93</ele>
        <time>2020-05-24T10:20:16Z</time>
      </trkpt>
      <trkpt lat="48.49506" lon="2.39984">
        <ele>93</ele>
        <time>2020-05-24T10:20:21Z</time>
      </trkpt>
      <trkpt lat="48.49503" lon="2.3999">
        <ele>93</ele>
        <time>2020-05-24T10:20:32Z</time>
      </trkpt>
      <trkpt lat="48.49495" lon="2.39994">
        <ele>94</ele>
        <time>2020-05-24T10:20:44Z</time>
      </trkpt>
      <trkpt lat="48.49491" lon="2.40002">
        <ele>94</ele>
        <time>2020-05-24T10:20:58Z</time>
      </trkpt>
      <trkpt lat="48.49487" lon="2.40007">
        <ele>94</ele>
        <time>2020-05-24T10:21:24Z</time>
      </trkpt>
      <trkpt lat="48.49489" lon="2.40006">
        <ele>98</ele>
        <time>2020-05-24T11:14:27Z</time>
      </trkpt>
      <trkpt lat="48.49495" lon="2.40012">
        <ele>96</ele>
        <time>2020-05-24T11:20:07Z</time>
      </trkpt>
      <trkpt lat="48.49499" lon="2.40017">
        <ele>95</ele>
        <time>2020-05-24T11:20:11Z</time>
      </trkpt>
      <trkpt lat="48.49492" lon="2.4002">
        <ele>95</ele>
        <time>2020-05-24T11:20:33Z</time>
      </trkpt>
      <trkpt lat="48.49489" lon="2.40034">
        <ele>95</ele>
        <time>2020-05-24T11:20:44Z</time>
      </trkpt>
      <trkpt lat="48.49489" lon="2.4004">
        <ele>95</ele>
        <time>2020-05-24T11:20:47Z</time>
      </trkpt>
      <trkpt lat="48.49488" lon="2.40048">
        <ele>95</ele>
        <time>2020-05-24T11:20:51Z</time>
      </trkpt>
      <trkpt lat="48.49486" lon="2.40055">
        <ele>95</ele>
        <time>2020-05-24T11:20:55Z</time>
      </trkpt>
      <trkpt lat="48.49483" lon="2.4006">
        <ele>95</ele>
        <time>2020-05-24T11:20:59Z</time>
      </trkpt>
      <trkpt lat="48.4948" lon="2.40075">
        <ele>95</ele>
        <time>2020-05-24T11:21:08Z</time>
      </trkpt>
      <trkpt lat="48.49477" lon="2.4008">
        <ele>95</ele>
        <time>2020-05-24T11:21:12Z</time>
      </trkpt>
      <trkpt lat="48.49477" lon="2.40089">
        <ele>95</ele>
        <time>2020-05-24T11:21:17Z</time>
      </trkpt>
      <trkpt lat="48.49474" lon="2.40106">
        <ele>95</ele>
        <time>2020-05-24T11:21:28Z</time>
      </trkpt>
      <trkpt lat="48.49469" lon="2.40119">
        <ele>96</ele>
        <time>2020-05-24T11:21:36Z</time>
      </trkpt>
      <trkpt lat="48.4946" lon="2.40125">
        <ele>96</ele>
        <time>2020-05-24T11:21:44Z</time>
      </trkpt>
      <trkpt lat="48.49456" lon="2.40138">
        <ele>97</ele>
        <time>2020-05-24T11:21:53Z</time>
      </trkpt>
      <trkpt lat="48.4945" lon="2.4018">
        <ele>97</ele>
        <time>2020-05-24T11:22:19Z</time>
      </trkpt>
      <trkpt lat="48.49453" lon="2.40194">
        <ele>98</ele>
        <time>2020-05-24T11:22:25Z</time>
      </trkpt>
      <trkpt lat="48.49444" lon="2.4022">
        <ele>99</ele>
        <time>2020-05-24T11:22:41Z</time>
      </trkpt>
      <trkpt lat="48.49445" lon="2.40231">
        <ele>99</ele>
        <time>2020-05-24T11:22:49Z</time>
      </trkpt>
      <trkpt lat="48.49442" lon="2.40245">
        <ele>100</ele>
        <time>2020-05-24T11:22:55Z</time>
      </trkpt>
      <trkpt lat="48.49433" lon="2.40267">
        <ele>101</ele>
        <time>2020-05-24T11:23:12Z</time>
      </trkpt>
      <trkpt lat="48.49433" lon="2.40275">
        <ele>101</ele>
        <time>2020-05-24T11:23:16Z</time>
      </trkpt>
      <trkpt lat="48.49431" lon="2.40284">
        <ele>101</ele>
        <time>2020-05-24T11:23:23Z</time>
      </trkpt>
      <trkpt lat="48.4943" lon="2.403">
        <ele>102</ele>
        <time>2020-05-24T11:23:32Z</time>
      </trkpt>
      <trkpt lat="48.49422" lon="2.40317">
        <ele>103</ele>
        <time>2020-05-24T11:23:44Z</time>
      </trkpt>
      <trkpt lat="48.49413" lon="2.40357">
        <ele>104</ele>
        <time>2020-05-24T11:24:08Z</time>
      </trkpt>
      <trkpt lat="48.49408" lon="2.40415">
        <ele>105</ele>
        <time>2020-05-24T11:24:41Z</time>
      </trkpt>
      <trkpt lat="48.49406" lon="2.40444">
        <ele>106</ele>
        <time>2020-05-24T11:24:58Z</time>
      </trkpt>
      <trkpt lat="48.49402" lon="2.40457">
        <ele>107</ele>
        <time>2020-05-24T11:25:07Z</time>
      </trkpt>
      <trkpt lat="48.494" lon="2.40471">
        <ele>107</ele>
        <time>2020-05-24T11:25:16Z</time>
      </trkpt>
      <trkpt lat="48.49383" lon="2.40485">
        <ele>109</ele>
        <time>2020-05-24T11:25:44Z</time>
      </trkpt>
      <trkpt lat="48.4937" lon="2.40458">
        <ele>108</ele>
        <time>2020-05-24T11:26:20Z</time>
      </trkpt>
      <trkpt lat="48.49374" lon="2.40444">
        <ele>107</ele>
        <time>2020-05-24T11:26:29Z</time>
      </trkpt>
      <trkpt lat="48.4937" lon="2.40427">
        <ele>109</ele>
        <time>2020-05-24T11:26:44Z</time>
      </trkpt>
      <trkpt lat="48.49359" lon="2.40416">
        <ele>112</ele>
        <time>2020-05-24T11:27:01Z</time>
      </trkpt>
      <trkpt lat="48.49354" lon="2.40403">
        <ele>118</ele>
        <time>2020-05-24T11:27:33Z</time>
      </trkpt>
      <trkpt lat="48.49341" lon="2.40399">
        <ele>121</ele>
        <time>2020-05-24T11:27:49Z</time>
      </trkpt>
      <trkpt lat="48.49332" lon="2.40404">
        <ele>126</ele>
        <time>2020-05-24T11:28:27Z</time>
      </trkpt>
      <trkpt lat="48.49329" lon="2.4039">
        <ele>130</ele>
        <time>2020-05-24T11:28:50Z</time>
      </trkpt>
      <trkpt lat="48.49321" lon="2.40394">
        <ele>133</ele>
        <time>2020-05-24T11:29:43Z</time>
      </trkpt>
      <trkpt lat="48.49316" lon="2.40408">
        <ele>132</ele>
        <time>2020-05-24T11:29:58Z</time>
      </trkpt>
      <trkpt lat="48.49308" lon="2.40402">
        <ele>131</ele>
        <time>2020-05-24T11:30:48Z</time>
      </trkpt>
      <trkpt lat="48.49307" lon="2.40395">
        <ele>131</ele>
        <time>2020-05-24T11:30:58Z</time>
      </trkpt>
      <trkpt lat="48.49301" lon="2.40394">
        <ele>131</ele>
        <time>2020-05-24T11:31:18Z</time>
      </trkpt>
      <trkpt lat="48.49296" lon="2.404">
        <ele>131</ele>
        <time>2020-05-24T11:31:30Z</time>
      </trkpt>
      <trkpt lat="48.49301" lon="2.40403">
        <ele>132</ele>
        <time>2020-05-24T11:31:48Z</time>
      </trkpt>
      <trkpt lat="48.49308" lon="2.40418">
        <ele>137</ele>
        <time>2020-05-24T11:32:18Z</time>
      </trkpt>
      <trkpt lat="48.49304" lon="2.4042">
        <ele>136</ele>
        <time>2020-05-24T11:32:36Z</time>
      </trkpt>
      <trkpt lat="48.49304" lon="2.40423">
        <ele>136</ele>
        <time>2020-05-24T11:33:43Z</time>
      </trkpt>
      <trkpt lat="48.49303" lon="2.40438">
        <ele>134</ele>
        <time>2020-05-24T11:34:00Z</time>
      </trkpt>
      <trkpt lat="48.49303" lon="2.40447">
        <ele>133</ele>
        <time>2020-05-24T11:34:15Z</time>
      </trkpt>
      <trkpt lat="48.49301" lon="2.40456">
        <ele>132</ele>
        <time>2020-05-24T11:34:27Z</time>
      </trkpt>
      <trkpt lat="48.49298" lon="2.40464">
        <ele>131</ele>
        <time>2020-05-24T11:35:09Z</time>
      </trkpt>
      <trkpt lat="48.49295" lon="2.40471">
        <ele>132</ele>
        <time>2020-05-24T11:35:27Z</time>
      </trkpt>
      <trkpt lat="48.49289" lon="2.40476">
        <ele>131</ele>
        <time>2020-05-24T11:35:57Z</time>
      </trkpt>
      <trkpt lat="48.49288" lon="2.40485">
        <ele>133</ele>
        <time>2020-05-24T11:36:21Z</time>
      </trkpt>
      <trkpt lat="48.49284" lon="2.40492">
        <ele>134</ele>
        <time>2020-05-24T11:37:09Z</time>
      </trkpt>
      <trkpt lat="48.49282" lon="2.40508">
        <ele>135</ele>
        <time>2020-05-24T11:37:21Z</time>
      </trkpt>
      <trkpt lat="48.49279" lon="2.40517">
        <ele>136</ele>
        <time>2020-05-24T11:37:32Z</time>
      </trkpt>
      <trkpt lat="48.49278" lon="2.40524">
        <ele>136</ele>
        <time>2020-05-24T11:37:37Z</time>
      </trkpt>
      <trkpt lat="48.49274" lon="2.40528">
        <ele>136</ele>
        <time>2020-05-24T11:37:44Z</time>
      </trkpt>
      <trkpt lat="48.49274" lon="2.40535">
        <ele>136</ele>
        <time>2020-05-24T11:37:47Z</time>
      </trkpt>
      <trkpt lat="48.49272" lon="2.40557">
        <ele>136</ele>
        <time>2020-05-24T11:37:59Z</time>
      </trkpt>
      <trkpt lat="48.49265" lon="2.40576">
        <ele>136</ele>
        <time>2020-05-24T11:38:12Z</time>
      </trkpt>
      <trkpt lat="48.49261" lon="2.406">
        <ele>136</ele>
        <time>2020-05-24T11:38:26Z</time>
      </trkpt>
      <trkpt lat="48.49262" lon="2.40607">
        <ele>136</ele>
        <time>2020-05-24T11:38:30Z</time>
      </trkpt>
      <trkpt lat="48.49265" lon="2.40613">
        <ele>136</ele>
        <time>2020-05-24T11:38:34Z</time>
      </trkpt>
      <trkpt lat="48.49266" lon="2.40628">
        <ele>136</ele>
        <time>2020-05-24T11:38:42Z</time>
      </trkpt>
      <trkpt lat="48.49264" lon="2.40634">
        <ele>136</ele>
        <time>2020-05-24T11:38:47Z</time>
      </trkpt>
      <trkpt lat="48.49259" lon="2.40639">
        <ele>136</ele>
        <time>2020-05-24T11:38:52Z</time>
      </trkpt>
      <trkpt lat="48.49258" lon="2.40647">
        <ele>136</ele>
        <time>2020-05-24T11:38:56Z</time>
      </trkpt>
      <trkpt lat="48.49258" lon="2.40659">
        <ele>135</ele>
        <time>2020-05-24T11:39:07Z</time>
      </trkpt>
      <trkpt lat="48.49262" lon="2.40671">
        <ele>134</ele>
        <time>2020-05-24T11:39:18Z</time>
      </trkpt>
      <trkpt lat="48.49266" lon="2.40676">
        <ele>134</ele>
        <time>2020-05-24T11:39:22Z</time>
      </trkpt>
      <trkpt lat="48.49268" lon="2.40682">
        <ele>134</ele>
        <time>2020-05-24T11:39:26Z</time>
      </trkpt>
      <trkpt lat="48.49266" lon="2.40692">
        <ele>134</ele>
        <time>2020-05-24T11:39:33Z</time>
      </trkpt>
      <trkpt lat="48.49261" lon="2.40695">
        <ele>135</ele>
        <time>2020-05-24T11:39:38Z</time>
      </trkpt>
      <trkpt lat="48.49257" lon="2.40695">
        <ele>135</ele>
        <time>2020-05-24T11:39:43Z</time>
      </trkpt>
      <trkpt lat="48.49254" lon="2.40701">
        <ele>135</ele>
        <time>2020-05-24T11:39:49Z</time>
      </trkpt>
      <trkpt lat="48.49254" lon="2.40709">
        <ele>136</ele>
        <time>2020-05-24T11:39:52Z</time>
      </trkpt>
      <trkpt lat="48.49247" lon="2.4072">
        <ele>137</ele>
        <time>2020-05-24T11:40:00Z</time>
      </trkpt>
      <trkpt lat="48.49243" lon="2.40725">
        <ele>137</ele>
        <time>2020-05-24T11:40:04Z</time>
      </trkpt>
      <trkpt lat="48.49223" lon="2.40761">
        <ele>137</ele>
        <time>2020-05-24T11:40:31Z</time>
      </trkpt>
      <trkpt lat="48.4922" lon="2.40784">
        <ele>137</ele>
        <time>2020-05-24T11:40:41Z</time>
      </trkpt>
      <trkpt lat="48.4922" lon="2.40792">
        <ele>138</ele>
        <time>2020-05-24T11:40:45Z</time>
      </trkpt>
      <trkpt lat="48.4922" lon="2.40811">
        <ele>137</ele>
        <time>2020-05-24T11:40:57Z</time>
      </trkpt>
      <trkpt lat="48.49219" lon="2.4082">
        <ele>137</ele>
        <time>2020-05-24T11:41:01Z</time>
      </trkpt>
      <trkpt lat="48.49221" lon="2.40836">
        <ele>137</ele>
        <time>2020-05-24T11:41:10Z</time>
      </trkpt>
      <trkpt lat="48.49221" lon="2.40851">
        <ele>136</ele>
        <time>2020-05-24T11:41:18Z</time>
      </trkpt>
      <trkpt lat="48.49221" lon="2.40859">
        <ele>137</ele>
        <time>2020-05-24T11:41:22Z</time>
      </trkpt>
      <trkpt lat="48.49217" lon="2.40876">
        <ele>136</ele>
        <time>2020-05-24T11:41:34Z</time>
      </trkpt>
      <trkpt lat="48.49217" lon="2.40891">
        <ele>136</ele>
        <time>2020-05-24T11:41:42Z</time>
      </trkpt>
      <trkpt lat="48.49215" lon="2.40898">
        <ele>136</ele>
        <time>2020-05-24T11:41:47Z</time>
      </trkpt>
      <trkpt lat="48.49211" lon="2.40919">
        <ele>137</ele>
        <time>2020-05-24T11:42:00Z</time>
      </trkpt>
      <trkpt lat="48.49207" lon="2.40924">
        <ele>137</ele>
        <time>2020-05-24T11:42:05Z</time>
      </trkpt>
      <trkpt lat="48.49204" lon="2.4093">
        <ele>137</ele>
        <time>2020-05-24T11:42:10Z</time>
      </trkpt>
      <trkpt lat="48.49202" lon="2.40938">
        <ele>137</ele>
        <time>2020-05-24T11:42:15Z</time>
      </trkpt>
      <trkpt lat="48.49202" lon="2.40946">
        <ele>138</ele>
        <time>2020-05-24T11:42:19Z</time>
      </trkpt>
      <trkpt lat="48.49198" lon="2.4096">
        <ele>137</ele>
        <time>2020-05-24T11:42:27Z</time>
      </trkpt>
      <trkpt lat="48.49195" lon="2.40984">
        <ele>137</ele>
        <time>2020-05-24T11:42:40Z</time>
      </trkpt>
      <trkpt lat="48.49193" lon="2.4099">
        <ele>137</ele>
        <time>2020-05-24T11:42:44Z</time>
      </trkpt>
      <trkpt lat="48.4919" lon="2.40994">
        <ele>137</ele>
        <time>2020-05-24T11:42:49Z</time>
      </trkpt>
      <trkpt lat="48.49185" lon="2.41">
        <ele>137</ele>
        <time>2020-05-24T11:42:56Z</time>
      </trkpt>
      <trkpt lat="48.49182" lon="2.41022">
        <ele>136</ele>
        <time>2020-05-24T11:43:08Z</time>
      </trkpt>
      <trkpt lat="48.49176" lon="2.4103">
        <ele>135</ele>
        <time>2020-05-24T11:43:16Z</time>
      </trkpt>
      <trkpt lat="48.49173" lon="2.41037">
        <ele>135</ele>
        <time>2020-05-24T11:43:20Z</time>
      </trkpt>
      <trkpt lat="48.49169" lon="2.41053">
        <ele>135</ele>
        <time>2020-05-24T11:43:28Z</time>
      </trkpt>
      <trkpt lat="48.49166" lon="2.41059">
        <ele>135</ele>
        <time>2020-05-24T11:43:32Z</time>
      </trkpt>
      <trkpt lat="48.49165" lon="2.41067">
        <ele>134</ele>
        <time>2020-05-24T11:43:36Z</time>
      </trkpt>
      <trkpt lat="48.49165" lon="2.41074">
        <ele>134</ele>
        <time>2020-05-24T11:43:39Z</time>
      </trkpt>
      <trkpt lat="48.49164" lon="2.41092">
        <ele>135</ele>
        <time>2020-05-24T11:43:50Z</time>
      </trkpt>
      <trkpt lat="48.4916" lon="2.41107">
        <ele>136</ele>
        <time>2020-05-24T11:44:00Z</time>
      </trkpt>
      <trkpt lat="48.49149" lon="2.41119">
        <ele>137</ele>
        <time>2020-05-24T11:44:15Z</time>
      </trkpt>
      <trkpt lat="48.49149" lon="2.41127">
        <ele>137</ele>
        <time>2020-05-24T11:44:19Z</time>
      </trkpt>
      <trkpt lat="48.49169" lon="2.41162">
        <ele>135</ele>
        <time>2020-05-24T11:44:40Z</time>
      </trkpt>
      <trkpt lat="48.49173" lon="2.41178">
        <ele>135</ele>
        <time>2020-05-24T11:44:49Z</time>
      </trkpt>
      <trkpt lat="48.49175" lon="2.41192">
        <ele>134</ele>
        <time>2020-05-24T11:44:57Z</time>
      </trkpt>
      <trkpt lat="48.49175" lon="2.41199">
        <ele>134</ele>
        <time>2020-05-24T11:45:01Z</time>
      </trkpt>
      <trkpt lat="48.49177" lon="2.41206">
        <ele>134</ele>
        <time>2020-05-24T11:45:05Z</time>
      </trkpt>
      <trkpt lat="48.49181" lon="2.4121">
        <ele>134</ele>
        <time>2020-05-24T11:45:08Z</time>
      </trkpt>
      <trkpt lat="48.49183" lon="2.41217">
        <ele>134</ele>
        <time>2020-05-24T11:45:12Z</time>
      </trkpt>
      <trkpt lat="48.49187" lon="2.41242">
        <ele>133</ele>
        <time>2020-05-24T11:45:24Z</time>
      </trkpt>
      <trkpt lat="48.49191" lon="2.41256">
        <ele>133</ele>
        <time>2020-05-24T11:45:31Z</time>
      </trkpt>
      <trkpt lat="48.49191" lon="2.41271">
        <ele>132</ele>
        <time>2020-05-24T11:45:38Z</time>
      </trkpt>
      <trkpt lat="48.4919" lon="2.41286">
        <ele>132</ele>
        <time>2020-05-24T11:45:46Z</time>
      </trkpt>
      <trkpt lat="48.49184" lon="2.41298">
        <ele>133</ele>
        <time>2020-05-24T11:45:55Z</time>
      </trkpt>
      <trkpt lat="48.49177" lon="2.4131">
        <ele>133</ele>
        <time>2020-05-24T11:46:04Z</time>
      </trkpt>
      <trkpt lat="48.49164" lon="2.4136">
        <ele>135</ele>
        <time>2020-05-24T11:46:33Z</time>
      </trkpt>
      <trkpt lat="48.49146" lon="2.414">
        <ele>136</ele>
        <time>2020-05-24T11:47:01Z</time>
      </trkpt>
      <trkpt lat="48.49141" lon="2.41404">
        <ele>136</ele>
        <time>2020-05-24T11:47:06Z</time>
      </trkpt>
      <trkpt lat="48.49136" lon="2.41419">
        <ele>136</ele>
        <time>2020-05-24T11:47:14Z</time>
      </trkpt>
      <trkpt lat="48.49132" lon="2.41425">
        <ele>136</ele>
        <time>2020-05-24T11:47:18Z</time>
      </trkpt>
      <trkpt lat="48.49132" lon="2.41432">
        <ele>136</ele>
        <time>2020-05-24T11:47:21Z</time>
      </trkpt>
      <trkpt lat="48.4913" lon="2.41439">
        <ele>136</ele>
        <time>2020-05-24T11:47:25Z</time>
      </trkpt>
      <trkpt lat="48.49123" lon="2.41451">
        <ele>136</ele>
        <time>2020-05-24T11:47:33Z</time>
      </trkpt>
      <trkpt lat="48.49123" lon="2.41459">
        <ele>137</ele>
        <time>2020-05-24T11:47:37Z</time>
      </trkpt>
      <trkpt lat="48.49121" lon="2.41467">
        <ele>136</ele>
        <time>2020-05-24T11:47:41Z</time>
      </trkpt>
      <trkpt lat="48.4912" lon="2.4148">
        <ele>137</ele>
        <time>2020-05-24T11:47:50Z</time>
      </trkpt>
      <trkpt lat="48.49121" lon="2.4149">
        <ele>137</ele>
        <time>2020-05-24T11:47:57Z</time>
      </trkpt>
      <trkpt lat="48.4913" lon="2.41512">
        <ele>137</ele>
        <time>2020-05-24T11:48:10Z</time>
      </trkpt>
      <trkpt lat="48.49135" lon="2.41515">
        <ele>137</ele>
        <time>2020-05-24T11:48:31Z</time>
      </trkpt>
      <trkpt lat="48.49131" lon="2.41525">
        <ele>136</ele>
        <time>2020-05-24T11:50:43Z</time>
      </trkpt>
      <trkpt lat="48.49128" lon="2.41532">
        <ele>136</ele>
        <time>2020-05-24T11:50:47Z</time>
      </trkpt>
      <trkpt lat="48.49128" lon="2.41548">
        <ele>136</ele>
        <time>2020-05-24T11:50:54Z</time>
      </trkpt>
      <trkpt lat="48.49131" lon="2.41555">
        <ele>137</ele>
        <time>2020-05-24T11:53:31Z</time>
      </trkpt>
      <trkpt lat="48.49134" lon="2.41545">
        <ele>137</ele>
        <time>2020-05-24T11:53:43Z</time>
      </trkpt>
      <trkpt lat="48.49135" lon="2.41538">
        <ele>136</ele>
        <time>2020-05-24T11:53:47Z</time>
      </trkpt>
      <trkpt lat="48.49134" lon="2.41528">
        <ele>136</ele>
        <time>2020-05-24T11:53:56Z</time>
      </trkpt>
      <trkpt lat="48.49136" lon="2.41521">
        <ele>136</ele>
        <time>2020-05-24T11:54:05Z</time>
      </trkpt>
      <trkpt lat="48.49131" lon="2.41514">
        <ele>136</ele>
        <time>2020-05-24T11:54:17Z</time>
      </trkpt>
      <trkpt lat="48.4913" lon="2.41508">
        <ele>135</ele>
        <time>2020-05-24T11:54:22Z</time>
      </trkpt>
      <trkpt lat="48.49119" lon="2.41484">
        <ele>136</ele>
        <time>2020-05-24T11:54:41Z</time>
      </trkpt>
      <trkpt lat="48.49115" lon="2.4148">
        <ele>135</ele>
        <time>2020-05-24T11:54:45Z</time>
      </trkpt>
      <trkpt lat="48.49082" lon="2.41442">
        <ele>136</ele>
        <time>2020-05-24T11:55:17Z</time>
      </trkpt>
      <trkpt lat="48.49077" lon="2.41439">
        <ele>137</ele>
        <time>2020-05-24T11:55:21Z</time>
      </trkpt>
      <trkpt lat="48.49053" lon="2.4142">
        <ele>137</ele>
        <time>2020-05-24T11:55:42Z</time>
      </trkpt>
      <trkpt lat="48.49039" lon="2.41412">
        <ele>135</ele>
        <time>2020-05-24T11:55:52Z</time>
      </trkpt>
      <trkpt lat="48.49023" lon="2.41406">
        <ele>135</ele>
        <time>2020-05-24T11:56:03Z</time>
      </trkpt>
      <trkpt lat="48.49007" lon="2.41406">
        <ele>136</ele>
        <time>2020-05-24T11:56:15Z</time>
      </trkpt>
      <trkpt lat="48.48981" lon="2.414">
        <ele>137</ele>
        <time>2020-05-24T11:56:35Z</time>
      </trkpt>
      <trkpt lat="48.48971" lon="2.414">
        <ele>137</ele>
        <time>2020-05-24T11:56:44Z</time>
      </trkpt>
      <trkpt lat="48.48952" lon="2.41394">
        <ele>137</ele>
        <time>2020-05-24T11:57:00Z</time>
      </trkpt>
      <trkpt lat="48.48947" lon="2.41392">
        <ele>137</ele>
        <time>2020-05-24T11:57:05Z</time>
      </trkpt>
      <trkpt lat="48.48935" lon="2.41385">
        <ele>137</ele>
        <time>2020-05-24T11:57:17Z</time>
      </trkpt>
      <trkpt lat="48.48932" lon="2.41378">
        <ele>137</ele>
        <time>2020-05-24T11:57:22Z</time>
      </trkpt>
      <trkpt lat="48.48918" lon="2.41358">
        <ele>137</ele>
        <time>2020-05-24T11:57:38Z</time>
      </trkpt>
      <trkpt lat="48.48915" lon="2.41341">
        <ele>137</ele>
        <time>2020-05-24T11:57:46Z</time>
      </trkpt>
      <trkpt lat="48.48912" lon="2.41335">
        <ele>137</ele>
        <time>2020-05-24T11:57:50Z</time>
      </trkpt>
      <trkpt lat="48.48911" lon="2.41325">
        <ele>137</ele>
        <time>2020-05-24T11:57:57Z</time>
      </trkpt>
      <trkpt lat="48.48907" lon="2.41303">
        <ele>137</ele>
        <time>2020-05-24T11:58:09Z</time>
      </trkpt>
      <trkpt lat="48.48905" lon="2.41287">
        <ele>137</ele>
        <time>2020-05-24T11:58:17Z</time>
      </trkpt>
      <trkpt lat="48.48902" lon="2.4128">
        <ele>138</ele>
        <time>2020-05-24T11:58:21Z</time>
      </trkpt>
      <trkpt lat="48.48898" lon="2.41232">
        <ele>138</ele>
        <time>2020-05-24T11:58:46Z</time>
      </trkpt>
      <trkpt lat="48.48899" lon="2.41223">
        <ele>138</ele>
        <time>2020-05-24T11:58:50Z</time>
      </trkpt>
      <trkpt lat="48.48895" lon="2.41162">
        <ele>138</ele>
        <time>2020-05-24T11:59:22Z</time>
      </trkpt>
      <trkpt lat="48.48896" lon="2.41146">
        <ele>138</ele>
        <time>2020-05-24T11:59:30Z</time>
      </trkpt>
      <trkpt lat="48.48901" lon="2.41131">
        <ele>137</ele>
        <time>2020-05-24T11:59:37Z</time>
      </trkpt>
      <trkpt lat="48.48902" lon="2.41115">
        <ele>137</ele>
        <time>2020-05-24T11:59:45Z</time>
      </trkpt>
      <trkpt lat="48.489" lon="2.411">
        <ele>137</ele>
        <time>2020-05-24T11:59:53Z</time>
      </trkpt>
      <trkpt lat="48.48902" lon="2.41074">
        <ele>136</ele>
        <time>2020-05-24T12:00:06Z</time>
      </trkpt>
      <trkpt lat="48.48901" lon="2.41066">
        <ele>136</ele>
        <time>2020-05-24T12:00:10Z</time>
      </trkpt>
      <trkpt lat="48.48902" lon="2.41058">
        <ele>136</ele>
        <time>2020-05-24T12:00:14Z</time>
      </trkpt>
      <trkpt lat="48.48904" lon="2.41044">
        <ele>135</ele>
        <time>2020-05-24T12:00:22Z</time>
      </trkpt>
      <trkpt lat="48.48903" lon="2.4103">
        <ele>135</ele>
        <time>2020-05-24T12:00:29Z</time>
      </trkpt>
      <trkpt lat="48.489" lon="2.41022">
        <ele>135</ele>
        <time>2020-05-24T12:00:33Z</time>
      </trkpt>
      <trkpt lat="48.48899" lon="2.41014">
        <ele>135</ele>
        <time>2020-05-24T12:00:37Z</time>
      </trkpt>
      <trkpt lat="48.48899" lon="2.40999">
        <ele>134</ele>
        <time>2020-05-24T12:00:45Z</time>
      </trkpt>
      <trkpt lat="48.48905" lon="2.40961">
        <ele>131</ele>
        <time>2020-05-24T12:01:07Z</time>
      </trkpt>
      <trkpt lat="48.48905" lon="2.40947">
        <ele>130</ele>
        <time>2020-05-24T12:01:14Z</time>
      </trkpt>
      <trkpt lat="48.48911" lon="2.40889">
        <ele>125</ele>
        <time>2020-05-24T12:01:46Z</time>
      </trkpt>
      <trkpt lat="48.48913" lon="2.40835">
        <ele>120</ele>
        <time>2020-05-24T12:02:12Z</time>
      </trkpt>
      <trkpt lat="48.48907" lon="2.40789">
        <ele>116</ele>
        <time>2020-05-24T12:02:38Z</time>
      </trkpt>
      <trkpt lat="48.48909" lon="2.40775">
        <ele>115</ele>
        <time>2020-05-24T12:02:46Z</time>
      </trkpt>
      <trkpt lat="48.48902" lon="2.40726">
        <ele>111</ele>
        <time>2020-05-24T12:03:11Z</time>
      </trkpt>
      <trkpt lat="48.48887" lon="2.40685">
        <ele>108</ele>
        <time>2020-05-24T12:03:32Z</time>
      </trkpt>
      <trkpt lat="48.48885" lon="2.40675">
        <ele>107</ele>
        <time>2020-05-24T12:03:39Z</time>
      </trkpt>
      <trkpt lat="48.48883" lon="2.40667">
        <ele>107</ele>
        <time>2020-05-24T12:03:45Z</time>
      </trkpt>
      <trkpt lat="48.48884" lon="2.40659">
        <ele>106</ele>
        <time>2020-05-24T12:03:50Z</time>
      </trkpt>
      <trkpt lat="48.48877" lon="2.40646">
        <ele>106</ele>
        <time>2020-05-24T12:03:56Z</time>
      </trkpt>
      <trkpt lat="48.48875" lon="2.40632">
        <ele>105</ele>
        <time>2020-05-24T12:04:03Z</time>
      </trkpt>
      <trkpt lat="48.48848" lon="2.40589">
        <ele>103</ele>
        <time>2020-05-24T12:04:34Z</time>
      </trkpt>
      <trkpt lat="48.48817" lon="2.40534">
        <ele>101</ele>
        <time>2020-05-24T12:05:08Z</time>
      </trkpt>
      <trkpt lat="48.48802" lon="2.40518">
        <ele>101</ele>
        <time>2020-05-24T12:05:21Z</time>
      </trkpt>
      <trkpt lat="48.48777" lon="2.40495">
        <ele>100</ele>
        <time>2020-05-24T12:05:44Z</time>
      </trkpt>
      <trkpt lat="48.48765" lon="2.40479">
        <ele>99</ele>
        <time>2020-05-24T12:05:55Z</time>
      </trkpt>
      <trkpt lat="48.48743" lon="2.4046">
        <ele>97</ele>
        <time>2020-05-24T12:06:13Z</time>
      </trkpt>
      <trkpt lat="48.48733" lon="2.40443">
        <ele>96</ele>
        <time>2020-05-24T12:06:25Z</time>
      </trkpt>
      <trkpt lat="48.48702" lon="2.40415">
        <ele>94</ele>
        <time>2020-05-24T12:06:54Z</time>
      </trkpt>
      <trkpt lat="48.48692" lon="2.40396">
        <ele>93</ele>
        <time>2020-05-24T12:07:06Z</time>
      </trkpt>
      <trkpt lat="48.48681" lon="2.40381">
        <ele>92</ele>
        <time>2020-05-24T12:07:17Z</time>
      </trkpt>
      <trkpt lat="48.48674" lon="2.40367">
        <ele>92</ele>
        <time>2020-05-24T12:07:25Z</time>
      </trkpt>
      <trkpt lat="48.48639" lon="2.40334">
        <ele>90</ele>
        <time>2020-05-24T12:07:57Z</time>
      </trkpt>
      <trkpt lat="48.48626" lon="2.4032">
        <ele>89</ele>
        <time>2020-05-24T12:08:11Z</time>
      </trkpt>
      <trkpt lat="48.48622" lon="2.40313">
        <ele>89</ele>
        <time>2020-05-24T12:08:15Z</time>
      </trkpt>
      <trkpt lat="48.48618" lon="2.40309">
        <ele>89</ele>
        <time>2020-05-24T12:08:19Z</time>
      </trkpt>
      <trkpt lat="48.48613" lon="2.40307">
        <ele>89</ele>
        <time>2020-05-24T12:08:24Z</time>
      </trkpt>
      <trkpt lat="48.4861" lon="2.403">
        <ele>88</ele>
        <time>2020-05-24T12:08:35Z</time>
      </trkpt>
      <trkpt lat="48.48601" lon="2.40299">
        <ele>88</ele>
        <time>2020-05-24T12:09:15Z</time>
      </trkpt>
      <trkpt lat="48.48596" lon="2.40304">
        <ele>88</ele>
        <time>2020-05-24T12:09:21Z</time>
      </trkpt>
      <trkpt lat="48.48592" lon="2.40313">
        <ele>87</ele>
        <time>2020-05-24T12:09:27Z</time>
      </trkpt>
      <trkpt lat="48.48591" lon="2.40328">
        <ele>87</ele>
        <time>2020-05-24T12:09:33Z</time>
      </trkpt>
      <trkpt lat="48.4858" lon="2.40371">
        <ele>87</ele>
        <time>2020-05-24T12:09:54Z</time>
      </trkpt>
      <trkpt lat="48.48572" lon="2.40392">
        <ele>87</ele>
        <time>2020-05-24T12:10:06Z</time>
      </trkpt>
      <trkpt lat="48.48571" lon="2.404">
        <ele>87</ele>
        <time>2020-05-24T12:10:10Z</time>
      </trkpt>
      <trkpt lat="48.48554" lon="2.40459">
        <ele>88</ele>
        <time>2020-05-24T12:10:42Z</time>
      </trkpt>
      <trkpt lat="48.48547" lon="2.4048">
        <ele>88</ele>
        <time>2020-05-24T12:10:54Z</time>
      </trkpt>
      <trkpt lat="48.48544" lon="2.40485">
        <ele>88</ele>
        <time>2020-05-24T12:10:58Z</time>
      </trkpt>
      <trkpt lat="48.4853" lon="2.40542">
        <ele>90</ele>
        <time>2020-05-24T12:11:31Z</time>
      </trkpt>
      <trkpt lat="48.48524" lon="2.40555">
        <ele>90</ele>
        <time>2020-05-24T12:11:39Z</time>
      </trkpt>
      <trkpt lat="48.48519" lon="2.40577">
        <ele>90</ele>
        <time>2020-05-24T12:11:50Z</time>
      </trkpt>
      <trkpt lat="48.48514" lon="2.40606">
        <ele>91</ele>
        <time>2020-05-24T12:12:06Z</time>
      </trkpt>
      <trkpt lat="48.48507" lon="2.40627">
        <ele>92</ele>
        <time>2020-05-24T12:12:19Z</time>
      </trkpt>
      <trkpt lat="48.48505" lon="2.40642">
        <ele>93</ele>
        <time>2020-05-24T12:12:27Z</time>
      </trkpt>
      <trkpt lat="48.48503" lon="2.40677">
        <ele>95</ele>
        <time>2020-05-24T12:12:48Z</time>
      </trkpt>
      <trkpt lat="48.48502" lon="2.40686">
        <ele>95</ele>
        <time>2020-05-24T12:12:53Z</time>
      </trkpt>
      <trkpt lat="48.48502" lon="2.40693">
        <ele>95</ele>
        <time>2020-05-24T12:12:58Z</time>
      </trkpt>
      <trkpt lat="48.485" lon="2.407">
        <ele>95</ele>
        <time>2020-05-24T12:13:02Z</time>
      </trkpt>
      <trkpt lat="48.48492" lon="2.40738">
        <ele>95</ele>
        <time>2020-05-24T12:13:24Z</time>
      </trkpt>
      <trkpt lat="48.4849" lon="2.40744">
        <ele>95</ele>
        <time>2020-05-24T12:13:28Z</time>
      </trkpt>
      <trkpt lat="48.48486" lon="2.40773">
        <ele>96</ele>
        <time>2020-05-24T12:13:43Z</time>
      </trkpt>
      <trkpt lat="48.48484" lon="2.4078">
        <ele>97</ele>
        <time>2020-05-24T12:13:47Z</time>
      </trkpt>
      <trkpt lat="48.48476" lon="2.40789">
        <ele>96</ele>
        <time>2020-05-24T12:13:56Z</time>
      </trkpt>
      <trkpt lat="48.4847" lon="2.40812">
        <ele>96</ele>
        <time>2020-05-24T12:14:08Z</time>
      </trkpt>
      <trkpt lat="48.4847" lon="2.40819">
        <ele>96</ele>
        <time>2020-05-24T12:14:12Z</time>
      </trkpt>
      <trkpt lat="48.48473" lon="2.40825">
        <ele>96</ele>
        <time>2020-05-24T12:14:16Z</time>
      </trkpt>
      <trkpt lat="48.48469" lon="2.4083">
        <ele>96</ele>
        <time>2020-05-24T12:14:21Z</time>
      </trkpt>
      <trkpt lat="48.48465" lon="2.40833">
        <ele>96</ele>
        <time>2020-05-24T12:14:25Z</time>
      </trkpt>
      <trkpt lat="48.48465" lon="2.40844">
        <ele>95</ele>
        <time>2020-05-24T12:14:31Z</time>
      </trkpt>
      <trkpt lat="48.48454" lon="2.40854">
        <ele>93</ele>
        <time>2020-05-24T12:14:42Z</time>
      </trkpt>
      <trkpt lat="48.48448" lon="2.40859">
        <ele>94</ele>
        <time>2020-05-24T12:14:50Z</time>
      </trkpt>
      <trkpt lat="48.48443" lon="2.40862">
        <ele>95</ele>
        <time>2020-05-24T12:14:55Z</time>
      </trkpt>
      <trkpt lat="48.48438" lon="2.4087">
        <ele>95</ele>
        <time>2020-05-24T12:15:02Z</time>
      </trkpt>
      <trkpt lat="48.48414" lon="2.4092">
        <ele>102</ele>
        <time>2020-05-24T12:15:44Z</time>
      </trkpt>
      <trkpt lat="48.48403" lon="2.40956">
        <ele>107</ele>
        <time>2020-05-24T12:16:11Z</time>
      </trkpt>
      <trkpt lat="48.484" lon="2.4096">
        <ele>108</ele>
        <time>2020-05-24T12:16:15Z</time>
      </trkpt>
      <trkpt lat="48.48399" lon="2.40967">
        <ele>109</ele>
        <time>2020-05-24T12:16:19Z</time>
      </trkpt>
      <trkpt lat="48.48392" lon="2.40988">
        <ele>113</ele>
        <time>2020-05-24T12:16:37Z</time>
      </trkpt>
      <trkpt lat="48.48386" lon="2.41028">
        <ele>118</ele>
        <time>2020-05-24T12:17:05Z</time>
      </trkpt>
      <trkpt lat="48.48384" lon="2.41034">
        <ele>119</ele>
        <time>2020-05-24T12:17:10Z</time>
      </trkpt>
      <trkpt lat="48.48375" lon="2.41041">
        <ele>121</ele>
        <time>2020-05-24T12:17:21Z</time>
      </trkpt>
      <trkpt lat="48.48372" lon="2.41046">
        <ele>122</ele>
        <time>2020-05-24T12:17:26Z</time>
      </trkpt>
      <trkpt lat="48.48362" lon="2.41054">
        <ele>124</ele>
        <time>2020-05-24T12:17:38Z</time>
      </trkpt>
      <trkpt lat="48.48347" lon="2.41058">
        <ele>127</ele>
        <time>2020-05-24T12:17:57Z</time>
      </trkpt>
      <trkpt lat="48.48343" lon="2.41062">
        <ele>128</ele>
        <time>2020-05-24T12:18:02Z</time>
      </trkpt>
      <trkpt lat="48.48326" lon="2.41064">
        <ele>131</ele>
        <time>2020-05-24T12:18:20Z</time>
      </trkpt>
      <trkpt lat="48.48321" lon="2.41062">
        <ele>132</ele>
        <time>2020-05-24T12:18:25Z</time>
      </trkpt>
      <trkpt lat="48.48314" lon="2.41057">
        <ele>132</ele>
        <time>2020-05-24T12:18:45Z</time>
      </trkpt>
      <trkpt lat="48.4831" lon="2.41049">
        <ele>132</ele>
        <time>2020-05-24T12:18:52Z</time>
      </trkpt>
      <trkpt lat="48.48306" lon="2.41048">
        <ele>132</ele>
        <time>2020-05-24T12:19:06Z</time>
      </trkpt>
      <trkpt lat="48.48307" lon="2.4104">
        <ele>131</ele>
        <time>2020-05-24T12:20:18Z</time>
      </trkpt>
      <trkpt lat="48.48306" lon="2.41031">
        <ele>131</ele>
        <time>2020-05-24T12:20:25Z</time>
      </trkpt>
      <trkpt lat="48.48303" lon="2.41025">
        <ele>131</ele>
        <time>2020-05-24T12:20:29Z</time>
      </trkpt>
      <trkpt lat="48.48302" lon="2.41017">
        <ele>131</ele>
        <time>2020-05-24T12:20:33Z</time>
      </trkpt>
      <trkpt lat="48.48293" lon="2.40997">
        <ele>131</ele>
        <time>2020-05-24T12:20:46Z</time>
      </trkpt>
      <trkpt lat="48.48291" lon="2.4099">
        <ele>131</ele>
        <time>2020-05-24T12:20:51Z</time>
      </trkpt>
      <trkpt lat="48.48291" lon="2.40982">
        <ele>131</ele>
        <time>2020-05-24T12:20:56Z</time>
      </trkpt>
      <trkpt lat="48.48293" lon="2.40975">
        <ele>131</ele>
        <time>2020-05-24T12:21:00Z</time>
      </trkpt>
      <trkpt lat="48.48294" lon="2.40961">
        <ele>131</ele>
        <time>2020-05-24T12:21:09Z</time>
      </trkpt>
      <trkpt lat="48.48296" lon="2.40954">
        <ele>131</ele>
        <time>2020-05-24T12:21:14Z</time>
      </trkpt>
      <trkpt lat="48.48297" lon="2.40946">
        <ele>131</ele>
        <time>2020-05-24T12:21:19Z</time>
      </trkpt>
      <trkpt lat="48.48298" lon="2.40934">
        <ele>131</ele>
        <time>2020-05-24T12:21:26Z</time>
      </trkpt>
      <trkpt lat="48.48297" lon="2.40919">
        <ele>131</ele>
        <time>2020-05-24T12:21:34Z</time>
      </trkpt>
      <trkpt lat="48.48296" lon="2.40913">
        <ele>131</ele>
        <time>2020-05-24T12:21:38Z</time>
      </trkpt>
      <trkpt lat="48.48295" lon="2.40904">
        <ele>131</ele>
        <time>2020-05-24T12:21:43Z</time>
      </trkpt>
      <trkpt lat="48.483" lon="2.40844">
        <ele>130</ele>
        <time>2020-05-24T12:22:14Z</time>
      </trkpt>
      <trkpt lat="48.48302" lon="2.40811">
        <ele>130</ele>
        <time>2020-05-24T12:22:31Z</time>
      </trkpt>
      <trkpt lat="48.48301" lon="2.40804">
        <ele>130</ele>
        <time>2020-05-24T12:22:34Z</time>
      </trkpt>
      <trkpt lat="48.48302" lon="2.40797">
        <ele>130</ele>
        <time>2020-05-24T12:22:38Z</time>
      </trkpt>
      <trkpt lat="48.483" lon="2.4079">
        <ele>129</ele>
        <time>2020-05-24T12:22:43Z</time>
      </trkpt>
      <trkpt lat="48.48302" lon="2.40783">
        <ele>129</ele>
        <time>2020-05-24T12:22:47Z</time>
      </trkpt>
      <trkpt lat="48.48304" lon="2.40777">
        <ele>129</ele>
        <time>2020-05-24T12:22:50Z</time>
      </trkpt>
      <trkpt lat="48.48304" lon="2.4076">
        <ele>129</ele>
        <time>2020-05-24T12:22:57Z</time>
      </trkpt>
      <trkpt lat="48.48302" lon="2.40753">
        <ele>129</ele>
        <time>2020-05-24T12:23:01Z</time>
      </trkpt>
      <trkpt lat="48.48299" lon="2.40747">
        <ele>130</ele>
        <time>2020-05-24T12:23:05Z</time>
      </trkpt>
      <trkpt lat="48.48292" lon="2.40743">
        <ele>130</ele>
        <time>2020-05-24T12:23:11Z</time>
      </trkpt>
      <trkpt lat="48.48275" lon="2.40737">
        <ele>131</ele>
        <time>2020-05-24T12:23:23Z</time>
      </trkpt>
      <trkpt lat="48.48266" lon="2.40733">
        <ele>131</ele>
        <time>2020-05-24T12:23:31Z</time>
      </trkpt>
      <trkpt lat="48.48261" lon="2.40734">
        <ele>131</ele>
        <time>2020-05-24T12:23:34Z</time>
      </trkpt>
      <trkpt lat="48.48214" lon="2.40718">
        <ele>132</ele>
        <time>2020-05-24T12:24:11Z</time>
      </trkpt>
      <trkpt lat="48.48172" lon="2.40709">
        <ele>132</ele>
        <time>2020-05-24T12:24:44Z</time>
      </trkpt>
      <trkpt lat="48.48163" lon="2.4071">
        <ele>132</ele>
        <time>2020-05-24T12:24:53Z</time>
      </trkpt>
      <trkpt lat="48.48156" lon="2.40705">
        <ele>132</ele>
        <time>2020-05-24T12:25:00Z</time>
      </trkpt>
      <trkpt lat="48.48118" lon="2.40696">
        <ele>129</ele>
        <time>2020-05-24T12:25:26Z</time>
      </trkpt>
      <trkpt lat="48.48114" lon="2.40692">
        <ele>129</ele>
        <time>2020-05-24T12:25:29Z</time>
      </trkpt>
      <trkpt lat="48.48111" lon="2.40685">
        <ele>129</ele>
        <time>2020-05-24T12:25:34Z</time>
      </trkpt>
      <trkpt lat="48.48109" lon="2.40678">
        <ele>129</ele>
        <time>2020-05-24T12:25:39Z</time>
      </trkpt>
      <trkpt lat="48.48109" lon="2.4067">
        <ele>129</ele>
        <time>2020-05-24T12:25:43Z</time>
      </trkpt>
      <trkpt lat="48.4811" lon="2.40646">
        <ele>129</ele>
        <time>2020-05-24T12:25:57Z</time>
      </trkpt>
      <trkpt lat="48.48108" lon="2.40632">
        <ele>129</ele>
        <time>2020-05-24T12:26:06Z</time>
      </trkpt>
      <trkpt lat="48.48108" lon="2.40624">
        <ele>129</ele>
        <time>2020-05-24T12:26:10Z</time>
      </trkpt>
      <trkpt lat="48.48106" lon="2.40616">
        <ele>129</ele>
        <time>2020-05-24T12:26:15Z</time>
      </trkpt>
      <trkpt lat="48.48105" lon="2.40609">
        <ele>129</ele>
        <time>2020-05-24T12:26:19Z</time>
      </trkpt>
      <trkpt lat="48.48104" lon="2.40601">
        <ele>128</ele>
        <time>2020-05-24T12:26:24Z</time>
      </trkpt>
      <trkpt lat="48.48105" lon="2.40586">
        <ele>129</ele>
        <time>2020-05-24T12:26:32Z</time>
      </trkpt>
      <trkpt lat="48.48104" lon="2.40571">
        <ele>129</ele>
        <time>2020-05-24T12:26:40Z</time>
      </trkpt>
      <trkpt lat="48.48111" lon="2.40524">
        <ele>129</ele>
        <time>2020-05-24T12:27:08Z</time>
      </trkpt>
      <trkpt lat="48.4811" lon="2.40461">
        <ele>128</ele>
        <time>2020-05-24T12:27:40Z</time>
      </trkpt>
      <trkpt lat="48.48109" lon="2.40432">
        <ele>128</ele>
        <time>2020-05-24T12:27:55Z</time>
      </trkpt>
      <trkpt lat="48.48099" lon="2.40407">
        <ele>127</ele>
        <time>2020-05-24T12:28:09Z</time>
      </trkpt>
      <trkpt lat="48.48098" lon="2.40393">
        <ele>127</ele>
        <time>2020-05-24T12:28:16Z</time>
      </trkpt>
      <trkpt lat="48.48098" lon="2.40385">
        <ele>127</ele>
        <time>2020-05-24T12:28:20Z</time>
      </trkpt>
      <trkpt lat="48.48095" lon="2.40379">
        <ele>127</ele>
        <time>2020-05-24T12:28:23Z</time>
      </trkpt>
      <trkpt lat="48.48092" lon="2.40368">
        <ele>128</ele>
        <time>2020-05-24T12:28:30Z</time>
      </trkpt>
      <trkpt lat="48.48092" lon="2.40359">
        <ele>128</ele>
        <time>2020-05-24T12:28:35Z</time>
      </trkpt>
      <trkpt lat="48.48091" lon="2.40351">
        <ele>128</ele>
        <time>2020-05-24T12:28:39Z</time>
      </trkpt>
      <trkpt lat="48.48092" lon="2.40342">
        <ele>128</ele>
        <time>2020-05-24T12:28:44Z</time>
      </trkpt>
      <trkpt lat="48.48091" lon="2.40329">
        <ele>128</ele>
        <time>2020-05-24T12:28:52Z</time>
      </trkpt>
      <trkpt lat="48.48094" lon="2.40321">
        <ele>128</ele>
        <time>2020-05-24T12:28:56Z</time>
      </trkpt>
      <trkpt lat="48.48094" lon="2.40314">
        <ele>129</ele>
        <time>2020-05-24T12:28:59Z</time>
      </trkpt>
      <trkpt lat="48.48091" lon="2.40305">
        <ele>129</ele>
        <time>2020-05-24T12:29:05Z</time>
      </trkpt>
      <trkpt lat="48.48091" lon="2.40298">
        <ele>129</ele>
        <time>2020-05-24T12:29:09Z</time>
      </trkpt>
      <trkpt lat="48.48093" lon="2.40277">
        <ele>129</ele>
        <time>2020-05-24T12:29:21Z</time>
      </trkpt>
      <trkpt lat="48.48093" lon="2.40267">
        <ele>129</ele>
        <time>2020-05-24T12:29:26Z</time>
      </trkpt>
      <trkpt lat="48.48096" lon="2.40233">
        <ele>128</ele>
        <time>2020-05-24T12:29:43Z</time>
      </trkpt>
      <trkpt lat="48.48096" lon="2.40226">
        <ele>128</ele>
        <time>2020-05-24T12:29:47Z</time>
      </trkpt>
      <trkpt lat="48.48096" lon="2.40212">
        <ele>127</ele>
        <time>2020-05-24T12:29:55Z</time>
      </trkpt>
      <trkpt lat="48.48096" lon="2.40204">
        <ele>127</ele>
        <time>2020-05-24T12:29:59Z</time>
      </trkpt>
      <trkpt lat="48.48096" lon="2.40196">
        <ele>126</ele>
        <time>2020-05-24T12:30:03Z</time>
      </trkpt>
      <trkpt lat="48.48092" lon="2.40181">
        <ele>126</ele>
        <time>2020-05-24T12:30:11Z</time>
      </trkpt>
      <trkpt lat="48.48091" lon="2.40174">
        <ele>126</ele>
        <time>2020-05-24T12:30:15Z</time>
      </trkpt>
      <trkpt lat="48.48089" lon="2.40166">
        <ele>126</ele>
        <time>2020-05-24T12:30:19Z</time>
      </trkpt>
      <trkpt lat="48.48082" lon="2.40105">
        <ele>127</ele>
        <time>2020-05-24T12:30:50Z</time>
      </trkpt>
      <trkpt lat="48.48083" lon="2.40096">
        <ele>128</ele>
        <time>2020-05-24T12:30:55Z</time>
      </trkpt>
      <trkpt lat="48.48082" lon="2.4009">
        <ele>128</ele>
        <time>2020-05-24T12:31:00Z</time>
      </trkpt>
      <trkpt lat="48.48077" lon="2.40063">
        <ele>130</ele>
        <time>2020-05-24T12:31:17Z</time>
      </trkpt>
      <trkpt lat="48.48073" lon="2.40056">
        <ele>130</ele>
        <time>2020-05-24T12:31:21Z</time>
      </trkpt>
      <trkpt lat="48.48071" lon="2.40048">
        <ele>130</ele>
        <time>2020-05-24T12:31:25Z</time>
      </trkpt>
      <trkpt lat="48.48067" lon="2.40034">
        <ele>131</ele>
        <time>2020-05-24T12:31:32Z</time>
      </trkpt>
      <trkpt lat="48.48052" lon="2.3998">
        <ele>131</ele>
        <time>2020-05-24T12:32:03Z</time>
      </trkpt>
      <trkpt lat="48.48041" lon="2.39955">
        <ele>131</ele>
        <time>2020-05-24T12:32:18Z</time>
      </trkpt>
      <trkpt lat="48.48017" lon="2.39911">
        <ele>130</ele>
        <time>2020-05-24T12:32:46Z</time>
      </trkpt>
      <trkpt lat="48.48001" lon="2.39895">
        <ele>129</ele>
        <time>2020-05-24T12:33:00Z</time>
      </trkpt>
      <trkpt lat="48.47979" lon="2.39864">
        <ele>128</ele>
        <time>2020-05-24T12:33:24Z</time>
      </trkpt>
      <trkpt lat="48.47966" lon="2.39825">
        <ele>128</ele>
        <time>2020-05-24T12:33:46Z</time>
      </trkpt>
      <trkpt lat="48.47935" lon="2.39769">
        <ele>129</ele>
        <time>2020-05-24T12:34:22Z</time>
      </trkpt>
      <trkpt lat="48.47932" lon="2.39757">
        <ele>130</ele>
        <time>2020-05-24T12:34:29Z</time>
      </trkpt>
      <trkpt lat="48.47925" lon="2.3974">
        <ele>129</ele>
        <time>2020-05-24T12:34:48Z</time>
      </trkpt>
      <trkpt lat="48.47921" lon="2.39737">
        <ele>129</ele>
        <time>2020-05-24T12:36:05Z</time>
      </trkpt>
      <trkpt lat="48.4792" lon="2.39728">
        <ele>130</ele>
        <time>2020-05-24T12:38:27Z</time>
      </trkpt>
      <trkpt lat="48.47922" lon="2.39717">
        <ele>130</ele>
        <time>2020-05-24T12:38:31Z</time>
      </trkpt>
      <trkpt lat="48.47926" lon="2.39683">
        <ele>130</ele>
        <time>2020-05-24T12:38:53Z</time>
      </trkpt>
      <trkpt lat="48.47928" lon="2.39669">
        <ele>130</ele>
        <time>2020-05-24T12:39:01Z</time>
      </trkpt>
      <trkpt lat="48.47936" lon="2.39649">
        <ele>131</ele>
        <time>2020-05-24T12:39:13Z</time>
      </trkpt>
      <trkpt lat="48.47939" lon="2.39643">
        <ele>130</ele>
        <time>2020-05-24T12:39:18Z</time>
      </trkpt>
      <trkpt lat="48.47947" lon="2.39632">
        <ele>130</ele>
        <time>2020-05-24T12:39:26Z</time>
      </trkpt>
      <trkpt lat="48.47954" lon="2.39612">
        <ele>130</ele>
        <time>2020-05-24T12:39:38Z</time>
      </trkpt>
      <trkpt lat="48.47959" lon="2.39607">
        <ele>130</ele>
        <time>2020-05-24T12:39:42Z</time>
      </trkpt>
      <trkpt lat="48.47961" lon="2.39601">
        <ele>130</ele>
        <time>2020-05-24T12:39:46Z</time>
      </trkpt>
      <trkpt lat="48.47967" lon="2.39593">
        <ele>131</ele>
        <time>2020-05-24T12:39:51Z</time>
      </trkpt>
      <trkpt lat="48.47975" lon="2.39584">
        <ele>131</ele>
        <time>2020-05-24T12:40:00Z</time>
      </trkpt>
      <trkpt lat="48.47997" lon="2.39531">
        <ele>132</ele>
        <time>2020-05-24T12:40:32Z</time>
      </trkpt>
      <trkpt lat="48.48001" lon="2.39517">
        <ele>132</ele>
        <time>2020-05-24T12:40:41Z</time>
      </trkpt>
      <trkpt lat="48.48014" lon="2.39483">
        <ele>131</ele>
        <time>2020-05-24T12:40:59Z</time>
      </trkpt>
      <trkpt lat="48.48023" lon="2.39438">
        <ele>130</ele>
        <time>2020-05-24T12:41:22Z</time>
      </trkpt>
      <trkpt lat="48.48028" lon="2.39426">
        <ele>130</ele>
        <time>2020-05-24T12:41:30Z</time>
      </trkpt>
      <trkpt lat="48.48031" lon="2.39411">
        <ele>130</ele>
        <time>2020-05-24T12:41:38Z</time>
      </trkpt>
      <trkpt lat="48.48041" lon="2.39394">
        <ele>130</ele>
        <time>2020-05-24T12:41:49Z</time>
      </trkpt>
      <trkpt lat="48.48045" lon="2.39371">
        <ele>129</ele>
        <time>2020-05-24T12:42:02Z</time>
      </trkpt>
      <trkpt lat="48.48065" lon="2.39313">
        <ele>128</ele>
        <time>2020-05-24T12:42:39Z</time>
      </trkpt>
      <trkpt lat="48.48068" lon="2.39299">
        <ele>127</ele>
        <time>2020-05-24T12:42:45Z</time>
      </trkpt>
      <trkpt lat="48.48061" lon="2.39241">
        <ele>127</ele>
        <time>2020-05-24T12:43:16Z</time>
      </trkpt>
      <trkpt lat="48.48062" lon="2.39227">
        <ele>127</ele>
        <time>2020-05-24T12:43:25Z</time>
      </trkpt>
      <trkpt lat="48.4807" lon="2.39199">
        <ele>126</ele>
        <time>2020-05-24T12:43:40Z</time>
      </trkpt>
      <trkpt lat="48.48067" lon="2.3917">
        <ele>127</ele>
        <time>2020-05-24T12:43:55Z</time>
      </trkpt>
      <trkpt lat="48.48071" lon="2.39141">
        <ele>127</ele>
        <time>2020-05-24T12:44:11Z</time>
      </trkpt>
      <trkpt lat="48.48076" lon="2.39125">
        <ele>127</ele>
        <time>2020-05-24T12:44:22Z</time>
      </trkpt>
      <trkpt lat="48.48082" lon="2.39115">
        <ele>127</ele>
        <time>2020-05-24T12:44:31Z</time>
      </trkpt>
      <trkpt lat="48.48116" lon="2.39065">
        <ele>126</ele>
        <time>2020-05-24T12:45:08Z</time>
      </trkpt>
      <trkpt lat="48.48135" lon="2.39033">
        <ele>126</ele>
        <time>2020-05-24T12:45:29Z</time>
      </trkpt>
      <trkpt lat="48.48146" lon="2.39006">
        <ele>126</ele>
        <time>2020-05-24T12:45:46Z</time>
      </trkpt>
      <trkpt lat="48.48184" lon="2.38962">
        <ele>126</ele>
        <time>2020-05-24T12:46:23Z</time>
      </trkpt>
      <trkpt lat="48.482" lon="2.38948">
        <ele>127</ele>
        <time>2020-05-24T12:46:39Z</time>
      </trkpt>
      <trkpt lat="48.48219" lon="2.38944">
        <ele>128</ele>
        <time>2020-05-24T12:46:55Z</time>
      </trkpt>
      <trkpt lat="48.48248" lon="2.38936">
        <ele>127</ele>
        <time>2020-05-24T12:47:16Z</time>
      </trkpt>
      <trkpt lat="48.48267" lon="2.38936">
        <ele>127</ele>
        <time>2020-05-24T12:47:31Z</time>
      </trkpt>
      <trkpt lat="48.48306" lon="2.38936">
        <ele>127</ele>
        <time>2020-05-24T12:48:02Z</time>
      </trkpt>
      <trkpt lat="48.48333" lon="2.38924">
        <ele>127</ele>
        <time>2020-05-24T12:48:23Z</time>
      </trkpt>
      <trkpt lat="48.4834" lon="2.38916">
        <ele>127</ele>
        <time>2020-05-24T12:48:31Z</time>
      </trkpt>
      <trkpt lat="48.48361" lon="2.38885">
        <ele>126</ele>
        <time>2020-05-24T12:48:53Z</time>
      </trkpt>
      <trkpt lat="48.48377" lon="2.38878">
        <ele>126</ele>
        <time>2020-05-24T12:49:05Z</time>
      </trkpt>
      <trkpt lat="48.48382" lon="2.38877">
        <ele>126</ele>
        <time>2020-05-24T12:49:08Z</time>
      </trkpt>
      <trkpt lat="48.48387" lon="2.38878">
        <ele>125</ele>
        <time>2020-05-24T12:49:13Z</time>
      </trkpt>
      <trkpt lat="48.48406" lon="2.38863">
        <ele>125</ele>
        <time>2020-05-24T12:49:29Z</time>
      </trkpt>
      <trkpt lat="48.4841" lon="2.38858">
        <ele>125</ele>
        <time>2020-05-24T12:49:32Z</time>
      </trkpt>
      <trkpt lat="48.48424" lon="2.38848">
        <ele>125</ele>
        <time>2020-05-24T12:49:44Z</time>
      </trkpt>
      <trkpt lat="48.48431" lon="2.38839">
        <ele>125</ele>
        <time>2020-05-24T12:49:52Z</time>
      </trkpt>
      <trkpt lat="48.48441" lon="2.38833">
        <ele>125</ele>
        <time>2020-05-24T12:50:00Z</time>
      </trkpt>
      <trkpt lat="48.48467" lon="2.38811">
        <ele>125</ele>
        <time>2020-05-24T12:50:23Z</time>
      </trkpt>
      <trkpt lat="48.48473" lon="2.38799">
        <ele>125</ele>
        <time>2020-05-24T12:50:30Z</time>
      </trkpt>
      <trkpt lat="48.48478" lon="2.38755">
        <ele>125</ele>
        <time>2020-05-24T12:50:53Z</time>
      </trkpt>
      <trkpt lat="48.48484" lon="2.38727">
        <ele>125</ele>
        <time>2020-05-24T12:51:09Z</time>
      </trkpt>
      <trkpt lat="48.48484" lon="2.38712">
        <ele>125</ele>
        <time>2020-05-24T12:51:16Z</time>
      </trkpt>
      <trkpt lat="48.48492" lon="2.38685">
        <ele>125</ele>
        <time>2020-05-24T12:51:31Z</time>
      </trkpt>
      <trkpt lat="48.48506" lon="2.38664">
        <ele>124</ele>
        <time>2020-05-24T12:51:47Z</time>
      </trkpt>
      <trkpt lat="48.48523" lon="2.38614">
        <ele>125</ele>
        <time>2020-05-24T12:52:16Z</time>
      </trkpt>
      <trkpt lat="48.48532" lon="2.38571">
        <ele>126</ele>
        <time>2020-05-24T12:52:39Z</time>
      </trkpt>
      <trkpt lat="48.48538" lon="2.38559">
        <ele>127</ele>
        <time>2020-05-24T12:52:46Z</time>
      </trkpt>
      <trkpt lat="48.4854" lon="2.38546">
        <ele>127</ele>
        <time>2020-05-24T12:52:53Z</time>
      </trkpt>
      <trkpt lat="48.4854" lon="2.38527">
        <ele>126</ele>
        <time>2020-05-24T12:53:02Z</time>
      </trkpt>
      <trkpt lat="48.48542" lon="2.38505">
        <ele>126</ele>
        <time>2020-05-24T12:53:13Z</time>
      </trkpt>
      <trkpt lat="48.48557" lon="2.38469">
        <ele>127</ele>
        <time>2020-05-24T12:53:36Z</time>
      </trkpt>
      <trkpt lat="48.48571" lon="2.38415">
        <ele>128</ele>
        <time>2020-05-24T12:54:06Z</time>
      </trkpt>
      <trkpt lat="48.4858" lon="2.3839">
        <ele>128</ele>
        <time>2020-05-24T12:54:21Z</time>
      </trkpt>
      <trkpt lat="48.48584" lon="2.38364">
        <ele>129</ele>
        <time>2020-05-24T12:54:39Z</time>
      </trkpt>
      <trkpt lat="48.48595" lon="2.38358">
        <ele>129</ele>
        <time>2020-05-24T12:56:05Z</time>
      </trkpt>
      <trkpt lat="48.4859" lon="2.38354">
        <ele>129</ele>
        <time>2020-05-24T12:57:26Z</time>
      </trkpt>
      <trkpt lat="48.48584" lon="2.38349">
        <ele>129</ele>
        <time>2020-05-24T12:58:23Z</time>
      </trkpt>
      <trkpt lat="48.48585" lon="2.38351">
        <ele>129</ele>
        <time>2020-05-24T12:58:41Z</time>
      </trkpt>
      <trkpt lat="48.48592" lon="2.38359">
        <ele>129</ele>
        <time>2020-05-24T13:02:10Z</time>
      </trkpt>
      <trkpt lat="48.48598" lon="2.38337">
        <ele>129</ele>
        <time>2020-05-24T13:03:06Z</time>
      </trkpt>
      <trkpt lat="48.48603" lon="2.38322">
        <ele>129</ele>
        <time>2020-05-24T13:03:21Z</time>
      </trkpt>
      <trkpt lat="48.48605" lon="2.38306">
        <ele>130</ele>
        <time>2020-05-24T13:03:30Z</time>
      </trkpt>
      <trkpt lat="48.48609" lon="2.38293">
        <ele>130</ele>
        <time>2020-05-24T13:03:38Z</time>
      </trkpt>
      <trkpt lat="48.48612" lon="2.38278">
        <ele>130</ele>
        <time>2020-05-24T13:03:45Z</time>
      </trkpt>
      <trkpt lat="48.48618" lon="2.38266">
        <ele>130</ele>
        <time>2020-05-24T13:03:52Z</time>
      </trkpt>
      <trkpt lat="48.48627" lon="2.38239">
        <ele>130</ele>
        <time>2020-05-24T13:04:07Z</time>
      </trkpt>
      <trkpt lat="48.48625" lon="2.38226">
        <ele>130</ele>
        <time>2020-05-24T13:04:14Z</time>
      </trkpt>
      <trkpt lat="48.48629" lon="2.38197">
        <ele>130</ele>
        <time>2020-05-24T13:04:31Z</time>
      </trkpt>
      <trkpt lat="48.48638" lon="2.38169">
        <ele>130</ele>
        <time>2020-05-24T13:04:46Z</time>
      </trkpt>
      <trkpt lat="48.48647" lon="2.38145">
        <ele>129</ele>
        <time>2020-05-24T13:04:58Z</time>
      </trkpt>
      <trkpt lat="48.48654" lon="2.3809">
        <ele>128</ele>
        <time>2020-05-24T13:05:30Z</time>
      </trkpt>
      <trkpt lat="48.48661" lon="2.38062">
        <ele>127</ele>
        <time>2020-05-24T13:05:44Z</time>
      </trkpt>
      <trkpt lat="48.48666" lon="2.38049">
        <ele>127</ele>
        <time>2020-05-24T13:05:50Z</time>
      </trkpt>
      <trkpt lat="48.4867" lon="2.38006">
        <ele>127</ele>
        <time>2020-05-24T13:06:10Z</time>
      </trkpt>
      <trkpt lat="48.48679" lon="2.37965">
        <ele>127</ele>
        <time>2020-05-24T13:06:34Z</time>
      </trkpt>
      <trkpt lat="48.48694" lon="2.37945">
        <ele>126</ele>
        <time>2020-05-24T13:06:46Z</time>
      </trkpt>
      <trkpt lat="48.48697" lon="2.37932">
        <ele>126</ele>
        <time>2020-05-24T13:06:53Z</time>
      </trkpt>
      <trkpt lat="48.48698" lon="2.37918">
        <ele>126</ele>
        <time>2020-05-24T13:07:02Z</time>
      </trkpt>
      <trkpt lat="48.48709" lon="2.37894">
        <ele>125</ele>
        <time>2020-05-24T13:07:16Z</time>
      </trkpt>
      <trkpt lat="48.48714" lon="2.37881">
        <ele>125</ele>
        <time>2020-05-24T13:07:24Z</time>
      </trkpt>
      <trkpt lat="48.48718" lon="2.37867">
        <ele>125</ele>
        <time>2020-05-24T13:07:31Z</time>
      </trkpt>
      <trkpt lat="48.4874" lon="2.37819">
        <ele>126</ele>
        <time>2020-05-24T13:07:58Z</time>
      </trkpt>
      <trkpt lat="48.48742" lon="2.37807">
        <ele>126</ele>
        <time>2020-05-24T13:08:05Z</time>
      </trkpt>
      <trkpt lat="48.48743" lon="2.37789">
        <ele>126</ele>
        <time>2020-05-24T13:08:17Z</time>
      </trkpt>
      <trkpt lat="48.48749" lon="2.37762">
        <ele>126</ele>
        <time>2020-05-24T13:08:32Z</time>
      </trkpt>
      <trkpt lat="48.4876" lon="2.37739">
        <ele>126</ele>
        <time>2020-05-24T13:08:45Z</time>
      </trkpt>
      <trkpt lat="48.48764" lon="2.37708">
        <ele>125</ele>
        <time>2020-05-24T13:09:00Z</time>
      </trkpt>
      <trkpt lat="48.4877" lon="2.37697">
        <ele>125</ele>
        <time>2020-05-24T13:09:05Z</time>
      </trkpt>
      <trkpt lat="48.48769" lon="2.37683">
        <ele>124</ele>
        <time>2020-05-24T13:09:13Z</time>
      </trkpt>
      <trkpt lat="48.48767" lon="2.37671">
        <ele>124</ele>
        <time>2020-05-24T13:09:21Z</time>
      </trkpt>
      <trkpt lat="48.48769" lon="2.37627">
        <ele>124</ele>
        <time>2020-05-24T13:09:43Z</time>
      </trkpt>
      <trkpt lat="48.48776" lon="2.37601">
        <ele>125</ele>
        <time>2020-05-24T13:09:58Z</time>
      </trkpt>
      <trkpt lat="48.48775" lon="2.37586">
        <ele>125</ele>
        <time>2020-05-24T13:10:04Z</time>
      </trkpt>
      <trkpt lat="48.48777" lon="2.37571">
        <ele>126</ele>
        <time>2020-05-24T13:10:11Z</time>
      </trkpt>
      <trkpt lat="48.48771" lon="2.37544">
        <ele>126</ele>
        <time>2020-05-24T13:10:27Z</time>
      </trkpt>
      <trkpt lat="48.48777" lon="2.37515">
        <ele>126</ele>
        <time>2020-05-24T13:10:41Z</time>
      </trkpt>
      <trkpt lat="48.48774" lon="2.37502">
        <ele>126</ele>
        <time>2020-05-24T13:10:46Z</time>
      </trkpt>
      <trkpt lat="48.48775" lon="2.37489">
        <ele>126</ele>
        <time>2020-05-24T13:10:52Z</time>
      </trkpt>
      <trkpt lat="48.48775" lon="2.37461">
        <ele>126</ele>
        <time>2020-05-24T13:11:07Z</time>
      </trkpt>
      <trkpt lat="48.4878" lon="2.37449">
        <ele>126</ele>
        <time>2020-05-24T13:11:13Z</time>
      </trkpt>
      <trkpt lat="48.48769" lon="2.3739">
        <ele>125</ele>
        <time>2020-05-24T13:11:42Z</time>
      </trkpt>
      <trkpt lat="48.48769" lon="2.37363">
        <ele>124</ele>
        <time>2020-05-24T13:11:57Z</time>
      </trkpt>
      <trkpt lat="48.48767" lon="2.37342">
        <ele>124</ele>
        <time>2020-05-24T13:12:12Z</time>
      </trkpt>
      <trkpt lat="48.48762" lon="2.3733">
        <ele>124</ele>
        <time>2020-05-24T13:12:18Z</time>
      </trkpt>
      <trkpt lat="48.48759" lon="2.37316">
        <ele>123</ele>
        <time>2020-05-24T13:12:27Z</time>
      </trkpt>
      <trkpt lat="48.48764" lon="2.37301">
        <ele>122</ele>
        <time>2020-05-24T13:12:33Z</time>
      </trkpt>
      <trkpt lat="48.48763" lon="2.37288">
        <ele>122</ele>
        <time>2020-05-24T13:12:40Z</time>
      </trkpt>
      <trkpt lat="48.48758" lon="2.37276">
        <ele>121</ele>
        <time>2020-05-24T13:12:46Z</time>
      </trkpt>
      <trkpt lat="48.48755" lon="2.37245">
        <ele>122</ele>
        <time>2020-05-24T13:13:05Z</time>
      </trkpt>
      <trkpt lat="48.48754" lon="2.37231">
        <ele>122</ele>
        <time>2020-05-24T13:13:13Z</time>
      </trkpt>
      <trkpt lat="48.48749" lon="2.37217">
        <ele>121</ele>
        <time>2020-05-24T13:13:40Z</time>
      </trkpt>
      <trkpt lat="48.48735" lon="2.3722">
        <ele>123</ele>
        <time>2020-05-24T13:14:20Z</time>
      </trkpt>
      <trkpt lat="48.48715" lon="2.37217">
        <ele>124</ele>
        <time>2020-05-24T13:14:35Z</time>
      </trkpt>
      <trkpt lat="48.48707" lon="2.37219">
        <ele>124</ele>
        <time>2020-05-24T13:14:42Z</time>
      </trkpt>
      <trkpt lat="48.48697" lon="2.37217">
        <ele>125</ele>
        <time>2020-05-24T13:14:51Z</time>
      </trkpt>
      <trkpt lat="48.48688" lon="2.37215">
        <ele>126</ele>
        <time>2020-05-24T13:14:59Z</time>
      </trkpt>
      <trkpt lat="48.48679" lon="2.37207">
        <ele>126</ele>
        <time>2020-05-24T13:15:06Z</time>
      </trkpt>
      <trkpt lat="48.48653" lon="2.37196">
        <ele>126</ele>
        <time>2020-05-24T13:15:26Z</time>
      </trkpt>
      <trkpt lat="48.48645" lon="2.37188">
        <ele>126</ele>
        <time>2020-05-24T13:15:33Z</time>
      </trkpt>
      <trkpt lat="48.48639" lon="2.37172">
        <ele>127</ele>
        <time>2020-05-24T13:15:47Z</time>
      </trkpt>
      <trkpt lat="48.4864" lon="2.37157">
        <ele>127</ele>
        <time>2020-05-24T13:15:55Z</time>
      </trkpt>
      <trkpt lat="48.48643" lon="2.37143">
        <ele>126</ele>
        <time>2020-05-24T13:16:03Z</time>
      </trkpt>
      <trkpt lat="48.48642" lon="2.37135">
        <ele>126</ele>
        <time>2020-05-24T13:16:06Z</time>
      </trkpt>
      <trkpt lat="48.48647" lon="2.37087">
        <ele>125</ele>
        <time>2020-05-24T13:16:28Z</time>
      </trkpt>
      <trkpt lat="48.48648" lon="2.37079">
        <ele>125</ele>
        <time>2020-05-24T13:16:32Z</time>
      </trkpt>
      <trkpt lat="48.48656" lon="2.37017">
        <ele>125</ele>
        <time>2020-05-24T13:17:04Z</time>
      </trkpt>
      <trkpt lat="48.4866" lon="2.36971">
        <ele>126</ele>
        <time>2020-05-24T13:17:28Z</time>
      </trkpt>
      <trkpt lat="48.48666" lon="2.36942">
        <ele>125</ele>
        <time>2020-05-24T13:17:44Z</time>
      </trkpt>
      <trkpt lat="48.48667" lon="2.36927">
        <ele>125</ele>
        <time>2020-05-24T13:17:52Z</time>
      </trkpt>
      <trkpt lat="48.4867" lon="2.36921">
        <ele>126</ele>
        <time>2020-05-24T13:17:55Z</time>
      </trkpt>
      <trkpt lat="48.48675" lon="2.36899">
        <ele>126</ele>
        <time>2020-05-24T13:18:07Z</time>
      </trkpt>
      <trkpt lat="48.48676" lon="2.36892">
        <ele>126</ele>
        <time>2020-05-24T13:18:11Z</time>
      </trkpt>
      <trkpt lat="48.48683" lon="2.36877">
        <ele>126</ele>
        <time>2020-05-24T13:18:19Z</time>
      </trkpt>
      <trkpt lat="48.48685" lon="2.36871">
        <ele>126</ele>
        <time>2020-05-24T13:18:22Z</time>
      </trkpt>
      <trkpt lat="48.48686" lon="2.36864">
        <ele>126</ele>
        <time>2020-05-24T13:18:25Z</time>
      </trkpt>
      <trkpt lat="48.48687" lon="2.36847">
        <ele>126</ele>
        <time>2020-05-24T13:18:33Z</time>
      </trkpt>
      <trkpt lat="48.48687" lon="2.3684">
        <ele>127</ele>
        <time>2020-05-24T13:18:37Z</time>
      </trkpt>
      <trkpt lat="48.48688" lon="2.36833">
        <ele>126</ele>
        <time>2020-05-24T13:18:41Z</time>
      </trkpt>
      <trkpt lat="48.48691" lon="2.36817">
        <ele>126</ele>
        <time>2020-05-24T13:18:49Z</time>
      </trkpt>
      <trkpt lat="48.48692" lon="2.3681">
        <ele>127</ele>
        <time>2020-05-24T13:18:53Z</time>
      </trkpt>
      <trkpt lat="48.48696" lon="2.36794">
        <ele>127</ele>
        <time>2020-05-24T13:19:01Z</time>
      </trkpt>
      <trkpt lat="48.48697" lon="2.36787">
        <ele>127</ele>
        <time>2020-05-24T13:19:05Z</time>
      </trkpt>
      <trkpt lat="48.48697" lon="2.36764">
        <ele>128</ele>
        <time>2020-05-24T13:19:17Z</time>
      </trkpt>
      <trkpt lat="48.48698" lon="2.36748">
        <ele>128</ele>
        <time>2020-05-24T13:19:25Z</time>
      </trkpt>
      <trkpt lat="48.48708" lon="2.36703">
        <ele>128</ele>
        <time>2020-05-24T13:19:48Z</time>
      </trkpt>
      <trkpt lat="48.48708" lon="2.36673">
        <ele>128</ele>
        <time>2020-05-24T13:20:04Z</time>
      </trkpt>
      <trkpt lat="48.48704" lon="2.36658">
        <ele>128</ele>
        <time>2020-05-24T13:20:12Z</time>
      </trkpt>
      <trkpt lat="48.48704" lon="2.3665">
        <ele>128</ele>
        <time>2020-05-24T13:20:16Z</time>
      </trkpt>
      <trkpt lat="48.48703" lon="2.36635">
        <ele>128</ele>
        <time>2020-05-24T13:20:24Z</time>
      </trkpt>
      <trkpt lat="48.48703" lon="2.36627">
        <ele>128</ele>
        <time>2020-05-24T13:20:28Z</time>
      </trkpt>
      <trkpt lat="48.48699" lon="2.36605">
        <ele>128</ele>
        <time>2020-05-24T13:20:38Z</time>
      </trkpt>
      <trkpt lat="48.48698" lon="2.36598">
        <ele>128</ele>
        <time>2020-05-24T13:20:42Z</time>
      </trkpt>
      <trkpt lat="48.48695" lon="2.36583">
        <ele>127</ele>
        <time>2020-05-24T13:20:50Z</time>
      </trkpt>
      <trkpt lat="48.48697" lon="2.36559">
        <ele>128</ele>
        <time>2020-05-24T13:21:03Z</time>
      </trkpt>
      <trkpt lat="48.48699" lon="2.36551">
        <ele>128</ele>
        <time>2020-05-24T13:21:07Z</time>
      </trkpt>
      <trkpt lat="48.48702" lon="2.36546">
        <ele>128</ele>
        <time>2020-05-24T13:21:10Z</time>
      </trkpt>
      <trkpt lat="48.48712" lon="2.36497">
        <ele>129</ele>
        <time>2020-05-24T13:21:34Z</time>
      </trkpt>
      <trkpt lat="48.48719" lon="2.36476">
        <ele>130</ele>
        <time>2020-05-24T13:21:47Z</time>
      </trkpt>
      <trkpt lat="48.48723" lon="2.36461">
        <ele>130</ele>
        <time>2020-05-24T13:21:55Z</time>
      </trkpt>
      <trkpt lat="48.48752" lon="2.3641">
        <ele>131</ele>
        <time>2020-05-24T13:22:28Z</time>
      </trkpt>
      <trkpt lat="48.4876" lon="2.36382">
        <ele>130</ele>
        <time>2020-05-24T13:22:43Z</time>
      </trkpt>
      <trkpt lat="48.48763" lon="2.36375">
        <ele>130</ele>
        <time>2020-05-24T13:22:47Z</time>
      </trkpt>
      <trkpt lat="48.48764" lon="2.36366">
        <ele>131</ele>
        <time>2020-05-24T13:22:52Z</time>
      </trkpt>
      <trkpt lat="48.48774" lon="2.36341">
        <ele>131</ele>
        <time>2020-05-24T13:23:09Z</time>
      </trkpt>
      <trkpt lat="48.48789" lon="2.36318">
        <ele>131</ele>
        <time>2020-05-24T13:23:25Z</time>
      </trkpt>
      <trkpt lat="48.48825" lon="2.36284">
        <ele>130</ele>
        <time>2020-05-24T13:23:57Z</time>
      </trkpt>
      <trkpt lat="48.48836" lon="2.36264">
        <ele>130</ele>
        <time>2020-05-24T13:24:09Z</time>
      </trkpt>
      <trkpt lat="48.48841" lon="2.36252">
        <ele>129</ele>
        <time>2020-05-24T13:24:17Z</time>
      </trkpt>
      <trkpt lat="48.48845" lon="2.36247">
        <ele>129</ele>
        <time>2020-05-24T13:24:22Z</time>
      </trkpt>
      <trkpt lat="48.48849" lon="2.36245">
        <ele>130</ele>
        <time>2020-05-24T13:24:48Z</time>
      </trkpt>
      <trkpt lat="48.4886" lon="2.36242">
        <ele>128</ele>
        <time>2020-05-24T13:24:55Z</time>
      </trkpt>
      <trkpt lat="48.48864" lon="2.36239">
        <ele>128</ele>
        <time>2020-05-24T13:24:58Z</time>
      </trkpt>
      <trkpt lat="48.48869" lon="2.36241">
        <ele>127</ele>
        <time>2020-05-24T13:25:02Z</time>
      </trkpt>
      <trkpt lat="48.48871" lon="2.36233">
        <ele>126</ele>
        <time>2020-05-24T13:25:10Z</time>
      </trkpt>
      <trkpt lat="48.48887" lon="2.36231">
        <ele>124</ele>
        <time>2020-05-24T13:25:21Z</time>
      </trkpt>
      <trkpt lat="48.48891" lon="2.36226">
        <ele>123</ele>
        <time>2020-05-24T13:25:25Z</time>
      </trkpt>
      <trkpt lat="48.4889" lon="2.36218">
        <ele>122</ele>
        <time>2020-05-24T13:25:28Z</time>
      </trkpt>
      <trkpt lat="48.4889" lon="2.3621">
        <ele>122</ele>
        <time>2020-05-24T13:25:32Z</time>
      </trkpt>
      <trkpt lat="48.48882" lon="2.36205">
        <ele>122</ele>
        <time>2020-05-24T13:25:37Z</time>
      </trkpt>
      <trkpt lat="48.48879" lon="2.36199">
        <ele>121</ele>
        <time>2020-05-24T13:25:40Z</time>
      </trkpt>
      <trkpt lat="48.48878" lon="2.36193">
        <ele>121</ele>
        <time>2020-05-24T13:25:43Z</time>
      </trkpt>
      <trkpt lat="48.48875" lon="2.36187">
        <ele>120</ele>
        <time>2020-05-24T13:25:46Z</time>
      </trkpt>
      <trkpt lat="48.48871" lon="2.36173">
        <ele>123</ele>
        <time>2020-05-24T13:26:00Z</time>
      </trkpt>
      <trkpt lat="48.48873" lon="2.36158">
        <ele>126</ele>
        <time>2020-05-24T13:26:11Z</time>
      </trkpt>
      <trkpt lat="48.48878" lon="2.36146">
        <ele>125</ele>
        <time>2020-05-24T13:26:21Z</time>
      </trkpt>
      <trkpt lat="48.48876" lon="2.36133">
        <ele>124</ele>
        <time>2020-05-24T13:26:29Z</time>
      </trkpt>
      <trkpt lat="48.4888" lon="2.36118">
        <ele>124</ele>
        <time>2020-05-24T13:26:38Z</time>
      </trkpt>
      <trkpt lat="48.4888" lon="2.3609">
        <ele>125</ele>
        <time>2020-05-24T13:26:58Z</time>
      </trkpt>
      <trkpt lat="48.48878" lon="2.36081">
        <ele>125</ele>
        <time>2020-05-24T13:27:02Z</time>
      </trkpt>
      <trkpt lat="48.48874" lon="2.36076">
        <ele>125</ele>
        <time>2020-05-24T13:27:05Z</time>
      </trkpt>
      <trkpt lat="48.4887" lon="2.36071">
        <ele>125</ele>
        <time>2020-05-24T13:27:10Z</time>
      </trkpt>
      <trkpt lat="48.48864" lon="2.36051">
        <ele>123</ele>
        <time>2020-05-24T13:27:22Z</time>
      </trkpt>
      <trkpt lat="48.48854" lon="2.36046">
        <ele>123</ele>
        <time>2020-05-24T13:27:31Z</time>
      </trkpt>
      <trkpt lat="48.48853" lon="2.36039">
        <ele>122</ele>
        <time>2020-05-24T13:27:36Z</time>
      </trkpt>
      <trkpt lat="48.48855" lon="2.36031">
        <ele>121</ele>
        <time>2020-05-24T13:27:41Z</time>
      </trkpt>
      <trkpt lat="48.48853" lon="2.36025">
        <ele>120</ele>
        <time>2020-05-24T13:27:44Z</time>
      </trkpt>
      <trkpt lat="48.48851" lon="2.36019">
        <ele>120</ele>
        <time>2020-05-24T13:27:49Z</time>
      </trkpt>
      <trkpt lat="48.48849" lon="2.36003">
        <ele>123</ele>
        <time>2020-05-24T13:28:00Z</time>
      </trkpt>
      <trkpt lat="48.48843" lon="2.35991">
        <ele>122</ele>
        <time>2020-05-24T13:28:10Z</time>
      </trkpt>
      <trkpt lat="48.48835" lon="2.35976">
        <ele>123</ele>
        <time>2020-05-24T13:28:23Z</time>
      </trkpt>
      <trkpt lat="48.48833" lon="2.35963">
        <ele>124</ele>
        <time>2020-05-24T13:28:29Z</time>
      </trkpt>
      <trkpt lat="48.48827" lon="2.35951">
        <ele>123</ele>
        <time>2020-05-24T13:28:38Z</time>
      </trkpt>
      <trkpt lat="48.48807" lon="2.35921">
        <ele>124</ele>
        <time>2020-05-24T13:28:58Z</time>
      </trkpt>
      <trkpt lat="48.48803" lon="2.35909">
        <ele>123</ele>
        <time>2020-05-24T13:29:08Z</time>
      </trkpt>
      <trkpt lat="48.48796" lon="2.35899">
        <ele>124</ele>
        <time>2020-05-24T13:29:16Z</time>
      </trkpt>
      <trkpt lat="48.4879" lon="2.3589">
        <ele>125</ele>
        <time>2020-05-24T13:29:22Z</time>
      </trkpt>
      <trkpt lat="48.48785" lon="2.35877">
        <ele>125</ele>
        <time>2020-05-24T13:29:30Z</time>
      </trkpt>
      <trkpt lat="48.48753" lon="2.35841">
        <ele>125</ele>
        <time>2020-05-24T13:30:03Z</time>
      </trkpt>
      <trkpt lat="48.4875" lon="2.35836">
        <ele>125</ele>
        <time>2020-05-24T13:30:07Z</time>
      </trkpt>
      <trkpt lat="48.48738" lon="2.35823">
        <ele>124</ele>
        <time>2020-05-24T13:30:18Z</time>
      </trkpt>
      <trkpt lat="48.48724" lon="2.35816">
        <ele>124</ele>
        <time>2020-05-24T13:30:29Z</time>
      </trkpt>
      <trkpt lat="48.48719" lon="2.35821">
        <ele>124</ele>
        <time>2020-05-24T13:30:34Z</time>
      </trkpt>
      <trkpt lat="48.48715" lon="2.35824">
        <ele>125</ele>
        <time>2020-05-24T13:30:39Z</time>
      </trkpt>
      <trkpt lat="48.48709" lon="2.35818">
        <ele>126</ele>
        <time>2020-05-24T13:30:46Z</time>
      </trkpt>
      <trkpt lat="48.48704" lon="2.35819">
        <ele>126</ele>
        <time>2020-05-24T13:30:51Z</time>
      </trkpt>
      <trkpt lat="48.487" lon="2.35825">
        <ele>127</ele>
        <time>2020-05-24T13:30:59Z</time>
      </trkpt>
      <trkpt lat="48.48697" lon="2.3583">
        <ele>127</ele>
        <time>2020-05-24T13:31:03Z</time>
      </trkpt>
      <trkpt lat="48.48692" lon="2.35835">
        <ele>127</ele>
        <time>2020-05-24T13:31:07Z</time>
      </trkpt>
      <trkpt lat="48.48687" lon="2.35836">
        <ele>127</ele>
        <time>2020-05-24T13:31:11Z</time>
      </trkpt>
      <trkpt lat="48.48682" lon="2.35839">
        <ele>127</ele>
        <time>2020-05-24T13:31:14Z</time>
      </trkpt>
      <trkpt lat="48.48678" lon="2.35838">
        <ele>128</ele>
        <time>2020-05-24T13:31:19Z</time>
      </trkpt>
      <trkpt lat="48.48673" lon="2.35836">
        <ele>128</ele>
        <time>2020-05-24T13:31:23Z</time>
      </trkpt>
      <trkpt lat="48.48668" lon="2.35838">
        <ele>127</ele>
        <time>2020-05-24T13:31:28Z</time>
      </trkpt>
      <trkpt lat="48.48664" lon="2.35837">
        <ele>127</ele>
        <time>2020-05-24T13:31:48Z</time>
      </trkpt>
      <trkpt lat="48.48652" lon="2.35821">
        <ele>122</ele>
        <time>2020-05-24T13:32:17Z</time>
      </trkpt>
      <trkpt lat="48.48643" lon="2.35809">
        <ele>122</ele>
        <time>2020-05-24T13:32:23Z</time>
      </trkpt>
      <trkpt lat="48.48638" lon="2.35807">
        <ele>122</ele>
        <time>2020-05-24T13:32:28Z</time>
      </trkpt>
      <trkpt lat="48.48633" lon="2.35806">
        <ele>122</ele>
        <time>2020-05-24T13:32:31Z</time>
      </trkpt>
      <trkpt lat="48.48628" lon="2.35807">
        <ele>123</ele>
        <time>2020-05-24T13:32:34Z</time>
      </trkpt>
      <trkpt lat="48.48624" lon="2.3581">
        <ele>123</ele>
        <time>2020-05-24T13:32:37Z</time>
      </trkpt>
      <trkpt lat="48.48617" lon="2.35809">
        <ele>124</ele>
        <time>2020-05-24T13:32:43Z</time>
      </trkpt>
      <trkpt lat="48.48608" lon="2.35805">
        <ele>125</ele>
        <time>2020-05-24T13:32:49Z</time>
      </trkpt>
      <trkpt lat="48.48604" lon="2.35797">
        <ele>126</ele>
        <time>2020-05-24T13:32:56Z</time>
      </trkpt>
      <trkpt lat="48.48604" lon="2.3579">
        <ele>126</ele>
        <time>2020-05-24T13:33:00Z</time>
      </trkpt>
      <trkpt lat="48.486" lon="2.35781">
        <ele>126</ele>
        <time>2020-05-24T13:33:07Z</time>
      </trkpt>
      <trkpt lat="48.48595" lon="2.3578">
        <ele>126</ele>
        <time>2020-05-24T13:33:11Z</time>
      </trkpt>
      <trkpt lat="48.4859" lon="2.35772">
        <ele>126</ele>
        <time>2020-05-24T13:33:19Z</time>
      </trkpt>
      <trkpt lat="48.4859" lon="2.35765">
        <ele>127</ele>
        <time>2020-05-24T13:33:24Z</time>
      </trkpt>
      <trkpt lat="48.48586" lon="2.35752">
        <ele>127</ele>
        <time>2020-05-24T13:33:34Z</time>
      </trkpt>
      <trkpt lat="48.48581" lon="2.35739">
        <ele>127</ele>
        <time>2020-05-24T13:33:42Z</time>
      </trkpt>
      <trkpt lat="48.48577" lon="2.35734">
        <ele>126</ele>
        <time>2020-05-24T13:33:46Z</time>
      </trkpt>
      <trkpt lat="48.48573" lon="2.35727">
        <ele>127</ele>
        <time>2020-05-24T13:33:50Z</time>
      </trkpt>
      <trkpt lat="48.48569" lon="2.35718">
        <ele>126</ele>
        <time>2020-05-24T13:33:57Z</time>
      </trkpt>
      <trkpt lat="48.48566" lon="2.35705">
        <ele>126</ele>
        <time>2020-05-24T13:34:33Z</time>
      </trkpt>
      <trkpt lat="48.48566" lon="2.35693">
        <ele>126</ele>
        <time>2020-05-24T13:34:50Z</time>
      </trkpt>
      <trkpt lat="48.48556" lon="2.35683">
        <ele>124</ele>
        <time>2020-05-24T13:35:04Z</time>
      </trkpt>
      <trkpt lat="48.48549" lon="2.35687">
        <ele>124</ele>
        <time>2020-05-24T13:35:11Z</time>
      </trkpt>
      <trkpt lat="48.48549" lon="2.35678">
        <ele>123</ele>
        <time>2020-05-24T13:35:19Z</time>
      </trkpt>
      <trkpt lat="48.48547" lon="2.35665">
        <ele>122</ele>
        <time>2020-05-24T13:35:29Z</time>
      </trkpt>
      <trkpt lat="48.4854" lon="2.35655">
        <ele>121</ele>
        <time>2020-05-24T13:35:37Z</time>
      </trkpt>
      <trkpt lat="48.48531" lon="2.3565">
        <ele>124</ele>
        <time>2020-05-24T13:35:48Z</time>
      </trkpt>
      <trkpt lat="48.48527" lon="2.35649">
        <ele>124</ele>
        <time>2020-05-24T13:35:53Z</time>
      </trkpt>
      <trkpt lat="48.48522" lon="2.35647">
        <ele>124</ele>
        <time>2020-05-24T13:35:56Z</time>
      </trkpt>
      <trkpt lat="48.48512" lon="2.35648">
        <ele>124</ele>
        <time>2020-05-24T13:36:05Z</time>
      </trkpt>
      <trkpt lat="48.48507" lon="2.35648">
        <ele>125</ele>
        <time>2020-05-24T13:36:09Z</time>
      </trkpt>
      <trkpt lat="48.48501" lon="2.35646">
        <ele>127</ele>
        <time>2020-05-24T13:36:23Z</time>
      </trkpt>
      <trkpt lat="48.48496" lon="2.35646">
        <ele>128</ele>
        <time>2020-05-24T13:36:27Z</time>
      </trkpt>
      <trkpt lat="48.4849" lon="2.35648">
        <ele>130</ele>
        <time>2020-05-24T13:36:35Z</time>
      </trkpt>
      <trkpt lat="48.48485" lon="2.35648">
        <ele>130</ele>
        <time>2020-05-24T13:36:41Z</time>
      </trkpt>
      <trkpt lat="48.48479" lon="2.35645">
        <ele>130</ele>
        <time>2020-05-24T13:36:48Z</time>
      </trkpt>
      <trkpt lat="48.48473" lon="2.35646">
        <ele>130</ele>
        <time>2020-05-24T13:36:52Z</time>
      </trkpt>
      <trkpt lat="48.48463" lon="2.35644">
        <ele>130</ele>
        <time>2020-05-24T13:37:00Z</time>
      </trkpt>
      <trkpt lat="48.48454" lon="2.3564">
        <ele>129</ele>
        <time>2020-05-24T13:37:07Z</time>
      </trkpt>
      <trkpt lat="48.4844" lon="2.35606">
        <ele>123</ele>
        <time>2020-05-24T13:37:37Z</time>
      </trkpt>
      <trkpt lat="48.48444" lon="2.356">
        <ele>123</ele>
        <time>2020-05-24T13:37:42Z</time>
      </trkpt>
      <trkpt lat="48.48445" lon="2.3559">
        <ele>121</ele>
        <time>2020-05-24T13:37:49Z</time>
      </trkpt>
      <trkpt lat="48.4844" lon="2.35576">
        <ele>119</ele>
        <time>2020-05-24T13:37:57Z</time>
      </trkpt>
      <trkpt lat="48.48437" lon="2.35571">
        <ele>118</ele>
        <time>2020-05-24T13:38:01Z</time>
      </trkpt>
      <trkpt lat="48.48433" lon="2.35561">
        <ele>116</ele>
        <time>2020-05-24T13:38:10Z</time>
      </trkpt>
      <trkpt lat="48.48436" lon="2.35545">
        <ele>114</ele>
        <time>2020-05-24T13:38:18Z</time>
      </trkpt>
      <trkpt lat="48.48433" lon="2.35537">
        <ele>113</ele>
        <time>2020-05-24T13:38:23Z</time>
      </trkpt>
      <trkpt lat="48.48431" lon="2.3553">
        <ele>111</ele>
        <time>2020-05-24T13:38:27Z</time>
      </trkpt>
      <trkpt lat="48.48427" lon="2.35495">
        <ele>106</ele>
        <time>2020-05-24T13:38:48Z</time>
      </trkpt>
      <trkpt lat="48.48428" lon="2.35485">
        <ele>104</ele>
        <time>2020-05-24T13:38:55Z</time>
      </trkpt>
      <trkpt lat="48.48424" lon="2.35448">
        <ele>99</ele>
        <time>2020-05-24T13:39:15Z</time>
      </trkpt>
      <trkpt lat="48.48418" lon="2.35436">
        <ele>98</ele>
        <time>2020-05-24T13:39:21Z</time>
      </trkpt>
      <trkpt lat="48.4841" lon="2.35417">
        <ele>97</ele>
        <time>2020-05-24T13:39:29Z</time>
      </trkpt>
      <trkpt lat="48.48413" lon="2.35395">
        <ele>95</ele>
        <time>2020-05-24T13:39:43Z</time>
      </trkpt>
      <trkpt lat="48.4841" lon="2.35385">
        <ele>93</ele>
        <time>2020-05-24T13:39:50Z</time>
      </trkpt>
      <trkpt lat="48.48406" lon="2.3538">
        <ele>93</ele>
        <time>2020-05-24T13:39:53Z</time>
      </trkpt>
      <trkpt lat="48.48405" lon="2.35372">
        <ele>92</ele>
        <time>2020-05-24T13:39:57Z</time>
      </trkpt>
      <trkpt lat="48.484" lon="2.35367">
        <ele>90</ele>
        <time>2020-05-24T13:40:01Z</time>
      </trkpt>
      <trkpt lat="48.48399" lon="2.35353">
        <ele>87</ele>
        <time>2020-05-24T13:40:13Z</time>
      </trkpt>
      <trkpt lat="48.48403" lon="2.35339">
        <ele>85</ele>
        <time>2020-05-24T13:40:20Z</time>
      </trkpt>
      <trkpt lat="48.48403" lon="2.35331">
        <ele>84</ele>
        <time>2020-05-24T13:40:25Z</time>
      </trkpt>
      <trkpt lat="48.48404" lon="2.35323">
        <ele>83</ele>
        <time>2020-05-24T13:40:29Z</time>
      </trkpt>
      <trkpt lat="48.48403" lon="2.35316">
        <ele>82</ele>
        <time>2020-05-24T13:40:34Z</time>
      </trkpt>
      <trkpt lat="48.48402" lon="2.35301">
        <ele>81</ele>
        <time>2020-05-24T13:40:42Z</time>
      </trkpt>
      <trkpt lat="48.48399" lon="2.35294">
        <ele>80</ele>
        <time>2020-05-24T13:40:46Z</time>
      </trkpt>
      <trkpt lat="48.48401" lon="2.35278">
        <ele>78</ele>
        <time>2020-05-24T13:40:58Z</time>
      </trkpt>
      <trkpt lat="48.48408" lon="2.35283">
        <ele>78</ele>
        <time>2020-05-24T13:41:22Z</time>
      </trkpt>
      <trkpt lat="48.48418" lon="2.35287">
        <ele>76</ele>
        <time>2020-05-24T13:41:29Z</time>
      </trkpt>
      <trkpt lat="48.48426" lon="2.35291">
        <ele>75</ele>
        <time>2020-05-24T13:41:35Z</time>
      </trkpt>
      <trkpt lat="48.48431" lon="2.35291">
        <ele>75</ele>
        <time>2020-05-24T13:41:39Z</time>
      </trkpt>
      <trkpt lat="48.48477" lon="2.3532">
        <ele>73</ele>
        <time>2020-05-24T13:42:15Z</time>
      </trkpt>
      <trkpt lat="48.48482" lon="2.35323">
        <ele>73</ele>
        <time>2020-05-24T13:42:19Z</time>
      </trkpt>
      <trkpt lat="48.48487" lon="2.35323">
        <ele>73</ele>
        <time>2020-05-24T13:42:24Z</time>
      </trkpt>
      <trkpt lat="48.48491" lon="2.35327">
        <ele>73</ele>
        <time>2020-05-24T13:42:29Z</time>
      </trkpt>
      <trkpt lat="48.48496" lon="2.35329">
        <ele>73</ele>
        <time>2020-05-24T13:42:33Z</time>
      </trkpt>
      <trkpt lat="48.48512" lon="2.35346">
        <ele>72</ele>
        <time>2020-05-24T13:42:46Z</time>
      </trkpt>
      <trkpt lat="48.48528" lon="2.35348">
        <ele>72</ele>
        <time>2020-05-24T13:42:58Z</time>
      </trkpt>
      <trkpt lat="48.48534" lon="2.35356">
        <ele>72</ele>
        <time>2020-05-24T13:43:04Z</time>
      </trkpt>
      <trkpt lat="48.48564" lon="2.35372">
        <ele>71</ele>
        <time>2020-05-24T13:43:25Z</time>
      </trkpt>
      <trkpt lat="48.48568" lon="2.3537">
        <ele>71</ele>
        <time>2020-05-24T13:43:55Z</time>
      </trkpt>
      <trkpt lat="48.48574" lon="2.35374">
        <ele>71</ele>
        <time>2020-05-24T13:43:59Z</time>
      </trkpt>
      <trkpt lat="48.48587" lon="2.35384">
        <ele>70</ele>
        <time>2020-05-24T13:44:10Z</time>
      </trkpt>
      <trkpt lat="48.48605" lon="2.35423">
        <ele>70</ele>
        <time>2020-05-24T13:44:33Z</time>
      </trkpt>
      <trkpt lat="48.4861" lon="2.35427">
        <ele>70</ele>
        <time>2020-05-24T13:44:37Z</time>
      </trkpt>
      <trkpt lat="48.48616" lon="2.35426">
        <ele>70</ele>
        <time>2020-05-24T13:44:41Z</time>
      </trkpt>
      <trkpt lat="48.4862" lon="2.35423">
        <ele>69</ele>
        <time>2020-05-24T13:44:45Z</time>
      </trkpt>
      <trkpt lat="48.4863" lon="2.35407">
        <ele>67</ele>
        <time>2020-05-24T13:44:54Z</time>
      </trkpt>
      <trkpt lat="48.48633" lon="2.354">
        <ele>67</ele>
        <time>2020-05-24T13:44:58Z</time>
      </trkpt>
      <trkpt lat="48.48635" lon="2.35393">
        <ele>66</ele>
        <time>2020-05-24T13:45:01Z</time>
      </trkpt>
      <trkpt lat="48.48638" lon="2.35388">
        <ele>65</ele>
        <time>2020-05-24T13:45:04Z</time>
      </trkpt>
      <trkpt lat="48.48644" lon="2.35391">
        <ele>64</ele>
        <time>2020-05-24T13:45:12Z</time>
      </trkpt>
      <trkpt lat="48.48653" lon="2.35397">
        <ele>65</ele>
        <time>2020-05-24T13:45:19Z</time>
      </trkpt>
      <trkpt lat="48.48674" lon="2.35404">
        <ele>65</ele>
        <time>2020-05-24T13:45:38Z</time>
      </trkpt>
      <trkpt lat="48.4868" lon="2.35404">
        <ele>65</ele>
        <time>2020-05-24T13:45:42Z</time>
      </trkpt>
      <trkpt lat="48.48684" lon="2.35408">
        <ele>64</ele>
        <time>2020-05-24T13:45:45Z</time>
      </trkpt>
      <trkpt lat="48.48695" lon="2.35377">
        <ele>61</ele>
        <time>2020-05-24T13:46:09Z</time>
      </trkpt>
      <trkpt lat="48.48696" lon="2.3539">
        <ele>61</ele>
        <time>2020-05-24T13:46:31Z</time>
      </trkpt>
      <trkpt lat="48.48693" lon="2.35398">
        <ele>63</ele>
        <time>2020-05-24T13:46:37Z</time>
      </trkpt>
      <trkpt lat="48.48681" lon="2.35412">
        <ele>65</ele>
        <time>2020-05-24T13:46:51Z</time>
      </trkpt>
      <trkpt lat="48.48676" lon="2.35409">
        <ele>65</ele>
        <time>2020-05-24T13:46:56Z</time>
      </trkpt>
      <trkpt lat="48.48642" lon="2.35376">
        <ele>65</ele>
        <time>2020-05-24T13:47:28Z</time>
      </trkpt>
      <trkpt lat="48.48637" lon="2.35382">
        <ele>65</ele>
        <time>2020-05-24T13:47:32Z</time>
      </trkpt>
      <trkpt lat="48.48634" lon="2.35387">
        <ele>65</ele>
        <time>2020-05-24T13:47:35Z</time>
      </trkpt>
      <trkpt lat="48.48631" lon="2.35393">
        <ele>66</ele>
        <time>2020-05-24T13:47:39Z</time>
      </trkpt>
      <trkpt lat="48.48626" lon="2.35415">
        <ele>68</ele>
        <time>2020-05-24T13:47:52Z</time>
      </trkpt>
      <trkpt lat="48.48622" lon="2.35419">
        <ele>69</ele>
        <time>2020-05-24T13:47:56Z</time>
      </trkpt>
      <trkpt lat="48.48617" lon="2.35419">
        <ele>70</ele>
        <time>2020-05-24T13:48:00Z</time>
      </trkpt>
      <trkpt lat="48.48593" lon="2.35385">
        <ele>70</ele>
        <time>2020-05-24T13:48:28Z</time>
      </trkpt>
      <trkpt lat="48.48578" lon="2.35375">
        <ele>70</ele>
        <time>2020-05-24T13:48:39Z</time>
      </trkpt>
      <trkpt lat="48.48566" lon="2.35369">
        <ele>71</ele>
        <time>2020-05-24T13:48:49Z</time>
      </trkpt>
      <trkpt lat="48.48552" lon="2.35355">
        <ele>71</ele>
        <time>2020-05-24T13:49:01Z</time>
      </trkpt>
      <trkpt lat="48.48515" lon="2.35331">
        <ele>72</ele>
        <time>2020-05-24T13:49:32Z</time>
      </trkpt>
      <trkpt lat="48.48472" lon="2.35308">
        <ele>73</ele>
        <time>2020-05-24T13:50:06Z</time>
      </trkpt>
      <trkpt lat="48.48461" lon="2.35299">
        <ele>74</ele>
        <time>2020-05-24T13:50:18Z</time>
      </trkpt>
      <trkpt lat="48.48458" lon="2.35292">
        <ele>74</ele>
        <time>2020-05-24T13:50:25Z</time>
      </trkpt>
      <trkpt lat="48.4846" lon="2.35286">
        <ele>73</ele>
        <time>2020-05-24T13:50:30Z</time>
      </trkpt>
      <trkpt lat="48.48463" lon="2.35268">
        <ele>72</ele>
        <time>2020-05-24T13:50:47Z</time>
      </trkpt>
      <trkpt lat="48.48473" lon="2.35229">
        <ele>69</ele>
        <time>2020-05-24T13:51:07Z</time>
      </trkpt>
      <trkpt lat="48.48478" lon="2.35215">
        <ele>68</ele>
        <time>2020-05-24T13:51:15Z</time>
      </trkpt>
      <trkpt lat="48.48474" lon="2.3521">
        <ele>68</ele>
        <time>2020-05-24T13:51:19Z</time>
      </trkpt>
      <trkpt lat="48.4847" lon="2.35207">
        <ele>68</ele>
        <time>2020-05-24T13:51:23Z</time>
      </trkpt>
      <trkpt lat="48.4846" lon="2.35201">
        <ele>68</ele>
        <time>2020-05-24T13:51:31Z</time>
      </trkpt>
      <trkpt lat="48.48451" lon="2.35198">
        <ele>68</ele>
        <time>2020-05-24T13:51:40Z</time>
      </trkpt>
      <trkpt lat="48.48447" lon="2.35193">
        <ele>69</ele>
        <time>2020-05-24T13:51:45Z</time>
      </trkpt>
      <trkpt lat="48.48451" lon="2.35179">
        <ele>69</ele>
        <time>2020-05-24T13:51:53Z</time>
      </trkpt>
      <trkpt lat="48.48453" lon="2.35173">
        <ele>69</ele>
        <time>2020-05-24T13:51:56Z</time>
      </trkpt>
      <trkpt lat="48.48458" lon="2.35159">
        <ele>69</ele>
        <time>2020-05-24T13:52:06Z</time>
      </trkpt>
      <trkpt lat="48.48462" lon="2.35165">
        <ele>63</ele>
        <time>2020-05-24T13:52:35Z</time>
      </trkpt>
      <trkpt lat="48.48467" lon="2.35168">
        <ele>63</ele>
        <time>2020-05-24T13:52:39Z</time>
      </trkpt>
      <trkpt lat="48.48471" lon="2.35173">
        <ele>63</ele>
        <time>2020-05-24T13:52:43Z</time>
      </trkpt>
    </trkseg>
  </trk>
</gpx>